Time,TemperatureF,DewpointF,PressureIn,WindDirection,WindDirectionDegrees,WindSpeedMPH,WindSpeedGustMPH,Humidity,HourlyPrecipIn,Conditions,Clouds,dailyrainin,SoftwareType,DateUTC
2013-12-10 00:00:00,40.1,39.6,29.76,East,90,112.6,0.0,98,0.00,,---,0.00,VWS V14.01,2013-12-10 05:00:00,
2013-12-10 00:01:00,40.1,39.6,29.76,East,90,112.6,0.0,98,0.00,,---,0.00,VWS V14.01,2013-12-10 05:01:00,
2013-12-10 00:02:00,39.6,39.0,29.76,East,90,112.6,0.0,98,0.00,,---,0.00,VWS V14.01,2013-12-10 05:02:00,
2013-12-10 00:03:00,40.1,39.6,29.76,East,90,112.6,0.0,98,0.00,,---,0.00,VWS V14.01,2013-12-10 05:03:00,
2013-12-10 00:04:00,39.6,39.0,29.76,East,90,112.6,0.0,98,0.00,,---,0.00,VWS V14.01,2013-12-10 05:04:00,
2013-12-10 00:05:00,39.6,39.0,29.76,East,90,112.6,0.0,98,0.00,,---,0.00,VWS V14.01,2013-12-10 05:05:00,
2013-12-10 00:06:00,40.1,39.6,29.76,East,90,112.6,0.0,98,0.00,,---,0.00,VWS V14.01,2013-12-10 05:06:00,
2013-12-10 00:07:00,39.6,39.0,29.76,East,90,112.6,0.0,98,0.00,,---,0.00,VWS V14.01,2013-12-10 05:07:00,
2013-12-10 00:08:00,40.1,39.6,29.76,East,90,112.6,0.0,98,0.00,,---,0.00,VWS V14.01,2013-12-10 05:08:00,
2013-12-10 00:09:00,40.1,39.6,29.76,East,90,112.6,0.0,98,0.00,,---,0.00,VWS V14.01,2013-12-10 05:09:00,
2013-12-10 00:10:00,39.7,39.2,29.76,East,90,112.6,0.0,98,0.00,,---,0.00,VWS V14.01,2013-12-10 05:10:00,
2013-12-10 00:11:00,40.1,39.6,29.76,East,90,112.6,0.0,98,0.00,,---,0.00,VWS V14.01,2013-12-10 05:11:00,
2013-12-10 00:12:00,40.1,39.6,29.74,East,90,112.6,0.0,98,0.00,,---,0.00,VWS V14.01,2013-12-10 05:12:00,
2013-12-10 00:13:00,40.3,39.8,29.74,East,90,112.6,0.0,98,0.00,,---,0.00,VWS V14.01,2013-12-10 05:13:00,
2013-12-10 00:14:00,39.7,39.2,29.76,East,90,112.6,0.0,98,0.00,,---,0.00,VWS V14.01,2013-12-10 05:14:00,
2013-12-10 00:15:00,39.7,39.2,29.76,East,90,112.6,0.0,98,0.00,,---,0.00,VWS V14.01,2013-12-10 05:15:00,
2013-12-10 00:16:00,40.3,39.8,29.74,East,90,112.6,0.0,98,0.00,,---,0.00,VWS V14.01,2013-12-10 05:16:00,
2013-12-10 00:17:00,39.7,39.2,29.76,East,90,112.6,0.0,98,0.00,,---,0.00,VWS V14.01,2013-12-10 05:17:00,
2013-12-10 00:18:00,39.7,39.2,29.76,East,90,112.6,0.0,98,0.00,,---,0.00,VWS V14.01,2013-12-10 05:18:00,
2013-12-10 00:19:00,40.3,39.8,29.74,East,90,112.6,0.0,98,0.00,,---,0.00,VWS V14.01,2013-12-10 05:19:00,
2013-12-10 00:20:00,39.7,39.2,29.76,East,90,112.6,0.0,98,0.00,,---,0.00,VWS V14.01,2013-12-10 05:20:00,
2013-12-10 00:21:00,40.3,39.8,29.74,East,90,112.6,0.0,98,0.00,,---,0.00,VWS V14.01,2013-12-10 05:21:00,
2013-12-10 00:22:00,39.7,39.2,29.76,East,90,112.6,0.0,98,0.00,,---,0.00,VWS V14.01,2013-12-10 05:22:00,
2013-12-10 00:23:00,39.7,39.2,29.76,East,90,112.6,0.0,98,0.00,,---,0.00,VWS V14.01,2013-12-10 05:23:00,
2013-12-10 00:24:00,40.3,39.8,29.74,East,90,112.6,0.0,98,0.00,,---,0.00,VWS V14.01,2013-12-10 05:24:00,
2013-12-10 00:25:00,40.3,39.8,29.74,East,90,112.6,0.0,98,0.00,,---,0.00,VWS V14.01,2013-12-10 05:25:00,
2013-12-10 00:26:00,40.3,39.8,29.74,East,90,112.6,0.0,98,0.00,,---,0.00,VWS V14.01,2013-12-10 05:26:00,
2013-12-10 00:27:00,39.7,39.2,29.76,East,90,112.6,0.0,98,0.00,,---,0.00,VWS V14.01,2013-12-10 05:27:00,
2013-12-10 00:28:00,40.3,39.8,29.74,East,90,112.6,0.0,98,0.00,,---,0.00,VWS V14.01,2013-12-10 05:28:00,
2013-12-10 00:29:00,40.3,39.8,29.74,East,90,112.6,0.0,98,0.00,,---,0.00,VWS V14.01,2013-12-10 05:29:00,
2013-12-10 00:30:00,39.7,39.2,29.76,East,90,112.6,0.0,98,0.00,,---,0.00,VWS V14.01,2013-12-10 05:30:00,
2013-12-10 00:31:00,40.3,39.8,29.74,East,90,112.6,0.0,98,0.00,,---,0.00,VWS V14.01,2013-12-10 05:31:00,
2013-12-10 00:32:00,40.3,39.8,29.74,East,90,112.6,0.0,98,0.00,,---,0.00,VWS V14.01,2013-12-10 05:32:00,
2013-12-10 00:33:00,39.7,39.2,29.76,East,90,112.6,0.0,98,0.00,,---,0.00,VWS V14.01,2013-12-10 05:33:00,
2013-12-10 00:34:00,39.7,39.2,29.76,East,90,112.6,0.0,98,0.00,,---,0.00,VWS V14.01,2013-12-10 05:34:00,
2013-12-10 00:35:00,40.3,39.8,29.74,East,90,112.6,0.0,98,0.00,,---,0.00,VWS V14.01,2013-12-10 05:35:00,
2013-12-10 00:36:00,40.3,39.8,29.74,East,90,112.6,0.0,98,0.00,,---,0.00,VWS V14.01,2013-12-10 05:36:00,
2013-12-10 00:37:00,39.7,39.2,29.76,East,90,112.6,0.0,98,0.00,,---,0.00,VWS V14.01,2013-12-10 05:37:00,
2013-12-10 00:38:00,40.3,39.8,29.74,East,90,112.6,0.0,98,0.00,,---,0.00,VWS V14.01,2013-12-10 05:38:00,
2013-12-10 00:39:00,39.7,39.2,29.76,East,90,112.6,0.0,98,0.00,,---,0.00,VWS V14.01,2013-12-10 05:39:00,
2013-12-10 00:40:00,40.3,39.8,29.74,East,90,112.6,0.0,98,0.00,,---,0.00,VWS V14.01,2013-12-10 05:40:00,
2013-12-10 00:41:00,39.7,39.2,29.76,East,90,112.6,0.0,98,0.00,,---,0.00,VWS V14.01,2013-12-10 05:41:00,
2013-12-10 00:42:00,40.3,39.8,29.74,East,90,112.6,0.0,98,0.00,,---,0.00,VWS V14.01,2013-12-10 05:42:00,
2013-12-10 00:43:00,39.9,39.4,29.76,East,90,112.6,0.0,98,0.00,,---,0.00,VWS V14.01,2013-12-10 05:43:00,
2013-12-10 00:44:00,40.3,39.8,29.74,East,90,112.6,0.0,98,0.00,,---,0.00,VWS V14.01,2013-12-10 05:44:00,
2013-12-10 00:45:00,40.3,39.8,29.74,East,90,112.6,0.0,98,0.00,,---,0.00,VWS V14.01,2013-12-10 05:45:00,
2013-12-10 00:46:00,40.3,39.8,29.74,East,90,112.6,0.0,98,0.00,,---,0.00,VWS V14.01,2013-12-10 05:46:00,
2013-12-10 00:47:00,39.9,39.4,29.76,East,90,112.6,0.0,98,0.00,,---,0.00,VWS V14.01,2013-12-10 05:47:00,
2013-12-10 00:48:00,40.5,39.9,29.74,East,90,112.6,0.0,98,0.00,,---,0.00,VWS V14.01,2013-12-10 05:48:00,
2013-12-10 00:49:00,39.9,39.4,29.76,East,90,112.6,0.0,98,0.00,,---,0.00,VWS V14.01,2013-12-10 05:49:00,
2013-12-10 00:50:00,40.5,39.9,29.74,East,90,112.6,0.0,98,0.00,,---,0.00,VWS V14.01,2013-12-10 05:50:00,
2013-12-10 00:51:00,39.9,39.4,29.76,East,90,112.6,0.0,98,0.00,,---,0.00,VWS V14.01,2013-12-10 05:51:00,
2013-12-10 00:52:00,40.5,39.9,29.74,East,90,112.6,0.0,98,0.00,,---,0.00,VWS V14.01,2013-12-10 05:52:00,
2013-12-10 00:53:00,40.5,39.9,29.74,East,90,112.6,0.0,98,0.00,,---,0.00,VWS V14.01,2013-12-10 05:53:00,
2013-12-10 00:54:00,40.5,39.9,29.74,East,90,112.6,0.0,98,0.00,,---,0.00,VWS V14.01,2013-12-10 05:54:00,
2013-12-10 00:55:00,40.5,39.9,29.74,East,90,112.6,0.0,98,0.00,,---,0.00,VWS V14.01,2013-12-10 05:55:00,
2013-12-10 00:56:00,39.9,39.4,29.76,East,90,112.6,0.0,98,0.00,,---,0.00,VWS V14.01,2013-12-10 05:56:00,
2013-12-10 00:57:00,40.1,39.6,29.76,East,90,112.6,0.0,98,0.00,,---,0.00,VWS V14.01,2013-12-10 05:57:00,
2013-12-10 00:58:00,40.5,39.9,29.74,East,90,112.6,0.0,98,0.00,,---,0.00,VWS V14.01,2013-12-10 05:58:00,
2013-12-10 00:59:00,40.5,39.9,29.74,East,90,112.6,0.0,98,0.00,,---,0.00,VWS V14.01,2013-12-10 05:59:00,
2013-12-10 01:00:00,40.1,39.6,29.76,East,90,112.6,0.0,98,0.00,,---,0.00,VWS V14.01,2013-12-10 06:00:00,
2013-12-10 01:01:00,40.1,39.6,29.76,East,90,112.6,0.0,98,0.00,,---,0.00,VWS V14.01,2013-12-10 06:01:00,
2013-12-10 01:02:00,40.5,39.9,29.74,East,90,112.6,0.0,98,0.00,,---,0.00,VWS V14.01,2013-12-10 06:02:00,
2013-12-10 01:03:00,40.5,39.9,29.74,East,90,112.6,0.0,98,0.00,,---,0.00,VWS V14.01,2013-12-10 06:03:00,
2013-12-10 01:04:00,40.1,39.6,29.76,East,90,112.6,0.0,98,0.00,,---,0.00,VWS V14.01,2013-12-10 06:04:00,
2013-12-10 01:05:00,40.5,39.9,29.74,East,90,112.6,0.0,98,0.00,,---,0.00,VWS V14.01,2013-12-10 06:05:00,
2013-12-10 01:06:00,40.1,39.6,29.76,East,90,112.6,0.0,98,0.00,,---,0.00,VWS V14.01,2013-12-10 06:06:00,
2013-12-10 01:07:00,40.1,39.6,29.76,East,90,112.6,0.0,98,0.00,,---,0.00,VWS V14.01,2013-12-10 06:07:00,
2013-12-10 01:08:00,40.5,39.9,29.74,East,90,112.6,0.0,98,0.00,,---,0.00,VWS V14.01,2013-12-10 06:08:00,
2013-12-10 01:09:00,40.1,39.6,29.76,East,90,112.6,0.0,98,0.00,,---,0.00,VWS V14.01,2013-12-10 06:09:00,
2013-12-10 01:10:00,40.5,39.9,29.74,East,90,112.6,0.0,98,0.00,,---,0.00,VWS V14.01,2013-12-10 06:10:00,
2013-12-10 01:11:00,40.5,39.9,29.74,East,90,112.6,0.0,98,0.00,,---,0.00,VWS V14.01,2013-12-10 06:11:00,
2013-12-10 01:12:00,40.5,39.9,29.71,East,90,112.6,0.0,98,0.00,,---,0.00,VWS V14.01,2013-12-10 06:12:00,
2013-12-10 01:13:00,40.5,39.9,29.71,East,90,112.6,0.0,98,0.00,,---,0.00,VWS V14.01,2013-12-10 06:13:00,
2013-12-10 01:14:00,40.1,39.6,29.76,East,90,112.6,0.0,98,0.00,,---,0.00,VWS V14.01,2013-12-10 06:14:00,
2013-12-10 01:15:00,40.5,39.9,29.71,East,90,112.6,0.0,98,0.00,,---,0.00,VWS V14.01,2013-12-10 06:15:00,
2013-12-10 01:16:00,40.3,39.8,29.74,East,90,112.6,0.0,98,0.00,,---,0.00,VWS V14.01,2013-12-10 06:16:00,
2013-12-10 01:17:00,40.5,39.9,29.71,East,90,112.6,0.0,98,0.00,,---,0.00,VWS V14.01,2013-12-10 06:17:00,
2013-12-10 01:18:00,40.3,39.8,29.74,East,90,112.6,0.0,98,0.00,,---,0.00,VWS V14.01,2013-12-10 06:18:00,
2013-12-10 01:19:00,40.3,39.8,29.74,East,90,112.6,0.0,98,0.00,,---,0.00,VWS V14.01,2013-12-10 06:19:00,
2013-12-10 01:20:00,40.5,39.9,29.71,East,90,112.6,0.0,98,0.00,,---,0.00,VWS V14.01,2013-12-10 06:20:00,
2013-12-10 01:21:00,40.5,39.9,29.71,East,90,112.6,0.0,98,0.00,,---,0.00,VWS V14.01,2013-12-10 06:21:00,
2013-12-10 01:22:00,40.3,39.8,29.74,East,90,112.6,0.0,98,0.00,,---,0.00,VWS V14.01,2013-12-10 06:22:00,
2013-12-10 01:23:00,40.5,39.9,29.71,East,90,112.6,0.0,98,0.00,,---,0.00,VWS V14.01,2013-12-10 06:23:00,
2013-12-10 01:24:00,40.5,39.9,29.71,East,90,112.6,0.0,98,0.00,,---,0.00,VWS V14.01,2013-12-10 06:24:00,
2013-12-10 01:25:00,40.3,39.8,29.74,East,90,112.6,0.0,98,0.00,,---,0.00,VWS V14.01,2013-12-10 06:25:00,
2013-12-10 01:26:00,40.3,39.8,29.74,East,90,112.6,0.0,98,0.00,,---,0.00,VWS V14.01,2013-12-10 06:26:00,
2013-12-10 01:27:00,40.5,39.9,29.71,East,90,112.6,0.0,98,0.00,,---,0.00,VWS V14.01,2013-12-10 06:27:00,
2013-12-10 01:28:00,40.5,39.9,29.68,East,90,112.6,0.0,98,0.00,,---,0.00,VWS V14.01,2013-12-10 06:28:00,
2013-12-10 01:29:00,40.5,39.9,29.68,East,90,112.6,0.0,98,0.00,,---,0.00,VWS V14.01,2013-12-10 06:29:00,
2013-12-10 01:30:00,40.5,39.9,29.68,East,90,112.6,0.0,98,0.00,,---,0.00,VWS V14.01,2013-12-10 06:30:00,
2013-12-10 01:31:00,40.3,39.8,29.74,East,90,112.6,0.0,98,0.00,,---,0.00,VWS V14.01,2013-12-10 06:31:00,
2013-12-10 01:32:00,40.3,39.8,29.74,East,90,112.6,0.0,98,0.00,,---,0.00,VWS V14.01,2013-12-10 06:32:00,
2013-12-10 01:33:00,40.3,39.8,29.74,East,90,112.6,0.0,98,0.00,,---,0.00,VWS V14.01,2013-12-10 06:33:00,
2013-12-10 01:34:00,40.5,39.9,29.68,East,90,112.6,0.0,98,0.00,,---,0.00,VWS V14.01,2013-12-10 06:34:00,
2013-12-10 01:35:00,40.5,39.9,29.68,East,90,112.6,0.0,98,0.00,,---,0.00,VWS V14.01,2013-12-10 06:35:00,
2013-12-10 01:37:00,40.5,39.9,29.68,East,90,112.6,0.0,98,0.00,,---,0.00,VWS V14.01,2013-12-10 06:37:00,
2013-12-10 01:38:00,40.5,39.9,29.68,East,90,112.6,0.0,98,0.00,,---,0.00,VWS V14.01,2013-12-10 06:38:00,
2013-12-10 01:39:00,40.3,39.8,29.74,East,90,112.6,0.0,98,0.00,,---,0.00,VWS V14.01,2013-12-10 06:39:00,
2013-12-10 01:40:00,40.5,39.9,29.68,East,90,112.6,0.0,98,0.00,,---,0.00,VWS V14.01,2013-12-10 06:40:00,
2013-12-10 01:41:00,40.3,39.8,29.74,East,90,112.6,0.0,98,0.00,,---,0.00,VWS V14.01,2013-12-10 06:41:00,
2013-12-10 01:42:00,40.5,39.9,29.71,East,90,112.6,0.0,98,0.00,,---,0.00,VWS V14.01,2013-12-10 06:42:00,
2013-12-10 01:43:00,40.3,39.8,29.74,East,90,112.6,0.0,98,0.00,,---,0.00,VWS V14.01,2013-12-10 06:43:00,
2013-12-10 01:44:00,40.5,39.9,29.71,East,90,112.6,0.0,98,0.00,,---,0.00,VWS V14.01,2013-12-10 06:44:00,
2013-12-10 01:45:00,40.3,39.8,29.74,East,90,112.6,0.0,98,0.00,,---,0.00,VWS V14.01,2013-12-10 06:45:00,
2013-12-10 01:46:00,40.3,39.8,29.74,East,90,112.6,0.0,98,0.00,,---,0.00,VWS V14.01,2013-12-10 06:46:00,
2013-12-10 01:47:00,40.6,40.1,29.71,East,90,112.6,0.0,98,0.00,,---,0.00,VWS V14.01,2013-12-10 06:47:00,
2013-12-10 01:48:00,40.6,40.1,29.71,East,90,112.6,0.0,98,0.00,,---,0.00,VWS V14.01,2013-12-10 06:48:00,
2013-12-10 01:49:00,40.6,40.1,29.71,East,90,112.6,0.0,98,0.00,,---,0.00,VWS V14.01,2013-12-10 06:49:00,
2013-12-10 01:50:00,40.6,40.1,29.71,East,90,112.6,0.0,98,0.00,,---,0.00,VWS V14.01,2013-12-10 06:50:00,
2013-12-10 01:51:00,40.6,40.1,29.71,East,90,112.6,0.0,98,0.00,,---,0.00,VWS V14.01,2013-12-10 06:51:00,
2013-12-10 01:52:00,40.5,39.9,29.74,East,90,112.6,0.0,98,0.00,,---,0.00,VWS V14.01,2013-12-10 06:52:00,
2013-12-10 01:53:00,40.5,39.9,29.74,East,90,112.6,0.0,98,0.00,,---,0.00,VWS V14.01,2013-12-10 06:53:00,
2013-12-10 01:54:00,40.6,40.1,29.71,East,90,112.6,0.0,98,0.00,,---,0.00,VWS V14.01,2013-12-10 06:54:00,
2013-12-10 01:55:00,40.6,40.1,29.71,East,90,112.6,0.0,98,0.00,,---,0.00,VWS V14.01,2013-12-10 06:55:00,
2013-12-10 01:56:00,40.6,40.1,29.71,East,90,112.6,0.0,98,0.00,,---,0.00,VWS V14.01,2013-12-10 06:56:00,
2013-12-10 01:57:00,40.6,40.1,29.71,East,90,112.6,0.0,98,0.00,,---,0.00,VWS V14.01,2013-12-10 06:57:00,
2013-12-10 01:58:00,40.5,39.9,29.74,East,90,112.6,0.0,98,0.00,,---,0.00,VWS V14.01,2013-12-10 06:58:00,
2013-12-10 01:59:00,40.5,39.9,29.74,East,90,112.6,0.0,98,0.00,,---,0.00,VWS V14.01,2013-12-10 06:59:00,
2013-12-10 02:00:00,40.6,40.1,29.71,East,90,112.6,0.0,98,0.00,,---,0.00,VWS V14.01,2013-12-10 07:00:00,
2013-12-10 02:01:00,40.6,40.1,29.71,East,90,112.6,0.0,98,0.00,,---,0.00,VWS V14.01,2013-12-10 07:01:00,
2013-12-10 02:02:00,40.6,40.1,29.71,East,90,112.6,0.0,98,0.00,,---,0.00,VWS V14.01,2013-12-10 07:02:00,
2013-12-10 02:03:00,40.6,40.1,29.71,East,90,112.6,0.0,98,0.00,,---,0.00,VWS V14.01,2013-12-10 07:03:00,
2013-12-10 02:04:00,40.5,39.9,29.74,East,90,112.6,0.0,98,0.00,,---,0.00,VWS V14.01,2013-12-10 07:04:00,
2013-12-10 02:05:00,40.6,40.1,29.71,East,90,112.6,0.0,98,0.00,,---,0.00,VWS V14.01,2013-12-10 07:05:00,
2013-12-10 02:06:00,40.5,39.9,29.74,East,90,112.6,0.0,98,0.00,,---,0.00,VWS V14.01,2013-12-10 07:06:00,
2013-12-10 02:07:00,40.8,40.3,29.71,East,90,112.6,0.0,98,0.00,,---,0.00,VWS V14.01,2013-12-10 07:07:00,
2013-12-10 02:08:00,40.8,40.3,29.71,East,90,112.6,0.0,98,0.00,,---,0.00,VWS V14.01,2013-12-10 07:08:00,
2013-12-10 02:09:00,40.8,40.3,29.71,East,90,112.6,0.0,98,0.00,,---,0.00,VWS V14.01,2013-12-10 07:09:00,
2013-12-10 02:10:00,40.5,39.9,29.74,East,90,112.6,0.0,98,0.00,,---,0.00,VWS V14.01,2013-12-10 07:10:00,
2013-12-10 02:11:00,40.8,40.3,29.71,North,0,112.6,0.0,98,0.00,,---,0.00,VWS V14.01,2013-12-10 07:11:00,
2013-12-10 02:12:00,40.8,40.3,29.71,North,0,112.6,0.0,98,0.00,,---,0.00,VWS V14.01,2013-12-10 07:12:00,
2013-12-10 02:13:00,40.5,39.9,29.74,East,90,112.6,0.0,98,0.00,,---,0.00,VWS V14.01,2013-12-10 07:13:00,
2013-12-10 02:14:00,40.8,40.3,29.71,North,0,112.6,0.0,98,0.00,,---,0.00,VWS V14.01,2013-12-10 07:14:00,
2013-12-10 02:15:00,40.8,40.3,29.71,North,0,112.6,0.0,98,0.00,,---,0.00,VWS V14.01,2013-12-10 07:15:00,
2013-12-10 02:16:00,40.8,40.3,29.71,North,0,112.6,0.0,98,0.00,,---,0.00,VWS V14.01,2013-12-10 07:16:00,
2013-12-10 02:18:00,40.8,40.3,29.71,North,0,112.6,0.0,98,0.00,,---,0.00,VWS V14.01,2013-12-10 07:18:00,
2013-12-10 02:19:00,40.5,39.9,29.71,East,90,112.6,0.0,98,0.00,,---,0.00,VWS V14.01,2013-12-10 07:19:00,
2013-12-10 02:20:00,40.8,40.3,29.71,NNE,22,112.6,0.0,98,0.00,,---,0.00,VWS V14.01,2013-12-10 07:20:00,
2013-12-10 02:21:00,40.5,39.9,29.71,East,90,112.6,0.0,98,0.00,,---,0.00,VWS V14.01,2013-12-10 07:21:00,
2013-12-10 02:22:00,40.8,40.3,29.71,NNE,22,112.6,0.0,98,0.00,,---,0.00,VWS V14.01,2013-12-10 07:22:00,
2013-12-10 02:23:00,40.5,39.9,29.71,East,90,112.6,0.0,98,0.00,,---,0.00,VWS V14.01,2013-12-10 07:23:00,
2013-12-10 02:24:00,40.8,40.3,29.71,NNE,22,112.6,0.0,98,0.00,,---,0.00,VWS V14.01,2013-12-10 07:24:00,
2013-12-10 02:25:00,40.8,40.3,29.71,NNE,22,112.6,0.0,98,0.00,,---,0.00,VWS V14.01,2013-12-10 07:25:00,
2013-12-10 02:26:00,40.8,40.3,29.71,NNE,22,112.6,0.0,98,0.00,,---,0.00,VWS V14.01,2013-12-10 07:26:00,
2013-12-10 02:27:00,40.8,40.3,29.68,NNE,22,112.6,0.0,98,0.00,,---,0.00,VWS V14.01,2013-12-10 07:27:00,
2013-12-10 02:28:00,40.8,40.3,29.68,NNE,22,112.6,0.0,98,0.00,,---,0.00,VWS V14.01,2013-12-10 07:28:00,
2013-12-10 02:29:00,40.5,39.9,29.71,East,90,112.6,0.0,98,0.00,,---,0.00,VWS V14.01,2013-12-10 07:29:00,
2013-12-10 02:30:00,40.5,39.9,29.71,East,90,112.6,0.0,98,0.00,,---,0.00,VWS V14.01,2013-12-10 07:30:00,
2013-12-10 02:32:00,40.8,40.3,29.68,NNE,22,112.6,0.0,98,0.00,,---,0.00,VWS V14.01,2013-12-10 07:32:00,
2013-12-10 02:33:00,40.5,39.9,29.68,East,90,112.6,0.0,98,0.00,,---,0.00,VWS V14.01,2013-12-10 07:33:00,
2013-12-10 02:34:00,40.8,40.3,29.68,NNW,338,112.6,0.0,98,0.00,,---,0.00,VWS V14.01,2013-12-10 07:34:00,
2013-12-10 02:35:00,40.5,39.9,29.68,East,90,112.6,0.0,98,0.00,,---,0.00,VWS V14.01,2013-12-10 07:35:00,
2013-12-10 02:36:00,41.0,40.5,29.68,NNW,338,112.6,0.0,98,0.00,,---,0.00,VWS V14.01,2013-12-10 07:36:00,
2013-12-10 02:37:00,41.0,40.5,29.68,NNW,338,112.6,0.0,98,0.00,,---,0.00,VWS V14.01,2013-12-10 07:37:00,
2013-12-10 02:38:00,40.5,39.9,29.68,East,90,112.6,0.0,98,0.00,,---,0.00,VWS V14.01,2013-12-10 07:38:00,
2013-12-10 02:39:00,40.5,39.9,29.68,East,90,112.6,0.0,98,0.00,,---,0.00,VWS V14.01,2013-12-10 07:39:00,
2013-12-10 02:40:00,41.0,40.5,29.68,North,0,112.6,0.0,98,0.00,,---,0.00,VWS V14.01,2013-12-10 07:40:00,
2013-12-10 02:41:00,41.0,40.5,29.68,North,0,112.6,0.0,98,0.00,,---,0.00,VWS V14.01,2013-12-10 07:41:00,
2013-12-10 02:42:00,40.5,39.9,29.68,East,90,112.6,0.0,98,0.00,,---,0.00,VWS V14.01,2013-12-10 07:42:00,
2013-12-10 02:43:00,41.0,40.5,29.71,North,0,112.6,0.0,98,0.00,,---,0.00,VWS V14.01,2013-12-10 07:43:00,
2013-12-10 02:44:00,40.5,39.9,29.68,East,90,112.6,0.0,98,0.00,,---,0.00,VWS V14.01,2013-12-10 07:44:00,
2013-12-10 02:45:00,41.0,40.5,29.71,North,0,112.6,0.0,98,0.00,,---,0.00,VWS V14.01,2013-12-10 07:45:00,
2013-12-10 02:46:00,41.0,40.5,29.71,North,0,112.6,0.0,98,0.00,,---,0.00,VWS V14.01,2013-12-10 07:46:00,
2013-12-10 02:47:00,41.0,40.5,29.71,North,0,112.6,0.0,98,0.00,,---,0.00,VWS V14.01,2013-12-10 07:47:00,
2013-12-10 02:48:00,41.0,40.5,29.71,North,0,112.6,0.0,98,0.00,,---,0.00,VWS V14.01,2013-12-10 07:48:00,
2013-12-10 02:50:00,40.6,40.1,29.71,East,90,112.6,0.0,98,0.00,,---,0.00,VWS V14.01,2013-12-10 07:50:00,
2013-12-10 02:51:00,40.6,40.1,29.71,East,90,112.6,0.0,98,0.00,,---,0.00,VWS V14.01,2013-12-10 07:51:00,
2013-12-10 02:52:00,41.2,40.7,29.71,North,0,112.6,0.0,98,0.00,,---,0.00,VWS V14.01,2013-12-10 07:52:00,
2013-12-10 02:53:00,41.2,40.7,29.71,North,0,112.6,0.0,98,0.00,,---,0.00,VWS V14.01,2013-12-10 07:53:00,
2013-12-10 02:54:00,41.2,40.7,29.71,North,0,112.6,0.0,98,0.00,,---,0.00,VWS V14.01,2013-12-10 07:54:00,
2013-12-10 02:55:00,40.6,40.1,29.71,East,90,112.6,0.0,98,0.00,,---,0.00,VWS V14.01,2013-12-10 07:55:00,
2013-12-10 02:56:00,40.6,40.1,29.71,East,90,112.6,0.0,98,0.00,,---,0.00,VWS V14.01,2013-12-10 07:56:00,
2013-12-10 02:57:00,41.2,40.7,29.71,North,0,112.6,0.0,98,0.00,,---,0.00,VWS V14.01,2013-12-10 07:57:00,
2013-12-10 02:58:00,41.2,40.7,29.71,North,0,112.6,0.0,98,0.00,,---,0.00,VWS V14.01,2013-12-10 07:58:00,
2013-12-10 02:59:00,41.2,40.7,29.71,NNE,22,112.6,0.0,98,0.00,,---,0.00,VWS V14.01,2013-12-10 07:59:00,
2013-12-10 03:00:00,40.6,40.1,29.71,East,90,112.6,0.0,98,0.00,,---,0.00,VWS V14.01,2013-12-10 08:00:00,
2013-12-10 03:01:00,41.2,40.7,29.71,NE,45,112.6,0.0,98,0.00,,---,0.00,VWS V14.01,2013-12-10 08:01:00,
2013-12-10 03:02:00,40.6,40.1,29.71,East,90,112.6,0.0,98,0.00,,---,0.00,VWS V14.01,2013-12-10 08:02:00,
2013-12-10 03:03:00,40.6,40.1,29.71,East,90,112.6,0.0,98,0.00,,---,0.00,VWS V14.01,2013-12-10 08:03:00,
2013-12-10 03:05:00,41.4,40.8,29.71,ENE,68,112.6,0.0,98,0.00,,---,0.00,VWS V14.01,2013-12-10 08:05:00,
2013-12-10 03:06:00,41.4,40.8,29.71,ENE,68,112.6,0.0,98,0.00,,---,0.00,VWS V14.01,2013-12-10 08:06:00,
2013-12-10 03:07:00,40.6,40.1,29.71,East,90,112.6,0.0,98,0.00,,---,0.00,VWS V14.01,2013-12-10 08:07:00,
2013-12-10 03:08:00,41.4,40.8,29.71,ENE,68,112.6,0.0,98,0.00,,---,0.00,VWS V14.01,2013-12-10 08:08:00,
2013-12-10 03:09:00,40.8,40.3,29.71,East,90,112.6,0.0,98,0.00,,---,0.00,VWS V14.01,2013-12-10 08:09:00,
2013-12-10 03:10:00,41.4,40.8,29.71,ENE,68,112.6,0.0,98,0.00,,---,0.00,VWS V14.01,2013-12-10 08:10:00,
2013-12-10 03:11:00,41.4,40.8,29.71,ENE,68,112.6,0.0,98,0.00,,---,0.00,VWS V14.01,2013-12-10 08:11:00,
2013-12-10 03:12:00,40.8,40.3,29.71,East,90,112.6,0.0,98,0.00,,---,0.00,VWS V14.01,2013-12-10 08:12:00,
2013-12-10 03:13:00,41.4,40.8,29.74,ENE,68,112.6,0.0,98,0.00,,---,0.00,VWS V14.01,2013-12-10 08:13:00,
2013-12-10 03:14:00,41.4,40.8,29.74,ENE,68,112.6,0.0,98,0.00,,---,0.00,VWS V14.01,2013-12-10 08:14:00,
2013-12-10 03:15:00,41.4,40.8,29.74,ENE,68,112.6,0.0,98,0.00,,---,0.00,VWS V14.01,2013-12-10 08:15:00,
2013-12-10 03:16:00,41.4,40.8,29.74,ENE,68,112.6,0.0,98,0.00,,---,0.00,VWS V14.01,2013-12-10 08:16:00,
2013-12-10 03:17:00,40.8,40.3,29.71,North,0,112.6,0.0,98,0.00,,---,0.00,VWS V14.01,2013-12-10 08:17:00,
2013-12-10 03:18:00,41.4,40.8,29.74,ENE,68,112.6,112.6,98,0.00,,---,0.00,VWS V14.01,2013-12-10 08:18:00,
2013-12-10 03:19:00,40.8,40.3,29.71,North,0,112.6,0.0,98,0.00,,---,0.00,VWS V14.01,2013-12-10 08:19:00,
2013-12-10 03:20:00,40.8,40.3,29.71,North,0,112.6,0.0,98,0.00,,---,0.00,VWS V14.01,2013-12-10 08:20:00,
2013-12-10 03:21:00,41.4,40.8,29.74,ENE,68,112.6,0.0,98,0.00,,---,0.00,VWS V14.01,2013-12-10 08:21:00,
2013-12-10 03:22:00,41.4,40.8,29.74,ENE,68,112.6,0.0,98,0.00,,---,0.00,VWS V14.01,2013-12-10 08:22:00,
2013-12-10 03:23:00,41.4,40.8,29.74,ENE,68,112.6,0.0,98,0.00,,---,0.00,VWS V14.01,2013-12-10 08:23:00,
2013-12-10 03:24:00,40.8,40.3,29.71,NNE,22,112.6,0.0,98,0.00,,---,0.00,VWS V14.01,2013-12-10 08:24:00,
2013-12-10 03:25:00,41.4,40.8,29.74,ENE,68,112.6,0.0,98,0.00,,---,0.00,VWS V14.01,2013-12-10 08:25:00,
2013-12-10 03:26:00,41.4,40.8,29.74,ENE,68,112.6,112.6,98,0.00,,---,0.00,VWS V14.01,2013-12-10 08:26:00,
2013-12-10 03:27:00,40.8,40.3,29.71,NNE,22,112.6,0.0,98,0.00,,---,0.00,VWS V14.01,2013-12-10 08:27:00,
2013-12-10 03:28:00,41.4,40.8,29.68,East,90,0.0,1.3,98,0.00,,---,0.00,VWS V14.01,2013-12-10 08:28:00,
2013-12-10 03:29:00,41.4,40.8,29.68,East,90,0.0,0.0,98,0.00,,---,0.00,VWS V14.01,2013-12-10 08:29:00,
2013-12-10 03:30:00,41.4,40.8,29.68,East,90,0.0,0.0,98,0.00,,---,0.00,VWS V14.01,2013-12-10 08:30:00,
2013-12-10 03:31:00,40.8,40.3,29.68,NNE,22,112.6,0.0,98,0.00,,---,0.00,VWS V14.01,2013-12-10 08:31:00,
2013-12-10 03:32:00,40.8,40.3,29.68,NNE,22,112.6,0.0,98,0.00,,---,0.00,VWS V14.01,2013-12-10 08:32:00,
2013-12-10 03:33:00,41.4,40.8,29.68,East,90,0.0,0.0,98,0.00,,---,0.00,VWS V14.01,2013-12-10 08:33:00,
2013-12-10 03:34:00,40.8,40.3,29.68,NNE,22,112.6,0.0,98,0.00,,---,0.00,VWS V14.01,2013-12-10 08:34:00,
2013-12-10 03:35:00,41.4,40.8,29.68,NNE,22,55.3,57.3,98,0.00,,---,0.00,VWS V14.01,2013-12-10 08:35:00,
2013-12-10 03:36:00,41.4,40.8,29.68,NNW,338,55.3,55.3,98,0.00,,---,0.00,VWS V14.01,2013-12-10 08:36:00,
2013-12-10 03:37:00,40.8,40.3,29.68,NNW,338,112.6,0.0,98,0.00,,---,0.00,VWS V14.01,2013-12-10 08:37:00,
2013-12-10 03:38:00,41.5,41.0,29.68,NNW,338,55.3,0.0,98,0.00,,---,0.00,VWS V14.01,2013-12-10 08:38:00,
2013-12-10 03:39:00,41.0,40.5,29.68,NNW,338,112.6,0.0,98,0.00,,---,0.00,VWS V14.01,2013-12-10 08:39:00,
2013-12-10 03:40:00,41.5,41.0,29.68,NNW,338,55.3,0.0,98,0.00,,---,0.00,VWS V14.01,2013-12-10 08:40:00,
2013-12-10 03:41:00,41.5,41.0,29.68,NNW,338,55.3,55.3,98,0.00,,---,0.00,VWS V14.01,2013-12-10 08:41:00,
2013-12-10 03:42:00,41.0,40.5,29.68,North,0,112.6,0.0,98,0.00,,---,0.00,VWS V14.01,2013-12-10 08:42:00,
2013-12-10 03:43:00,41.5,41.0,29.68,NNW,338,55.3,0.0,98,0.00,,---,0.00,VWS V14.01,2013-12-10 08:43:00,
2013-12-10 03:44:00,41.7,41.2,29.68,NNW,338,55.3,0.0,98,0.00,,---,0.00,VWS V14.01,2013-12-10 08:44:00,
2013-12-10 03:45:00,41.7,41.2,29.68,NNW,338,55.3,0.0,98,0.00,,---,0.00,VWS V14.01,2013-12-10 08:45:00,
2013-12-10 03:46:00,41.7,41.2,29.68,NNW,338,55.3,0.0,98,0.00,,---,0.00,VWS V14.01,2013-12-10 08:46:00,
2013-12-10 03:47:00,41.0,40.5,29.71,North,0,112.6,0.0,98,0.00,,---,0.00,VWS V14.01,2013-12-10 08:47:00,
2013-12-10 03:48:00,41.0,40.5,29.71,North,0,112.6,0.0,98,0.00,,---,0.00,VWS V14.01,2013-12-10 08:48:00,
2013-12-10 03:49:00,41.0,40.5,29.71,North,0,112.6,0.0,98,0.00,,---,0.00,VWS V14.01,2013-12-10 08:49:00,
2013-12-10 03:50:00,41.7,41.2,29.68,North,0,55.3,55.3,98,0.00,,---,0.00,VWS V14.01,2013-12-10 08:50:00,
2013-12-10 03:51:00,41.7,41.2,29.68,NW,315,0.5,2.5,98,0.00,,---,0.00,VWS V14.01,2013-12-10 08:51:00,
2013-12-10 03:52:00,41.9,41.4,29.68,ENE,68,1.1,3.1,98,0.00,,---,0.00,VWS V14.01,2013-12-10 08:52:00,
2013-12-10 03:53:00,41.9,41.4,29.68,ENE,68,1.1,0.0,98,0.00,,---,0.00,VWS V14.01,2013-12-10 08:53:00,
2013-12-10 03:54:00,41.2,40.7,29.71,North,0,112.6,0.0,98,0.00,,---,0.00,VWS V14.01,2013-12-10 08:54:00,
2013-12-10 03:55:00,41.2,40.7,29.71,North,0,112.6,0.0,98,0.00,,---,0.00,VWS V14.01,2013-12-10 08:55:00,
2013-12-10 03:56:00,41.9,41.4,29.68,SSE,158,1.1,0.0,98,0.00,,---,0.00,VWS V14.01,2013-12-10 08:56:00,
2013-12-10 03:57:00,41.2,40.7,29.71,North,0,112.6,0.0,98,0.00,,---,0.00,VWS V14.01,2013-12-10 08:57:00,
2013-12-10 03:58:00,41.9,41.4,29.71,East,90,0.0,2.0,98,0.00,,---,0.00,VWS V14.01,2013-12-10 08:58:00,
2013-12-10 03:59:00,41.2,40.7,29.71,North,0,112.6,0.0,98,0.00,,---,0.00,VWS V14.01,2013-12-10 08:59:00,
2013-12-10 04:00:00,41.9,41.4,29.71,ENE,68,0.5,1.3,98,0.00,,---,0.00,VWS V14.01,2013-12-10 09:00:00,
2013-12-10 04:01:00,41.2,40.7,29.71,North,0,112.6,0.0,98,0.00,,---,0.00,VWS V14.01,2013-12-10 09:01:00,
2013-12-10 04:02:00,41.2,40.7,29.71,NNE,22,112.6,0.0,98,0.00,,---,0.00,VWS V14.01,2013-12-10 09:02:00,
2013-12-10 04:03:00,41.9,41.4,29.71,NE,45,0.5,0.0,98,0.00,,---,0.00,VWS V14.01,2013-12-10 09:03:00,
2013-12-10 04:04:00,41.9,41.4,29.71,NE,45,0.5,0.0,98,0.00,,---,0.00,VWS V14.01,2013-12-10 09:04:00,
2013-12-10 04:05:00,41.9,41.4,29.71,East,90,0.2,2.5,98,0.00,,---,0.00,VWS V14.01,2013-12-10 09:05:00,
2013-12-10 04:06:00,41.9,41.4,29.71,ENE,68,0.2,2.2,98,0.00,,---,0.00,VWS V14.01,2013-12-10 09:06:00,
2013-12-10 04:07:00,41.2,40.7,29.71,NE,45,112.6,0.0,98,0.00,,---,0.00,VWS V14.01,2013-12-10 09:07:00,
2013-12-10 04:08:00,41.9,41.4,29.71,NNE,22,0.2,0.0,98,0.00,,---,0.00,VWS V14.01,2013-12-10 09:08:00,
2013-12-10 04:09:00,41.4,40.8,29.71,ENE,68,112.6,0.0,98,0.00,,---,0.00,VWS V14.01,2013-12-10 09:09:00,
2013-12-10 04:10:00,41.4,40.8,29.71,ENE,68,112.6,0.0,98,0.00,,---,0.00,VWS V14.01,2013-12-10 09:10:00,
2013-12-10 04:11:00,41.9,41.4,29.71,NE,45,0.2,0.0,98,0.00,,---,0.00,VWS V14.01,2013-12-10 09:11:00,
2013-12-10 04:12:00,41.7,41.2,29.68,NE,45,0.2,0.0,98,0.00,,---,0.00,VWS V14.01,2013-12-10 09:12:00,
2013-12-10 04:13:00,41.4,40.8,29.71,ENE,68,112.6,0.0,98,0.00,,---,0.00,VWS V14.01,2013-12-10 09:13:00,
2013-12-10 04:14:00,41.9,41.4,29.68,NNE,22,0.2,0.0,98,0.00,,---,0.00,VWS V14.01,2013-12-10 09:14:00,
2013-12-10 04:15:00,41.4,40.8,29.74,ENE,68,112.6,0.0,98,0.00,,---,0.00,VWS V14.01,2013-12-10 09:15:00,
2013-12-10 04:16:00,41.4,40.8,29.74,ENE,68,112.6,0.0,98,0.00,,---,0.00,VWS V14.01,2013-12-10 09:16:00,
2013-12-10 04:17:00,41.7,41.2,29.68,NNE,22,0.2,0.0,98,0.00,,---,0.00,VWS V14.01,2013-12-10 09:17:00,
2013-12-10 04:18:00,41.7,41.2,29.68,NNE,22,0.2,0.0,98,0.00,,---,0.00,VWS V14.01,2013-12-10 09:18:00,
2013-12-10 04:19:00,41.4,40.8,29.74,ENE,68,112.6,0.0,98,0.00,,---,0.00,VWS V14.01,2013-12-10 09:19:00,
2013-12-10 04:20:00,41.7,41.2,29.68,NE,45,0.2,0.0,98,0.00,,---,0.00,VWS V14.01,2013-12-10 09:20:00,
2013-12-10 04:21:00,41.7,41.2,29.68,NE,45,0.0,2.0,98,0.00,,---,0.00,VWS V14.01,2013-12-10 09:21:00,
2013-12-10 04:22:00,41.7,41.2,29.68,NE,45,0.0,2.0,98,0.00,,---,0.00,VWS V14.01,2013-12-10 09:22:00,
2013-12-10 04:23:00,41.7,41.2,29.68,North,0,0.0,0.0,98,0.00,,---,0.00,VWS V14.01,2013-12-10 09:23:00,
2013-12-10 04:24:00,41.4,40.8,29.74,ENE,68,112.6,0.0,98,0.00,,---,0.00,VWS V14.01,2013-12-10 09:24:00,
2013-12-10 04:25:00,41.7,41.2,29.68,NNW,338,0.2,2.2,98,0.00,,---,0.00,VWS V14.01,2013-12-10 09:25:00,
2013-12-10 04:27:00,41.9,41.4,29.65,NNE,22,0.2,0.0,98,0.00,,---,0.00,VWS V14.01,2013-12-10 09:27:00,
2013-12-10 04:28:00,41.9,41.4,29.65,NNE,22,0.2,0.0,98,0.00,,---,0.00,VWS V14.01,2013-12-10 09:28:00,
2013-12-10 04:29:00,41.9,41.4,29.65,NNE,22,0.2,0.0,98,0.00,,---,0.00,VWS V14.01,2013-12-10 09:29:00,
2013-12-10 04:30:00,41.4,40.8,29.68,ENE,68,0.0,2.0,98,0.00,,---,0.00,VWS V14.01,2013-12-10 09:30:00,
2013-12-10 04:31:00,41.9,41.4,29.65,NNE,22,0.2,0.0,98,0.00,,---,0.00,VWS V14.01,2013-12-10 09:31:00,
2013-12-10 04:32:00,41.4,40.8,29.68,East,90,0.0,0.0,98,0.00,,---,0.00,VWS V14.01,2013-12-10 09:32:00,
2013-12-10 04:33:00,41.4,40.8,29.68,East,90,0.0,0.0,98,0.00,,---,0.00,VWS V14.01,2013-12-10 09:33:00,
2013-12-10 04:34:00,41.9,41.4,29.65,NE,45,0.2,0.0,98,0.00,,---,0.00,VWS V14.01,2013-12-10 09:34:00,
2013-12-10 04:35:00,41.9,41.4,29.65,NE,45,0.2,0.0,98,0.00,,---,0.00,VWS V14.01,2013-12-10 09:35:00,
2013-12-10 04:36:00,41.4,40.8,29.68,East,90,0.0,0.0,98,0.00,,---,0.00,VWS V14.01,2013-12-10 09:36:00,
2013-12-10 04:37:00,41.4,40.8,29.68,East,90,55.3,57.3,98,0.00,,---,0.00,VWS V14.01,2013-12-10 09:37:00,
2013-12-10 04:38:00,41.9,41.4,29.65,NE,45,0.2,0.0,98,0.00,,---,0.00,VWS V14.01,2013-12-10 09:38:00,
2013-12-10 04:39:00,41.9,41.4,29.65,NE,45,0.2,0.0,98,0.00,,---,0.00,VWS V14.01,2013-12-10 09:39:00,
2013-12-10 04:40:00,41.4,40.8,29.68,NNW,338,55.3,55.3,98,0.00,,---,0.00,VWS V14.01,2013-12-10 09:40:00,
2013-12-10 04:41:00,41.5,41.0,29.68,NNW,338,55.3,0.0,98,0.00,,---,0.00,VWS V14.01,2013-12-10 09:41:00,
2013-12-10 04:42:00,41.5,41.0,29.68,NNW,338,55.3,0.0,98,0.00,,---,0.00,VWS V14.01,2013-12-10 09:42:00,
2013-12-10 04:43:00,41.9,41.4,29.65,North,0,0.2,0.0,98,0.00,,---,0.00,VWS V14.01,2013-12-10 09:43:00,
2013-12-10 04:44:00,41.9,41.4,29.65,NNE,22,0.2,0.0,98,0.00,,---,0.00,VWS V14.01,2013-12-10 09:44:00,
2013-12-10 04:45:00,42.1,41.6,29.65,NNE,22,0.2,0.0,98,0.00,,---,0.00,VWS V14.01,2013-12-10 09:45:00,
2013-12-10 04:46:00,41.5,41.0,29.68,NNW,338,55.3,0.0,98,0.00,,---,0.00,VWS V14.01,2013-12-10 09:46:00,
2013-12-10 04:47:00,41.7,41.2,29.68,NNW,338,55.3,0.0,98,0.00,,---,0.00,VWS V14.01,2013-12-10 09:47:00,
2013-12-10 04:48:00,42.1,41.6,29.65,NNE,22,0.2,0.0,98,0.00,,---,0.00,VWS V14.01,2013-12-10 09:48:00,
2013-12-10 04:49:00,41.7,41.2,29.68,NNW,338,55.3,0.0,98,0.00,,---,0.00,VWS V14.01,2013-12-10 09:49:00,
2013-12-10 04:50:00,42.1,41.6,29.65,NNE,22,0.2,0.0,98,0.00,,---,0.00,VWS V14.01,2013-12-10 09:50:00,
2013-12-10 04:51:00,42.1,41.6,29.65,NNE,22,0.2,0.0,98,0.00,,---,0.00,VWS V14.01,2013-12-10 09:51:00,
2013-12-10 04:52:00,41.7,41.2,29.68,ENE,68,55.3,0.0,98,0.00,,---,0.00,VWS V14.01,2013-12-10 09:52:00,
2013-12-10 04:53:00,42.1,41.6,29.65,NE,45,0.2,0.0,98,0.00,,---,0.00,VWS V14.01,2013-12-10 09:53:00,
2013-12-10 04:54:00,42.1,41.6,29.65,NE,45,0.2,0.0,98,0.00,,---,0.00,VWS V14.01,2013-12-10 09:54:00,
2013-12-10 04:55:00,41.9,41.4,29.68,ENE,68,1.1,3.1,98,0.00,,---,0.00,VWS V14.01,2013-12-10 09:55:00,
2013-12-10 04:56:00,41.9,41.4,29.68,ENE,68,1.1,0.0,98,0.00,,---,0.00,VWS V14.01,2013-12-10 09:56:00,
2013-12-10 04:57:00,42.1,41.6,29.65,NE,45,0.2,0.0,98,0.00,,---,0.00,VWS V14.01,2013-12-10 09:57:00,
2013-12-10 04:58:00,42.1,41.6,29.65,NE,45,0.2,0.0,98,0.00,,---,0.00,VWS V14.01,2013-12-10 09:58:00,
2013-12-10 04:59:00,42.1,41.6,29.65,NE,45,0.2,0.0,98,0.00,,---,0.00,VWS V14.01,2013-12-10 09:59:00,
2013-12-10 05:00:00,41.9,41.4,29.71,East,90,1.1,0.0,98,0.00,,---,0.00,VWS V14.01,2013-12-10 10:00:00,
2013-12-10 05:01:00,41.9,41.4,29.71,East,90,0.0,2.0,98,0.00,,---,0.00,VWS V14.01,2013-12-10 10:01:00,
2013-12-10 05:02:00,41.9,41.4,29.71,East,90,0.5,2.5,98,0.00,,---,0.00,VWS V14.01,2013-12-10 10:02:00,
2013-12-10 05:03:00,42.1,41.6,29.65,North,0,0.2,0.0,98,0.00,,---,0.00,VWS V14.01,2013-12-10 10:03:00,
2013-12-10 05:04:00,42.1,41.6,29.65,North,0,0.2,0.0,98,0.00,,---,0.00,VWS V14.01,2013-12-10 10:04:00,
2013-12-10 05:06:00,42.1,41.6,29.65,North,0,0.2,0.0,98,0.00,,---,0.00,VWS V14.01,2013-12-10 10:06:00,
2013-12-10 05:07:00,41.9,41.4,29.71,NE,45,0.5,0.0,98,0.00,,---,0.00,VWS V14.01,2013-12-10 10:07:00,
2013-12-10 05:08:00,42.1,41.6,29.65,NNW,338,0.2,0.0,98,0.00,,---,0.00,VWS V14.01,2013-12-10 10:08:00,
2013-12-10 05:09:00,42.1,41.6,29.65,NNW,338,0.2,0.0,98,0.00,,---,0.00,VWS V14.01,2013-12-10 10:09:00,
2013-12-10 05:10:00,41.9,41.4,29.71,NE,45,0.2,0.0,98,0.00,,---,0.00,VWS V14.01,2013-12-10 10:10:00,
2013-12-10 05:11:00,41.9,41.4,29.71,NNE,22,0.2,0.0,98,0.00,,---,0.00,VWS V14.01,2013-12-10 10:11:00,
2013-12-10 05:12:00,42.1,41.6,29.65,NNE,22,0.2,1.6,98,0.00,,---,0.00,VWS V14.01,2013-12-10 10:12:00,
2013-12-10 05:13:00,42.1,41.6,29.65,NNE,22,0.2,0.0,98,0.00,,---,0.00,VWS V14.01,2013-12-10 10:13:00,
2013-12-10 05:14:00,41.9,41.4,29.71,NE,45,0.2,0.0,98,0.00,,---,0.00,VWS V14.01,2013-12-10 10:14:00,
2013-12-10 05:15:00,41.7,41.2,29.68,NE,45,0.2,0.0,98,0.00,,---,0.00,VWS V14.01,2013-12-10 10:15:00,
2013-12-10 05:16:00,42.1,41.6,29.65,NNE,22,0.2,0.0,98,0.00,,---,0.00,VWS V14.01,2013-12-10 10:16:00,
2013-12-10 05:17:00,42.1,41.6,29.65,NNE,22,0.2,0.0,98,0.00,,---,0.00,VWS V14.01,2013-12-10 10:17:00,
2013-12-10 05:18:00,42.1,41.6,29.65,NNE,22,0.2,0.0,98,0.00,,---,0.00,VWS V14.01,2013-12-10 10:18:00,
2013-12-10 05:19:00,42.1,41.6,29.65,NNE,22,0.2,0.0,98,0.00,,---,0.00,VWS V14.01,2013-12-10 10:19:00,
2013-12-10 05:20:00,41.7,41.2,29.68,NNE,22,0.2,0.0,98,0.00,,---,0.00,VWS V14.01,2013-12-10 10:20:00,
2013-12-10 05:21:00,42.1,41.6,29.65,NNE,22,0.2,0.0,98,0.00,,---,0.00,VWS V14.01,2013-12-10 10:21:00,
2013-12-10 05:22:00,41.7,41.2,29.68,NNE,22,0.2,0.0,98,0.00,,---,0.00,VWS V14.01,2013-12-10 10:22:00,
2013-12-10 05:23:00,41.7,41.2,29.68,NE,45,0.2,0.0,98,0.00,,---,0.00,VWS V14.01,2013-12-10 10:23:00,
2013-12-10 05:24:00,42.1,41.6,29.65,NNE,22,0.2,0.0,98,0.00,,---,0.00,VWS V14.01,2013-12-10 10:24:00,
2013-12-10 05:25:00,42.1,41.6,29.65,NNE,22,0.2,0.0,98,0.00,,---,0.00,VWS V14.01,2013-12-10 10:25:00,
2013-12-10 05:26:00,41.7,41.2,29.68,North,0,0.0,0.0,98,0.00,,---,0.00,VWS V14.01,2013-12-10 10:26:00,
2013-12-10 05:27:00,42.1,41.6,29.65,NNW,338,0.2,0.9,98,0.00,,---,0.00,VWS V14.01,2013-12-10 10:27:00,
2013-12-10 05:28:00,41.7,41.2,29.68,NNW,338,0.2,2.2,98,0.00,,---,0.00,VWS V14.01,2013-12-10 10:28:00,
2013-12-10 05:29:00,42.1,41.6,29.65,NNW,338,0.2,0.0,98,0.00,,---,0.00,VWS V14.01,2013-12-10 10:29:00,
2013-12-10 05:30:00,42.1,41.6,29.65,NNW,338,0.2,0.0,98,0.00,,---,0.00,VWS V14.01,2013-12-10 10:30:00,
2013-12-10 05:31:00,42.3,41.7,29.65,WNW,292,0.2,1.6,98,0.00,,---,0.00,VWS V14.01,2013-12-10 10:31:00,
2013-12-10 05:32:00,41.9,41.4,29.65,NNE,22,0.2,0.0,98,0.00,,---,0.00,VWS V14.01,2013-12-10 10:32:00,
2013-12-10 05:33:00,41.9,41.4,29.65,NNE,22,0.2,0.0,98,0.00,,---,0.00,VWS V14.01,2013-12-10 10:33:00,
2013-12-10 05:34:00,42.3,41.7,29.65,NNE,22,0.2,0.0,98,0.00,,---,0.00,VWS V14.01,2013-12-10 10:34:00,
2013-12-10 05:35:00,41.9,41.4,29.65,NNE,22,0.2,0.0,98,0.00,,---,0.00,VWS V14.01,2013-12-10 10:35:00,
2013-12-10 05:36:00,42.3,41.7,29.65,NNE,22,0.2,0.0,98,0.00,,---,0.00,VWS V14.01,2013-12-10 10:36:00,
2013-12-10 05:37:00,42.3,41.7,29.65,NNE,22,0.2,0.0,98,0.00,,---,0.00,VWS V14.01,2013-12-10 10:37:00,
2013-12-10 05:38:00,42.3,41.7,29.65,NNE,22,0.2,0.0,98,0.00,,---,0.00,VWS V14.01,2013-12-10 10:38:00,
2013-12-10 05:39:00,41.9,41.4,29.65,NE,45,0.2,0.0,98,0.00,,---,0.00,VWS V14.01,2013-12-10 10:39:00,
2013-12-10 05:40:00,42.3,41.7,29.65,NNE,22,0.2,0.0,98,0.00,,---,0.00,VWS V14.01,2013-12-10 10:40:00,
2013-12-10 05:41:00,41.9,41.4,29.65,NE,45,0.2,0.0,98,0.00,,---,0.00,VWS V14.01,2013-12-10 10:41:00,
2013-12-10 05:42:00,42.3,41.7,29.65,NNE,22,0.2,0.0,98,0.00,,---,0.00,VWS V14.01,2013-12-10 10:42:00,
2013-12-10 05:43:00,42.3,41.7,29.65,NNE,22,0.2,0.0,98,0.00,,---,0.00,VWS V14.01,2013-12-10 10:43:00,
2013-12-10 05:44:00,42.3,41.7,29.65,NNE,22,0.2,0.0,98,0.00,,---,0.00,VWS V14.01,2013-12-10 10:44:00,
2013-12-10 05:45:00,41.9,41.4,29.65,NNW,338,0.2,0.0,98,0.00,,---,0.00,VWS V14.01,2013-12-10 10:45:00,
2013-12-10 05:46:00,41.9,41.4,29.65,North,0,0.2,0.0,98,0.00,,---,0.00,VWS V14.01,2013-12-10 10:46:00,
2013-12-10 05:47:00,41.9,41.4,29.65,NNE,22,0.2,0.0,98,0.00,,---,0.00,VWS V14.01,2013-12-10 10:47:00,
2013-12-10 05:48:00,42.1,41.6,29.65,NNE,22,0.2,0.0,98,0.00,,---,0.00,VWS V14.01,2013-12-10 10:48:00,
2013-12-10 05:49:00,42.1,41.6,29.65,NE,45,0.2,0.0,98,0.00,,---,0.00,VWS V14.01,2013-12-10 10:49:00,
2013-12-10 05:50:00,42.1,41.6,29.65,NNE,22,0.2,0.0,98,0.00,,---,0.00,VWS V14.01,2013-12-10 10:50:00,
2013-12-10 05:51:00,42.1,41.6,29.65,NNE,22,0.2,0.0,98,0.00,,---,0.00,VWS V14.01,2013-12-10 10:51:00,
2013-12-10 05:52:00,42.1,41.6,29.65,NE,45,0.2,0.0,98,0.00,,---,0.00,VWS V14.01,2013-12-10 10:52:00,
2013-12-10 05:53:00,42.1,41.6,29.65,NE,45,0.2,0.0,98,0.00,,---,0.00,VWS V14.01,2013-12-10 10:53:00,
2013-12-10 05:54:00,42.1,41.6,29.65,NNE,22,0.2,0.0,98,0.00,,---,0.00,VWS V14.01,2013-12-10 10:54:00,
2013-12-10 05:55:00,42.1,41.6,29.65,NE,45,0.2,0.0,98,0.00,,---,0.00,VWS V14.01,2013-12-10 10:55:00,
2013-12-10 05:56:00,42.1,41.6,29.65,NE,45,0.2,0.0,98,0.00,,---,0.00,VWS V14.01,2013-12-10 10:56:00,
2013-12-10 05:57:00,42.1,41.6,29.65,NE,45,0.2,0.0,98,0.00,,---,0.00,VWS V14.01,2013-12-10 10:57:00,
2013-12-10 05:58:00,42.1,41.6,29.65,NE,45,0.2,0.0,98,0.00,,---,0.00,VWS V14.01,2013-12-10 10:58:00,
2013-12-10 05:59:00,42.1,41.6,29.65,NE,45,0.2,0.0,98,0.00,,---,0.00,VWS V14.01,2013-12-10 10:59:00,
2013-12-10 06:00:00,42.1,41.6,29.65,NE,45,0.2,0.0,98,0.00,,---,0.00,VWS V14.01,2013-12-10 11:00:00,
2013-12-10 06:01:00,42.1,41.6,29.65,NE,45,0.2,0.0,98,0.00,,---,0.00,VWS V14.01,2013-12-10 11:01:00,
2013-12-10 06:02:00,42.1,41.6,29.65,NE,45,0.2,0.0,98,0.00,,---,0.00,VWS V14.01,2013-12-10 11:02:00,
2013-12-10 06:03:00,42.1,41.6,29.65,WNW,292,0.2,0.0,98,0.00,,---,0.00,VWS V14.01,2013-12-10 11:03:00,
2013-12-10 06:04:00,42.1,41.6,29.65,North,0,0.2,0.0,98,0.00,,---,0.00,VWS V14.01,2013-12-10 11:04:00,
2013-12-10 06:05:00,42.1,41.6,29.65,NE,45,0.2,0.0,98,0.00,,---,0.00,VWS V14.01,2013-12-10 11:05:00,
2013-12-10 06:06:00,42.1,41.6,29.65,North,0,0.2,0.0,98,0.00,,---,0.00,VWS V14.01,2013-12-10 11:06:00,
2013-12-10 06:07:00,42.1,41.6,29.65,NE,45,0.2,0.0,98,0.00,,---,0.00,VWS V14.01,2013-12-10 11:07:00,
2013-12-10 06:08:00,42.1,41.6,29.65,NE,45,0.2,0.0,98,0.00,,---,0.00,VWS V14.01,2013-12-10 11:08:00,
2013-12-10 06:09:00,42.1,41.6,29.65,North,0,0.2,0.0,98,0.00,,---,0.00,VWS V14.01,2013-12-10 11:09:00,
2013-12-10 06:10:00,42.1,41.6,29.65,NE,45,0.2,0.0,98,0.00,,---,0.00,VWS V14.01,2013-12-10 11:10:00,
2013-12-10 06:11:00,42.1,41.6,29.65,NE,45,0.2,0.0,98,0.00,,---,0.00,VWS V14.01,2013-12-10 11:11:00,
2013-12-10 06:12:00,42.1,41.6,29.65,NNW,338,0.2,0.0,98,0.00,,---,0.00,VWS V14.01,2013-12-10 11:12:00,
2013-12-10 06:13:00,42.1,41.6,29.65,NE,45,0.2,0.0,98,0.00,,---,0.00,VWS V14.01,2013-12-10 11:13:00,
2013-12-10 06:14:00,42.1,41.6,29.65,NNW,338,0.2,0.0,98,0.00,,---,0.00,VWS V14.01,2013-12-10 11:14:00,
2013-12-10 06:15:00,42.1,41.6,29.65,NNE,22,0.2,1.6,98,0.00,,---,0.00,VWS V14.01,2013-12-10 11:15:00,
2013-12-10 06:16:00,42.1,41.6,29.65,NE,45,0.2,0.0,98,0.00,,---,0.00,VWS V14.01,2013-12-10 11:16:00,
2013-12-10 06:17:00,42.1,41.6,29.65,NNE,22,0.2,0.0,98,0.00,,---,0.00,VWS V14.01,2013-12-10 11:17:00,
2013-12-10 06:18:00,42.1,41.6,29.65,NE,45,0.2,0.0,98,0.00,,---,0.00,VWS V14.01,2013-12-10 11:18:00,
2013-12-10 06:19:00,42.1,41.6,29.65,NE,45,0.2,0.0,98,0.00,,---,0.00,VWS V14.01,2013-12-10 11:19:00,
2013-12-10 06:20:00,42.1,41.6,29.65,NE,45,0.2,0.0,98,0.00,,---,0.00,VWS V14.01,2013-12-10 11:20:00,
2013-12-10 06:21:00,42.1,41.6,29.65,NE,45,0.2,0.0,98,0.00,,---,0.00,VWS V14.01,2013-12-10 11:21:00,
2013-12-10 06:22:00,42.1,41.6,29.65,NE,45,0.2,0.0,98,0.00,,---,0.00,VWS V14.01,2013-12-10 11:22:00,
2013-12-10 06:23:00,42.1,41.6,29.65,NNE,22,0.2,0.0,98,0.00,,---,0.00,VWS V14.01,2013-12-10 11:23:00,
2013-12-10 06:24:00,42.1,41.6,29.65,NNE,22,0.2,0.0,98,0.00,,---,0.00,VWS V14.01,2013-12-10 11:24:00,
2013-12-10 06:25:00,42.1,41.6,29.65,NE,45,0.2,0.0,98,0.00,,---,0.00,VWS V14.01,2013-12-10 11:25:00,
2013-12-10 06:26:00,42.1,41.6,29.65,NNE,22,0.2,0.0,98,0.00,,---,0.00,VWS V14.01,2013-12-10 11:26:00,
2013-12-10 06:27:00,42.1,41.6,29.65,NE,45,0.2,0.0,98,0.00,,---,0.00,VWS V14.01,2013-12-10 11:27:00,
2013-12-10 06:28:00,42.1,41.6,29.65,NNE,22,0.2,0.0,98,0.00,,---,0.00,VWS V14.01,2013-12-10 11:28:00,
2013-12-10 06:29:00,42.1,41.6,29.65,NNW,338,0.2,0.0,98,0.00,,---,0.00,VWS V14.01,2013-12-10 11:29:00,
2013-12-10 06:30:00,42.1,41.6,29.65,NE,45,0.2,0.0,98,0.00,,---,0.00,VWS V14.01,2013-12-10 11:30:00,
2013-12-10 06:31:00,42.1,41.6,29.65,NE,45,0.2,0.0,98,0.00,,---,0.00,VWS V14.01,2013-12-10 11:31:00,
2013-12-10 06:32:00,42.1,41.6,29.65,NNW,338,0.2,0.0,98,0.00,,---,0.00,VWS V14.01,2013-12-10 11:32:00,
2013-12-10 06:33:00,42.1,41.6,29.65,NE,45,0.2,0.0,98,0.00,,---,0.00,VWS V14.01,2013-12-10 11:33:00,
2013-12-10 06:34:00,42.1,41.6,29.65,NE,45,0.2,0.0,98,0.00,,---,0.00,VWS V14.01,2013-12-10 11:34:00,
2013-12-10 06:35:00,42.1,41.6,29.65,NE,45,0.2,0.0,98,0.00,,---,0.00,VWS V14.01,2013-12-10 11:35:00,
2013-12-10 06:36:00,42.3,41.7,29.65,North,0,0.2,0.0,98,0.00,,---,0.00,VWS V14.01,2013-12-10 11:36:00,
2013-12-10 06:37:00,42.3,41.7,29.65,NNE,22,0.2,0.0,98,0.00,,---,0.00,VWS V14.01,2013-12-10 11:37:00,
2013-12-10 06:38:00,42.3,41.7,29.65,NNE,22,0.2,0.0,98,0.00,,---,0.00,VWS V14.01,2013-12-10 11:38:00,
2013-12-10 06:39:00,42.1,41.6,29.65,NE,45,0.2,0.0,98,0.00,,---,0.00,VWS V14.01,2013-12-10 11:39:00,
2013-12-10 06:40:00,42.1,41.6,29.65,NE,45,0.2,0.0,98,0.00,,---,0.00,VWS V14.01,2013-12-10 11:40:00,
2013-12-10 06:41:00,42.3,41.7,29.65,NNE,22,0.2,0.0,98,0.00,,---,0.00,VWS V14.01,2013-12-10 11:41:00,
2013-12-10 06:42:00,42.3,41.7,29.65,NNE,22,0.2,0.0,98,0.00,,---,0.00,VWS V14.01,2013-12-10 11:42:00,
2013-12-10 06:43:00,42.3,41.7,29.65,NNE,22,0.2,0.0,98,0.00,,---,0.00,VWS V14.01,2013-12-10 11:43:00,
2013-12-10 06:44:00,42.3,41.7,29.65,NNE,22,0.2,0.0,98,0.00,,---,0.00,VWS V14.01,2013-12-10 11:44:00,
2013-12-10 06:45:00,42.3,41.7,29.65,NE,45,0.2,0.0,98,0.00,,---,0.00,VWS V14.01,2013-12-10 11:45:00,
2013-12-10 06:46:00,42.3,41.7,29.65,NE,45,0.2,0.0,98,0.00,,---,0.00,VWS V14.01,2013-12-10 11:46:00,
2013-12-10 06:47:00,42.3,41.7,29.65,NNE,22,0.2,0.0,98,0.00,,---,0.00,VWS V14.01,2013-12-10 11:47:00,
2013-12-10 06:48:00,42.3,41.7,29.65,NE,45,0.2,0.0,98,0.00,,---,0.00,VWS V14.01,2013-12-10 11:48:00,
2013-12-10 06:49:00,42.3,41.7,29.65,NE,45,0.2,0.0,98,0.00,,---,0.00,VWS V14.01,2013-12-10 11:49:00,
2013-12-10 06:50:00,42.3,41.7,29.65,NE,45,0.2,0.0,98,0.00,,---,0.00,VWS V14.01,2013-12-10 11:50:00,
2013-12-10 06:51:00,42.3,41.7,29.65,NE,45,0.2,0.0,98,0.00,,---,0.00,VWS V14.01,2013-12-10 11:51:00,
2013-12-10 06:52:00,42.3,41.7,29.65,NE,45,0.2,0.0,98,0.00,,---,0.00,VWS V14.01,2013-12-10 11:52:00,
2013-12-10 06:53:00,42.1,41.6,29.65,NE,45,0.2,0.0,98,0.00,,---,0.00,VWS V14.01,2013-12-10 11:53:00,
2013-12-10 06:54:00,42.1,41.6,29.65,NE,45,0.2,0.0,98,0.00,,---,0.00,VWS V14.01,2013-12-10 11:54:00,
2013-12-10 06:55:00,42.1,41.6,29.65,NE,45,0.2,0.0,98,0.00,,---,0.00,VWS V14.01,2013-12-10 11:55:00,
2013-12-10 06:56:00,42.3,41.7,29.65,NE,45,0.2,0.0,98,0.00,,---,0.00,VWS V14.01,2013-12-10 11:56:00,
2013-12-10 06:57:00,42.3,41.7,29.65,NE,45,0.2,0.0,98,0.00,,---,0.00,VWS V14.01,2013-12-10 11:57:00,
2013-12-10 06:58:00,42.3,41.7,29.65,NE,45,0.2,0.0,98,0.00,,---,0.00,VWS V14.01,2013-12-10 11:58:00,
2013-12-10 06:59:00,42.1,41.6,29.65,NE,45,0.2,0.0,98,0.00,,---,0.00,VWS V14.01,2013-12-10 11:59:00,
2013-12-10 07:00:00,42.1,41.6,29.65,NE,45,0.2,0.0,98,0.00,,---,0.00,VWS V14.01,2013-12-10 12:00:00,
2013-12-10 07:01:00,42.4,41.9,29.65,NE,45,0.2,0.0,98,0.00,,---,0.00,VWS V14.01,2013-12-10 12:01:00,
2013-12-10 07:02:00,42.1,41.6,29.65,NE,45,0.2,0.0,98,0.00,,---,0.00,VWS V14.01,2013-12-10 12:02:00,
2013-12-10 07:03:00,42.4,41.9,29.65,NNE,22,0.2,0.0,98,0.00,,---,0.00,VWS V14.01,2013-12-10 12:03:00,
2013-12-10 07:04:00,42.4,41.9,29.65,North,0,0.2,0.0,98,0.00,,---,0.00,VWS V14.01,2013-12-10 12:04:00,
2013-12-10 07:05:00,42.4,41.9,29.65,North,0,0.2,0.0,98,0.00,,---,0.00,VWS V14.01,2013-12-10 12:05:00,
2013-12-10 07:06:00,42.4,41.9,29.65,NE,45,0.2,1.3,98,0.00,,---,0.00,VWS V14.01,2013-12-10 12:06:00,
2013-12-10 07:07:00,42.1,41.6,29.65,NE,45,0.2,0.0,98,0.00,,---,0.00,VWS V14.01,2013-12-10 12:07:00,
2013-12-10 07:08:00,42.1,41.6,29.65,NE,45,0.2,0.0,98,0.00,,---,0.00,VWS V14.01,2013-12-10 12:08:00,
2013-12-10 07:09:00,42.1,41.6,29.65,NE,45,0.2,0.0,98,0.00,,---,0.00,VWS V14.01,2013-12-10 12:09:00,
2013-12-10 07:10:00,42.4,41.9,29.65,East,90,0.2,0.0,98,0.00,,---,0.00,VWS V14.01,2013-12-10 12:10:00,
2013-12-10 07:11:00,42.1,41.6,29.65,NE,45,0.2,0.0,98,0.00,,---,0.00,VWS V14.01,2013-12-10 12:11:00,
2013-12-10 07:12:00,42.1,41.6,29.65,NE,45,0.2,0.0,98,0.00,,---,0.00,VWS V14.01,2013-12-10 12:12:00,
2013-12-10 07:13:00,42.4,41.9,29.65,East,90,0.2,0.0,98,0.00,,---,0.00,VWS V14.01,2013-12-10 12:13:00,
2013-12-10 07:14:00,42.4,41.9,29.65,East,90,0.2,0.0,98,0.00,,---,0.00,VWS V14.01,2013-12-10 12:14:00,
2013-12-10 07:15:00,42.4,41.9,29.65,East,90,0.2,0.0,98,0.00,,---,0.00,VWS V14.01,2013-12-10 12:15:00,
2013-12-10 07:16:00,42.1,41.6,29.65,NE,45,0.2,0.0,98,0.00,,---,0.00,VWS V14.01,2013-12-10 12:16:00,
2013-12-10 07:17:00,42.4,41.9,29.65,East,90,0.2,0.0,98,0.00,,---,0.00,VWS V14.01,2013-12-10 12:17:00,
2013-12-10 07:18:00,42.1,41.6,29.65,NE,45,0.2,0.0,98,0.00,,---,0.00,VWS V14.01,2013-12-10 12:18:00,
2013-12-10 07:19:00,42.4,41.9,29.65,East,90,0.2,0.0,98,0.00,,---,0.00,VWS V14.01,2013-12-10 12:19:00,
2013-12-10 07:20:00,42.1,41.6,29.65,NE,45,0.2,0.0,98,0.00,,---,0.00,VWS V14.01,2013-12-10 12:20:00,
2013-12-10 07:21:00,42.4,41.9,29.65,East,90,0.2,0.0,98,0.00,,---,0.00,VWS V14.01,2013-12-10 12:21:00,
2013-12-10 07:22:00,42.4,41.9,29.65,East,90,0.2,0.0,98,0.00,,---,0.00,VWS V14.01,2013-12-10 12:22:00,
2013-12-10 07:23:00,42.1,41.6,29.65,NE,45,0.2,0.0,98,0.00,,---,0.00,VWS V14.01,2013-12-10 12:23:00,
2013-12-10 07:24:00,42.4,41.9,29.65,East,90,0.2,0.0,98,0.00,,---,0.00,VWS V14.01,2013-12-10 12:24:00,
2013-12-10 07:25:00,42.4,41.9,29.65,East,90,0.2,0.0,98,0.00,,---,0.00,VWS V14.01,2013-12-10 12:25:00,
2013-12-10 07:27:00,42.1,41.6,29.65,NE,45,0.2,0.0,98,0.00,,---,0.00,VWS V14.01,2013-12-10 12:27:00,
2013-12-10 07:28:00,42.1,41.6,29.65,NE,45,0.2,0.0,98,0.00,,---,0.00,VWS V14.01,2013-12-10 12:28:00,
2013-12-10 07:29:00,42.4,41.9,29.65,NNE,22,0.2,0.0,98,0.00,,---,0.00,VWS V14.01,2013-12-10 12:29:00,
2013-12-10 07:30:00,42.1,41.6,29.65,NE,45,0.2,0.0,98,0.00,,---,0.00,VWS V14.01,2013-12-10 12:30:00,
2013-12-10 07:31:00,42.4,41.9,29.65,NNE,22,0.2,0.0,98,0.00,,---,0.00,VWS V14.01,2013-12-10 12:31:00,
2013-12-10 07:32:00,42.1,41.6,29.65,NE,45,0.2,0.0,98,0.00,,---,0.00,VWS V14.01,2013-12-10 12:32:00,
2013-12-10 07:33:00,42.4,41.9,29.65,NNE,22,0.2,0.0,98,0.00,,---,0.00,VWS V14.01,2013-12-10 12:33:00,
2013-12-10 07:34:00,42.4,41.9,29.65,NNE,22,0.2,0.0,98,0.00,,---,0.00,VWS V14.01,2013-12-10 12:34:00,
2013-12-10 07:35:00,42.1,41.6,29.65,NE,45,0.2,0.0,98,0.00,,---,0.00,VWS V14.01,2013-12-10 12:35:00,
2013-12-10 07:36:00,42.4,41.9,29.65,NNE,22,0.2,0.0,98,0.00,,---,0.00,VWS V14.01,2013-12-10 12:36:00,
2013-12-10 07:37:00,42.4,41.9,29.65,NNE,22,0.2,0.0,98,0.00,,---,0.00,VWS V14.01,2013-12-10 12:37:00,
2013-12-10 07:38:00,42.1,41.6,29.65,NE,45,0.2,0.0,98,0.00,,---,0.00,VWS V14.01,2013-12-10 12:38:00,
2013-12-10 07:39:00,42.4,41.9,29.65,NNE,22,0.2,0.0,98,0.00,,---,0.00,VWS V14.01,2013-12-10 12:39:00,
2013-12-10 07:40:00,42.4,41.9,29.65,NNE,22,0.2,0.0,98,0.00,,---,0.00,VWS V14.01,2013-12-10 12:40:00,
2013-12-10 07:41:00,42.1,41.6,29.65,NE,45,0.2,0.0,98,0.00,,---,0.00,VWS V14.01,2013-12-10 12:41:00,
2013-12-10 07:42:00,42.1,41.6,29.65,NE,45,0.2,0.0,98,0.00,,---,0.00,VWS V14.01,2013-12-10 12:42:00,
2013-12-10 07:43:00,42.6,42.1,29.62,NNE,22,0.2,0.0,98,0.00,,---,0.00,VWS V14.01,2013-12-10 12:43:00,
2013-12-10 07:44:00,42.3,41.7,29.65,NE,45,0.2,0.0,98,0.00,,---,0.00,VWS V14.01,2013-12-10 12:44:00,
2013-12-10 07:45:00,42.6,42.1,29.62,NE,45,0.2,0.0,98,0.00,,---,0.00,VWS V14.01,2013-12-10 12:45:00,
2013-12-10 07:46:00,42.6,42.1,29.62,NE,45,0.2,0.0,98,0.00,,---,0.00,VWS V14.01,2013-12-10 12:46:00,
2013-12-10 07:47:00,42.6,42.1,29.62,NE,45,0.2,0.0,98,0.00,,---,0.00,VWS V14.01,2013-12-10 12:47:00,
2013-12-10 07:48:00,42.3,41.7,29.65,NE,45,0.2,0.0,98,0.00,,---,0.00,VWS V14.01,2013-12-10 12:48:00,
2013-12-10 07:49:00,42.6,42.1,29.62,NE,45,0.2,0.0,98,0.00,,---,0.00,VWS V14.01,2013-12-10 12:49:00,
2013-12-10 07:50:00,42.3,41.7,29.65,NE,45,0.2,0.0,98,0.00,,---,0.00,VWS V14.01,2013-12-10 12:50:00,
2013-12-10 07:51:00,42.6,42.1,29.62,NE,45,0.2,0.0,98,0.00,,---,0.00,VWS V14.01,2013-12-10 12:51:00,
2013-12-10 07:52:00,42.3,41.7,29.65,NE,45,0.2,0.0,98,0.00,,---,0.00,VWS V14.01,2013-12-10 12:52:00,
2013-12-10 07:53:00,42.6,42.1,29.62,NE,45,0.2,0.0,98,0.00,,---,0.00,VWS V14.01,2013-12-10 12:53:00,
2013-12-10 07:54:00,42.3,41.7,29.65,NE,45,0.2,0.0,98,0.00,,---,0.00,VWS V14.01,2013-12-10 12:54:00,
2013-12-10 07:55:00,42.3,41.7,29.65,NE,45,0.2,0.0,98,0.00,,---,0.00,VWS V14.01,2013-12-10 12:55:00,
2013-12-10 07:56:00,42.3,41.7,29.65,NE,45,0.2,0.0,98,0.00,,---,0.00,VWS V14.01,2013-12-10 12:56:00,
2013-12-10 07:57:00,42.6,42.1,29.68,NE,45,0.2,0.0,98,0.00,,---,0.00,VWS V14.01,2013-12-10 12:57:00,
2013-12-10 07:58:00,42.8,42.3,29.68,NE,45,0.2,0.0,98,0.00,,---,0.00,VWS V14.01,2013-12-10 12:58:00,
2013-12-10 07:59:00,42.8,42.3,29.68,NE,45,0.2,0.0,98,0.00,,---,0.00,VWS V14.01,2013-12-10 12:59:00,
2013-12-10 08:00:00,42.3,41.7,29.65,NE,45,0.2,0.0,98,0.00,,---,0.00,VWS V14.01,2013-12-10 13:00:00,
2013-12-10 08:01:00,42.8,42.3,29.68,NE,45,0.2,0.0,98,0.00,,---,0.00,VWS V14.01,2013-12-10 13:01:00,
2013-12-10 08:02:00,42.3,41.7,29.65,NE,45,0.2,0.0,98,0.00,,---,0.00,VWS V14.01,2013-12-10 13:02:00,
2013-12-10 08:03:00,42.8,42.3,29.68,NE,45,0.2,0.0,98,0.00,,---,0.00,VWS V14.01,2013-12-10 13:03:00,
2013-12-10 08:04:00,42.4,41.9,29.65,NE,45,0.2,0.0,98,0.00,,---,0.00,VWS V14.01,2013-12-10 13:04:00,
2013-12-10 08:05:00,42.4,41.9,29.65,NE,45,0.2,0.0,98,0.00,,---,0.00,VWS V14.01,2013-12-10 13:05:00,
2013-12-10 08:06:00,42.8,42.3,29.68,NE,45,0.2,0.0,98,0.00,,---,0.00,VWS V14.01,2013-12-10 13:06:00,
2013-12-10 08:07:00,42.4,41.9,29.65,North,0,0.2,0.0,98,0.00,,---,0.00,VWS V14.01,2013-12-10 13:07:00,
2013-12-10 08:08:00,42.8,42.3,29.68,NE,45,0.2,0.0,98,0.00,,---,0.00,VWS V14.01,2013-12-10 13:08:00,
2013-12-10 08:09:00,42.4,41.9,29.65,NE,45,0.2,1.3,98,0.00,,---,0.00,VWS V14.01,2013-12-10 13:09:00,
2013-12-10 08:10:00,42.8,42.3,29.68,NE,45,0.2,0.0,98,0.00,,---,0.00,VWS V14.01,2013-12-10 13:10:00,
2013-12-10 08:11:00,43.0,42.5,29.68,ENE,68,0.2,0.0,98,0.00,,---,0.00,VWS V14.01,2013-12-10 13:11:00,
2013-12-10 08:12:00,43.0,42.5,29.65,ENE,68,0.2,0.0,98,0.00,,---,0.00,VWS V14.01,2013-12-10 13:12:00,
2013-12-10 08:13:00,43.0,42.5,29.65,ENE,68,0.2,0.0,98,0.00,,---,0.00,VWS V14.01,2013-12-10 13:13:00,
2013-12-10 08:14:00,42.4,41.9,29.65,East,90,0.2,0.0,98,0.00,,---,0.00,VWS V14.01,2013-12-10 13:14:00,
2013-12-10 08:15:00,43.0,42.5,29.65,ENE,68,0.2,0.0,98,0.00,,---,0.00,VWS V14.01,2013-12-10 13:15:00,
2013-12-10 08:16:00,42.4,41.9,29.65,East,90,0.2,0.0,98,0.00,,---,0.00,VWS V14.01,2013-12-10 13:16:00,
2013-12-10 08:17:00,43.0,42.5,29.65,ENE,68,0.2,0.0,98,0.00,,---,0.00,VWS V14.01,2013-12-10 13:17:00,
2013-12-10 08:18:00,42.4,41.9,29.65,East,90,0.2,0.0,98,0.00,,---,0.00,VWS V14.01,2013-12-10 13:18:00,
2013-12-10 08:19:00,43.0,42.5,29.65,North,0,0.2,0.0,98,0.00,,---,0.00,VWS V14.01,2013-12-10 13:19:00,
2013-12-10 08:20:00,42.4,41.9,29.65,East,90,0.2,0.0,98,0.00,,---,0.00,VWS V14.01,2013-12-10 13:20:00,
2013-12-10 08:21:00,43.2,42.6,29.65,North,0,0.2,0.0,98,0.00,,---,0.00,VWS V14.01,2013-12-10 13:21:00,
2013-12-10 08:22:00,43.2,42.6,29.65,NNW,338,0.0,2.0,98,0.00,,---,0.00,VWS V14.01,2013-12-10 13:22:00,
2013-12-10 08:23:00,43.2,42.6,29.65,North,0,0.0,1.3,98,0.00,,---,0.00,VWS V14.01,2013-12-10 13:23:00,
2013-12-10 08:24:00,43.2,42.6,29.65,North,0,0.0,0.0,98,0.00,,---,0.00,VWS V14.01,2013-12-10 13:24:00,
2013-12-10 08:25:00,43.2,42.6,29.65,North,0,0.0,0.0,98,0.00,,---,0.00,VWS V14.01,2013-12-10 13:25:00,
2013-12-10 08:26:00,42.4,41.9,29.65,East,90,0.2,0.0,98,0.00,,---,0.00,VWS V14.01,2013-12-10 13:26:00,
2013-12-10 08:27:00,43.2,42.6,29.62,North,0,0.0,0.0,98,0.00,,---,0.00,VWS V14.01,2013-12-10 13:27:00,
2013-12-10 08:28:00,42.4,41.9,29.65,East,90,0.2,0.0,98,0.00,,---,0.00,VWS V14.01,2013-12-10 13:28:00,
2013-12-10 08:29:00,43.3,42.8,29.62,North,0,0.0,0.0,98,0.00,,---,0.00,VWS V14.01,2013-12-10 13:29:00,
2013-12-10 08:30:00,43.3,42.8,29.62,North,0,0.0,0.0,98,0.00,,---,0.00,VWS V14.01,2013-12-10 13:30:00,
2013-12-10 08:31:00,42.4,41.9,29.65,NNE,22,0.2,0.0,98,0.00,,---,0.00,VWS V14.01,2013-12-10 13:31:00,
2013-12-10 08:32:00,42.4,41.9,29.65,NNE,22,0.2,0.0,98,0.00,,---,0.00,VWS V14.01,2013-12-10 13:32:00,
2013-12-10 08:33:00,43.3,42.8,29.62,NNE,22,0.0,0.0,98,0.00,,---,0.00,VWS V14.01,2013-12-10 13:33:00,
2013-12-10 08:34:00,43.3,42.8,29.62,NNE,22,0.0,0.0,98,0.00,,---,0.00,VWS V14.01,2013-12-10 13:34:00,
2013-12-10 08:35:00,42.4,41.9,29.65,NNE,22,0.2,0.0,98,0.00,,---,0.00,VWS V14.01,2013-12-10 13:35:00,
2013-12-10 08:36:00,43.3,42.8,29.62,NNE,22,0.0,0.0,98,0.00,,---,0.00,VWS V14.01,2013-12-10 13:36:00,
2013-12-10 08:37:00,43.3,42.8,29.62,NNE,22,0.0,0.0,98,0.00,,---,0.00,VWS V14.01,2013-12-10 13:37:00,
2013-12-10 08:38:00,42.4,41.9,29.65,NNE,22,0.2,0.0,98,0.00,,---,0.00,VWS V14.01,2013-12-10 13:38:00,
2013-12-10 08:39:00,43.3,42.8,29.62,NNE,22,0.0,0.0,98,0.00,,---,0.00,VWS V14.01,2013-12-10 13:39:00,
2013-12-10 08:40:00,42.4,41.9,29.65,NNE,22,0.2,0.0,98,0.00,,---,0.00,VWS V14.01,2013-12-10 13:40:00,
2013-12-10 08:41:00,43.3,42.8,29.62,NNE,22,0.0,0.0,98,0.00,,---,0.00,VWS V14.01,2013-12-10 13:41:00,
2013-12-10 08:42:00,43.5,43.0,29.65,NNE,22,0.0,0.0,98,0.00,,---,0.00,VWS V14.01,2013-12-10 13:42:00,
2013-12-10 08:43:00,42.4,41.9,29.65,NNE,22,0.2,0.0,98,0.00,,---,0.00,VWS V14.01,2013-12-10 13:43:00,
2013-12-10 08:44:00,43.5,43.0,29.65,NNE,22,0.0,0.0,98,0.00,,---,0.00,VWS V14.01,2013-12-10 13:44:00,
2013-12-10 08:45:00,42.6,42.1,29.62,NNE,22,0.2,0.0,98,0.00,,---,0.00,VWS V14.01,2013-12-10 13:45:00,
2013-12-10 08:46:00,42.6,42.1,29.62,NNE,22,0.2,0.0,98,0.00,,---,0.00,VWS V14.01,2013-12-10 13:46:00,
2013-12-10 08:47:00,43.5,43.0,29.65,NNE,22,0.0,0.0,98,0.00,,---,0.00,VWS V14.01,2013-12-10 13:47:00,
2013-12-10 08:48:00,43.5,43.0,29.65,NNE,22,0.0,0.0,98,0.00,,---,0.00,VWS V14.01,2013-12-10 13:48:00,
2013-12-10 08:49:00,42.6,42.1,29.62,NE,45,0.2,0.0,98,0.00,,---,0.00,VWS V14.01,2013-12-10 13:49:00,
2013-12-10 08:50:00,43.7,43.2,29.65,NNE,22,0.0,0.0,98,0.00,,---,0.00,VWS V14.01,2013-12-10 13:50:00,
2013-12-10 08:51:00,43.7,43.2,29.65,NNE,22,0.0,0.0,98,0.00,,---,0.00,VWS V14.01,2013-12-10 13:51:00,
2013-12-10 08:52:00,42.6,42.1,29.62,NE,45,0.2,0.0,98,0.00,,---,0.00,VWS V14.01,2013-12-10 13:52:00,
2013-12-10 08:53:00,43.7,43.2,29.65,NNE,22,0.0,0.0,98,0.00,,---,0.00,VWS V14.01,2013-12-10 13:53:00,
2013-12-10 08:54:00,43.7,43.2,29.65,NNE,22,0.0,0.0,98,0.00,,---,0.00,VWS V14.01,2013-12-10 13:54:00,
2013-12-10 08:55:00,43.7,43.2,29.65,NNE,22,0.0,0.0,98,0.00,,---,0.00,VWS V14.01,2013-12-10 13:55:00,
2013-12-10 08:56:00,43.7,43.2,29.65,NNE,22,0.0,0.0,98,0.00,,---,0.00,VWS V14.01,2013-12-10 13:56:00,
2013-12-10 08:58:00,43.7,43.2,29.65,NNE,22,0.0,0.0,98,0.00,,---,0.00,VWS V14.01,2013-12-10 13:58:00,
2013-12-10 08:59:00,43.7,43.2,29.65,NNE,22,0.0,0.0,98,0.00,,---,0.00,VWS V14.01,2013-12-10 13:59:00,
2013-12-10 09:00:00,42.6,42.1,29.68,NE,45,0.2,0.0,98,0.00,,---,0.00,VWS V14.01,2013-12-10 14:00:00,
2013-12-10 09:01:00,43.7,43.2,29.65,NNE,22,0.0,0.0,98,0.00,,---,0.00,VWS V14.01,2013-12-10 14:01:00,
2013-12-10 09:02:00,42.8,42.3,29.68,NE,45,0.2,0.0,98,0.00,,---,0.00,VWS V14.01,2013-12-10 14:02:00,
2013-12-10 09:03:00,42.8,42.3,29.68,NE,45,0.2,0.0,98,0.00,,---,0.00,VWS V14.01,2013-12-10 14:03:00,
2013-12-10 09:04:00,42.8,42.3,29.68,NE,45,0.2,0.0,98,0.00,,---,0.00,VWS V14.01,2013-12-10 14:04:00,
2013-12-10 09:05:00,42.8,42.3,29.68,NE,45,0.2,0.0,98,0.00,,---,0.00,VWS V14.01,2013-12-10 14:05:00,
2013-12-10 09:06:00,43.9,43.3,29.65,NNE,22,0.0,0.0,98,0.00,,---,0.00,VWS V14.01,2013-12-10 14:06:00,
2013-12-10 09:07:00,43.9,43.3,29.65,NNE,22,0.0,0.0,98,0.00,,---,0.00,VWS V14.01,2013-12-10 14:07:00,
2013-12-10 09:08:00,43.9,43.3,29.65,NNE,22,0.0,0.0,98,0.00,,---,0.00,VWS V14.01,2013-12-10 14:08:00,
2013-12-10 09:09:00,42.8,42.3,29.68,NE,45,0.2,0.0,98,0.00,,---,0.00,VWS V14.01,2013-12-10 14:09:00,
2013-12-10 09:10:00,42.8,42.3,29.68,NE,45,0.2,0.0,98,0.00,,---,0.00,VWS V14.01,2013-12-10 14:10:00,
2013-12-10 09:11:00,42.8,42.3,29.68,NE,45,0.2,0.0,98,0.00,,---,0.00,VWS V14.01,2013-12-10 14:11:00,
2013-12-10 09:12:00,44.1,43.5,29.65,NNE,22,0.0,0.0,98,0.00,,---,0.00,VWS V14.01,2013-12-10 14:12:00,
2013-12-10 09:13:00,44.1,43.5,29.65,NNE,22,0.0,0.0,98,0.00,,---,0.00,VWS V14.01,2013-12-10 14:13:00,
2013-12-10 09:14:00,44.2,43.7,29.65,NNE,22,0.0,0.0,98,0.00,,---,0.00,VWS V14.01,2013-12-10 14:14:00,
2013-12-10 09:15:00,44.2,43.7,29.65,NNE,22,0.0,0.0,98,0.00,,---,0.00,VWS V14.01,2013-12-10 14:15:00,
2013-12-10 09:16:00,44.2,43.7,29.65,NNE,22,0.0,0.0,98,0.00,,---,0.00,VWS V14.01,2013-12-10 14:16:00,
2013-12-10 09:17:00,43.0,42.5,29.65,ENE,68,0.2,0.0,98,0.00,,---,0.00,VWS V14.01,2013-12-10 14:17:00,
2013-12-10 09:18:00,44.2,43.7,29.65,NNE,22,0.0,0.0,98,0.00,,---,0.00,VWS V14.01,2013-12-10 14:18:00,
2013-12-10 09:19:00,44.2,43.7,29.65,NNE,22,0.0,0.0,98,0.00,,---,0.00,VWS V14.01,2013-12-10 14:19:00,
2013-12-10 09:20:00,44.4,43.9,29.65,NNE,22,0.0,0.0,98,0.00,,---,0.00,VWS V14.01,2013-12-10 14:20:00,
2013-12-10 09:21:00,43.0,42.5,29.65,NNE,22,0.2,0.0,98,0.00,,---,0.00,VWS V14.01,2013-12-10 14:21:00,
2013-12-10 09:22:00,44.4,43.9,29.65,NNE,22,0.0,0.0,98,0.00,,---,0.00,VWS V14.01,2013-12-10 14:22:00,
2013-12-10 09:23:00,43.0,42.5,29.65,North,0,0.2,0.0,98,0.00,,---,0.00,VWS V14.01,2013-12-10 14:23:00,
2013-12-10 09:24:00,44.4,43.9,29.65,NNE,22,0.0,0.0,98,0.00,,---,0.00,VWS V14.01,2013-12-10 14:24:00,
2013-12-10 09:25:00,44.4,43.9,29.65,NNE,22,0.0,0.0,98,0.00,,---,0.00,VWS V14.01,2013-12-10 14:25:00,
2013-12-10 09:26:00,44.4,43.9,29.65,NNE,22,0.0,0.0,98,0.00,,---,0.00,VWS V14.01,2013-12-10 14:26:00,
2013-12-10 09:27:00,43.2,42.6,29.65,North,0,0.0,0.0,98,0.00,,---,0.00,VWS V14.01,2013-12-10 14:27:00,
2013-12-10 09:28:00,43.2,42.6,29.65,North,0,0.0,0.0,98,0.00,,---,0.00,VWS V14.01,2013-12-10 14:28:00,
2013-12-10 09:29:00,43.2,42.6,29.65,North,0,0.0,0.0,98,0.00,,---,0.00,VWS V14.01,2013-12-10 14:29:00,
2013-12-10 09:30:00,44.6,44.1,29.65,NNE,22,0.0,0.0,98,0.00,,---,0.00,VWS V14.01,2013-12-10 14:30:00,
2013-12-10 09:31:00,44.6,44.1,29.65,NNE,22,0.0,0.0,98,0.00,,---,0.00,VWS V14.01,2013-12-10 14:31:00,
2013-12-10 09:32:00,43.3,42.8,29.62,North,0,0.0,0.0,98,0.00,,---,0.00,VWS V14.01,2013-12-10 14:32:00,
2013-12-10 09:33:00,44.8,44.2,29.65,NE,45,0.0,0.0,98,0.00,,---,0.00,VWS V14.01,2013-12-10 14:33:00,
2013-12-10 09:34:00,44.8,44.2,29.65,NE,45,0.0,0.0,98,0.00,,---,0.00,VWS V14.01,2013-12-10 14:34:00,
2013-12-10 09:35:00,43.3,42.8,29.62,NNE,22,0.0,0.0,98,0.00,,---,0.00,VWS V14.01,2013-12-10 14:35:00,
2013-12-10 09:36:00,44.8,44.2,29.65,ENE,68,0.0,0.0,98,0.00,,---,0.00,VWS V14.01,2013-12-10 14:36:00,
2013-12-10 09:37:00,43.3,42.8,29.62,NNE,22,0.0,0.0,98,0.00,,---,0.00,VWS V14.01,2013-12-10 14:37:00,
2013-12-10 09:38:00,45.0,44.4,29.65,ENE,68,0.0,0.0,98,0.00,,---,0.00,VWS V14.01,2013-12-10 14:38:00,
2013-12-10 09:39:00,45.0,44.4,29.65,ENE,68,0.0,0.0,98,0.00,,---,0.00,VWS V14.01,2013-12-10 14:39:00,
2013-12-10 09:40:00,45.1,44.6,29.65,North,0,0.0,0.0,98,0.00,,---,0.00,VWS V14.01,2013-12-10 14:40:00,
2013-12-10 09:41:00,43.3,42.8,29.62,NNE,22,0.0,0.0,98,0.00,,---,0.00,VWS V14.01,2013-12-10 14:41:00,
2013-12-10 09:42:00,45.3,44.8,29.65,NNW,338,0.0,1.1,98,0.00,,---,0.00,VWS V14.01,2013-12-10 14:42:00,
2013-12-10 09:43:00,43.3,42.8,29.62,NNE,22,0.0,0.0,98,0.00,,---,0.00,VWS V14.01,2013-12-10 14:43:00,
2013-12-10 09:44:00,43.3,42.8,29.62,NNE,22,0.0,0.0,98,0.00,,---,0.00,VWS V14.01,2013-12-10 14:44:00,
2013-12-10 09:45:00,43.5,43.0,29.65,NNE,22,0.0,0.0,98,0.00,,---,0.00,VWS V14.01,2013-12-10 14:45:00,
2013-12-10 09:46:00,45.7,45.2,29.65,NNW,338,0.0,0.0,98,0.00,,---,0.00,VWS V14.01,2013-12-10 14:46:00,
2013-12-10 09:47:00,43.5,43.0,29.65,NNE,22,0.0,0.0,98,0.00,,---,0.00,VWS V14.01,2013-12-10 14:47:00,
2013-12-10 09:48:00,45.7,45.2,29.65,WSW,248,0.0,1.3,98,0.00,,---,0.00,VWS V14.01,2013-12-10 14:48:00,
2013-12-10 09:49:00,45.5,45.0,29.65,WNW,292,0.0,0.9,98,0.00,,---,0.00,VWS V14.01,2013-12-10 14:49:00,
2013-12-10 09:50:00,45.5,45.0,29.65,WNW,292,0.0,0.0,98,0.00,,---,0.00,VWS V14.01,2013-12-10 14:50:00,
2013-12-10 09:51:00,43.5,43.0,29.65,NNE,22,0.0,0.0,98,0.00,,---,0.00,VWS V14.01,2013-12-10 14:51:00,
2013-12-10 09:52:00,43.5,43.0,29.65,NNE,22,0.0,0.0,98,0.00,,---,0.00,VWS V14.01,2013-12-10 14:52:00,
2013-12-10 09:53:00,43.7,43.2,29.65,NNE,22,0.0,0.0,98,0.00,,---,0.00,VWS V14.01,2013-12-10 14:53:00,
2013-12-10 09:54:00,43.7,43.2,29.65,NNE,22,0.0,0.0,98,0.00,,---,0.00,VWS V14.01,2013-12-10 14:54:00,
2013-12-10 09:55:00,45.5,45.0,29.65,WNW,292,0.2,2.7,98,0.00,,---,0.00,VWS V14.01,2013-12-10 14:55:00,
2013-12-10 09:56:00,43.7,43.2,29.65,NNE,22,0.0,0.0,98,0.00,,---,0.00,VWS V14.01,2013-12-10 14:56:00,
2013-12-10 09:57:00,45.5,45.0,29.68,NNE,22,0.2,0.0,98,0.00,,---,0.00,VWS V14.01,2013-12-10 14:57:00,
2013-12-10 09:58:00,45.5,45.0,29.68,NNE,22,0.2,0.0,98,0.00,,---,0.00,VWS V14.01,2013-12-10 14:58:00,
2013-12-10 09:59:00,45.5,45.0,29.68,NNW,338,0.2,0.0,98,0.00,,---,0.00,VWS V14.01,2013-12-10 14:59:00,
2013-12-10 10:00:00,43.7,43.2,29.65,NNE,22,0.0,0.0,98,0.00,,---,0.00,VWS V14.01,2013-12-10 15:00:00,
2013-12-10 10:01:00,45.5,45.0,29.68,NNW,338,0.2,2.2,98,0.00,,---,0.00,VWS V14.01,2013-12-10 15:01:00,
2013-12-10 10:02:00,43.7,43.2,29.65,NNE,22,0.0,0.0,98,0.00,,---,0.00,VWS V14.01,2013-12-10 15:02:00,
2013-12-10 10:03:00,43.7,43.2,29.65,NNE,22,0.0,0.0,98,0.00,,---,0.00,VWS V14.01,2013-12-10 15:03:00,
2013-12-10 10:04:00,43.7,43.2,29.65,NNE,22,0.0,0.0,98,0.00,,---,0.00,VWS V14.01,2013-12-10 15:04:00,
2013-12-10 10:05:00,45.7,45.2,29.68,North,0,0.2,0.0,98,0.00,,---,0.00,VWS V14.01,2013-12-10 15:05:00,
2013-12-10 10:06:00,43.9,43.3,29.65,NNE,22,0.0,0.0,98,0.00,,---,0.00,VWS V14.01,2013-12-10 15:06:00,
2013-12-10 10:07:00,45.7,45.2,29.68,North,0,0.2,0.0,98,0.00,,---,0.00,VWS V14.01,2013-12-10 15:07:00,
2013-12-10 10:08:00,45.7,45.2,29.68,North,0,0.2,0.0,98,0.00,,---,0.00,VWS V14.01,2013-12-10 15:08:00,
2013-12-10 10:09:00,43.9,43.3,29.65,NNE,22,0.0,0.0,98,0.00,,---,0.00,VWS V14.01,2013-12-10 15:09:00,
2013-12-10 10:10:00,43.9,43.3,29.65,NNE,22,0.0,0.0,98,0.00,,---,0.00,VWS V14.01,2013-12-10 15:10:00,
2013-12-10 10:11:00,45.9,45.3,29.68,North,0,0.2,0.0,98,0.00,,---,0.00,VWS V14.01,2013-12-10 15:11:00,
2013-12-10 10:12:00,46.0,45.5,29.71,North,0,0.2,0.0,98,0.00,,---,0.00,VWS V14.01,2013-12-10 15:12:00,
2013-12-10 10:13:00,46.0,45.5,29.71,North,0,0.2,0.0,98,0.00,,---,0.00,VWS V14.01,2013-12-10 15:13:00,
2013-12-10 10:14:00,46.0,45.5,29.71,North,0,0.2,0.0,98,0.00,,---,0.00,VWS V14.01,2013-12-10 15:14:00,
2013-12-10 10:15:00,44.1,43.5,29.65,NNE,22,0.0,0.0,98,0.00,,---,0.00,VWS V14.01,2013-12-10 15:15:00,
2013-12-10 10:16:00,46.2,45.7,29.71,WSW,248,0.2,0.0,98,0.00,,---,0.00,VWS V14.01,2013-12-10 15:16:00,
2013-12-10 10:17:00,46.2,45.7,29.71,West,270,0.2,0.0,98,0.00,,---,0.00,VWS V14.01,2013-12-10 15:17:00,
2013-12-10 10:18:00,44.2,43.7,29.65,NNE,22,0.0,0.0,98,0.00,,---,0.00,VWS V14.01,2013-12-10 15:18:00,
2013-12-10 10:19:00,46.4,45.9,29.71,WNW,292,0.2,0.9,98,0.00,,---,0.00,VWS V14.01,2013-12-10 15:19:00,
2013-12-10 10:20:00,46.4,45.9,29.71,SSW,202,0.2,0.0,98,0.00,,---,0.00,VWS V14.01,2013-12-10 15:20:00,
2013-12-10 10:21:00,44.2,43.7,29.65,NNE,22,0.0,0.0,98,0.00,,---,0.00,VWS V14.01,2013-12-10 15:21:00,
2013-12-10 10:22:00,46.2,45.7,29.71,WSW,248,0.0,2.0,98,0.00,,---,0.00,VWS V14.01,2013-12-10 15:22:00,
2013-12-10 10:23:00,44.4,43.9,29.65,NNE,22,0.0,0.0,98,0.00,,---,0.00,VWS V14.01,2013-12-10 15:23:00,
2013-12-10 10:24:00,44.4,43.9,29.65,NNE,22,0.0,0.0,98,0.00,,---,0.00,VWS V14.01,2013-12-10 15:24:00,
2013-12-10 10:25:00,46.2,45.7,29.71,South,180,0.0,0.0,98,0.00,,---,0.00,VWS V14.01,2013-12-10 15:25:00,
2013-12-10 10:26:00,46.2,45.7,29.71,SE,135,0.0,0.0,98,0.00,,---,0.00,VWS V14.01,2013-12-10 15:26:00,
2013-12-10 10:27:00,44.4,43.9,29.65,NNE,22,0.0,0.0,98,0.00,,---,0.00,VWS V14.01,2013-12-10 15:27:00,
2013-12-10 10:28:00,46.2,45.7,29.71,WNW,292,0.0,0.0,98,0.00,,---,0.00,VWS V14.01,2013-12-10 15:28:00,
2013-12-10 10:29:00,46.2,45.7,29.71,NNW,338,0.0,0.9,98,0.00,,---,0.00,VWS V14.01,2013-12-10 15:29:00,
2013-12-10 10:30:00,44.6,44.1,29.65,NNE,22,0.0,0.0,98,0.00,,---,0.00,VWS V14.01,2013-12-10 15:30:00,
2013-12-10 10:31:00,44.6,44.1,29.65,NNE,22,0.0,0.0,98,0.00,,---,0.00,VWS V14.01,2013-12-10 15:31:00,
2013-12-10 10:32:00,44.6,44.1,29.65,NNE,22,0.0,0.0,98,0.00,,---,0.00,VWS V14.01,2013-12-10 15:32:00,
2013-12-10 10:33:00,46.2,45.7,29.71,ENE,68,0.0,0.0,98,0.00,,---,0.00,VWS V14.01,2013-12-10 15:33:00,
2013-12-10 10:34:00,46.2,45.7,29.71,ENE,68,0.0,0.0,98,0.00,,---,0.00,VWS V14.01,2013-12-10 15:34:00,
2013-12-10 10:35:00,46.2,45.7,29.71,ENE,68,0.0,0.0,98,0.00,,---,0.00,VWS V14.01,2013-12-10 15:35:00,
2013-12-10 10:36:00,46.2,45.7,29.71,WSW,248,0.0,1.3,98,0.00,,---,0.00,VWS V14.01,2013-12-10 15:36:00,
2013-12-10 10:37:00,44.8,44.2,29.65,NE,45,0.0,0.0,98,0.00,,---,0.00,VWS V14.01,2013-12-10 15:37:00,
2013-12-10 10:38:00,46.2,45.7,29.71,SSE,158,0.0,2.0,98,0.00,,---,0.00,VWS V14.01,2013-12-10 15:38:00,
2013-12-10 10:39:00,44.8,44.2,29.65,ENE,68,0.0,0.0,98,0.00,,---,0.00,VWS V14.01,2013-12-10 15:39:00,
2013-12-10 10:40:00,46.2,45.7,29.71,ENE,68,0.0,1.1,98,0.00,,---,0.00,VWS V14.01,2013-12-10 15:40:00,
2013-12-10 10:41:00,46.2,45.7,29.71,ENE,68,0.0,1.1,98,0.00,,---,0.00,VWS V14.01,2013-12-10 15:41:00,
2013-12-10 10:42:00,45.0,44.4,29.65,ENE,68,0.0,0.0,98,0.00,,---,0.00,VWS V14.01,2013-12-10 15:42:00,
2013-12-10 10:43:00,45.1,44.6,29.65,North,0,0.0,0.0,98,0.00,,---,0.00,VWS V14.01,2013-12-10 15:43:00,
2013-12-10 10:44:00,46.2,45.7,29.68,North,0,0.0,0.0,98,0.00,,---,0.00,VWS V14.01,2013-12-10 15:44:00,
2013-12-10 10:45:00,46.2,45.7,29.68,North,0,0.0,0.0,98,0.00,,---,0.00,VWS V14.01,2013-12-10 15:45:00,
2013-12-10 10:46:00,46.2,45.7,29.68,North,0,0.0,0.0,98,0.00,,---,0.00,VWS V14.01,2013-12-10 15:46:00,
2013-12-10 10:47:00,46.2,45.7,29.68,NE,45,0.0,0.0,98,0.00,,---,0.00,VWS V14.01,2013-12-10 15:47:00,
2013-12-10 10:48:00,45.5,45.0,29.65,NNW,338,0.0,1.1,98,0.00,,---,0.00,VWS V14.01,2013-12-10 15:48:00,
2013-12-10 10:49:00,45.7,45.2,29.65,NNW,338,0.0,0.0,98,0.00,,---,0.00,VWS V14.01,2013-12-10 15:49:00,
2013-12-10 10:50:00,46.4,45.9,29.68,NNW,338,0.0,0.0,98,0.00,,---,0.00,VWS V14.01,2013-12-10 15:50:00,
2013-12-10 10:51:00,46.4,45.9,29.68,NNW,338,0.0,0.0,98,0.00,,---,0.00,VWS V14.01,2013-12-10 15:51:00,
2013-12-10 10:52:00,46.4,45.9,29.68,NNW,338,0.0,0.0,98,0.00,,---,0.00,VWS V14.01,2013-12-10 15:52:00,
2013-12-10 10:53:00,45.5,45.0,29.65,WNW,292,0.0,0.0,98,0.00,,---,0.00,VWS V14.01,2013-12-10 15:53:00,
2013-12-10 10:54:00,45.5,45.0,29.65,NW,315,0.0,1.6,98,0.00,,---,0.00,VWS V14.01,2013-12-10 15:54:00,
2013-12-10 10:55:00,46.4,45.9,29.68,East,90,0.0,0.0,98,0.00,,---,0.00,VWS V14.01,2013-12-10 15:55:00,
2013-12-10 10:56:00,45.5,45.0,29.65,North,0,0.0,1.6,98,0.00,,---,0.00,VWS V14.01,2013-12-10 15:56:00,
2013-12-10 10:57:00,46.8,46.2,29.71,East,90,0.0,0.0,98,0.00,,---,0.00,VWS V14.01,2013-12-10 15:57:00,
2013-12-10 10:58:00,45.5,45.0,29.65,WNW,292,0.2,2.7,98,0.00,,---,0.00,VWS V14.01,2013-12-10 15:58:00,
2013-12-10 10:59:00,46.8,46.2,29.71,East,90,0.0,0.0,98,0.00,,---,0.00,VWS V14.01,2013-12-10 15:59:00,
2013-12-10 11:00:00,46.9,46.4,29.71,ESE,112,0.0,0.0,98,0.00,,---,0.00,VWS V14.01,2013-12-10 16:00:00,
2013-12-10 11:01:00,45.5,45.0,29.68,NNE,22,0.2,0.0,98,0.00,,---,0.00,VWS V14.01,2013-12-10 16:01:00,
2013-12-10 11:02:00,46.9,46.4,29.71,NNW,338,0.0,0.0,98,0.00,,---,0.00,VWS V14.01,2013-12-10 16:02:00,
2013-12-10 11:03:00,45.5,45.0,29.68,NNW,338,0.2,2.2,98,0.00,,---,0.00,VWS V14.01,2013-12-10 16:03:00,
2013-12-10 11:04:00,45.5,45.0,29.68,NNW,338,0.2,2.2,98,0.00,,---,0.00,VWS V14.01,2013-12-10 16:04:00,
2013-12-10 11:05:00,47.1,46.6,29.71,NNW,338,0.0,1.3,98,0.00,,---,0.00,VWS V14.01,2013-12-10 16:05:00,
2013-12-10 11:06:00,47.1,46.6,29.71,NNW,338,0.0,0.0,98,0.00,,---,0.00,VWS V14.01,2013-12-10 16:06:00,
2013-12-10 11:07:00,47.3,46.8,29.71,NNW,338,0.0,1.3,98,0.00,,---,0.00,VWS V14.01,2013-12-10 16:07:00,
2013-12-10 11:08:00,47.3,46.8,29.71,NNW,338,0.0,1.3,98,0.00,,---,0.00,VWS V14.01,2013-12-10 16:08:00,
2013-12-10 11:09:00,45.7,45.2,29.68,North,0,0.2,0.0,98,0.00,,---,0.00,VWS V14.01,2013-12-10 16:09:00,
2013-12-10 11:10:00,45.7,45.2,29.68,North,0,0.2,0.0,98,0.00,,---,0.00,VWS V14.01,2013-12-10 16:10:00,
2013-12-10 11:11:00,47.5,47.0,29.71,SSE,158,0.5,2.7,98,0.00,,---,0.00,VWS V14.01,2013-12-10 16:11:00,
2013-12-10 11:12:00,45.9,45.3,29.68,North,0,0.2,0.0,98,0.00,,---,0.00,VWS V14.01,2013-12-10 16:12:00,
2013-12-10 11:13:00,47.7,47.1,29.74,WSW,248,0.0,1.3,98,0.00,,---,0.00,VWS V14.01,2013-12-10 16:13:00,
2013-12-10 11:14:00,47.7,47.1,29.74,SW,225,0.0,1.6,98,0.00,,---,0.00,VWS V14.01,2013-12-10 16:14:00,
2013-12-10 11:15:00,46.0,45.5,29.71,North,0,0.2,0.0,98,0.00,,---,0.00,VWS V14.01,2013-12-10 16:15:00,
2013-12-10 11:16:00,46.0,45.5,29.71,North,0,0.2,0.0,98,0.00,,---,0.00,VWS V14.01,2013-12-10 16:16:00,
2013-12-10 11:17:00,48.0,47.5,29.74,East,90,0.0,0.0,98,0.00,,---,0.00,VWS V14.01,2013-12-10 16:17:00,
2013-12-10 11:18:00,48.0,47.5,29.74,WSW,248,1.1,3.1,98,0.00,,---,0.00,VWS V14.01,2013-12-10 16:18:00,
2013-12-10 11:19:00,46.2,45.7,29.71,WSW,248,0.2,0.0,98,0.00,,---,0.00,VWS V14.01,2013-12-10 16:19:00,
2013-12-10 11:20:00,48.0,47.5,29.74,SSW,202,0.5,3.8,98,0.00,,---,0.00,VWS V14.01,2013-12-10 16:20:00,
2013-12-10 11:21:00,48.0,47.5,29.74,SSE,158,1.8,3.8,98,0.00,,---,0.00,VWS V14.01,2013-12-10 16:21:00,
2013-12-10 11:22:00,46.4,45.9,29.71,WNW,292,0.2,0.9,98,0.00,,---,0.00,VWS V14.01,2013-12-10 16:22:00,
2013-12-10 11:23:00,46.4,45.9,29.71,SSW,202,0.2,0.0,98,0.00,,---,0.00,VWS V14.01,2013-12-10 16:23:00,
2013-12-10 11:24:00,46.4,45.9,29.71,WSW,248,0.0,2.0,98,0.00,,---,0.00,VWS V14.01,2013-12-10 16:24:00,
2013-12-10 11:25:00,46.2,45.7,29.71,WSW,248,0.0,2.0,98,0.00,,---,0.00,VWS V14.01,2013-12-10 16:25:00,
2013-12-10 11:26:00,48.0,47.5,29.74,NW,315,0.9,5.4,98,0.00,,---,0.00,VWS V14.01,2013-12-10 16:26:00,
2013-12-10 11:27:00,48.6,48.0,29.74,WNW,292,1.1,4.0,98,0.00,,---,0.00,VWS V14.01,2013-12-10 16:27:00,
2013-12-10 11:28:00,48.7,48.2,29.74,NW,315,1.6,5.4,98,0.00,,---,0.00,VWS V14.01,2013-12-10 16:28:00,
2013-12-10 11:29:00,46.2,45.7,29.71,SE,135,0.0,0.0,98,0.00,,---,0.00,VWS V14.01,2013-12-10 16:29:00,
2013-12-10 11:30:00,46.2,45.7,29.71,SE,135,0.0,0.0,98,0.00,,---,0.00,VWS V14.01,2013-12-10 16:30:00,
2013-12-10 11:31:00,46.2,45.7,29.71,WNW,292,0.0,0.0,98,0.00,,---,0.00,VWS V14.01,2013-12-10 16:31:00,
2013-12-10 11:32:00,49.3,46.2,29.74,WSW,248,2.3,4.3,89,0.00,,---,0.00,VWS V14.01,2013-12-10 16:32:00,
2013-12-10 11:33:00,49.5,43.2,29.74,WNW,292,0.5,4.3,79,0.00,,---,0.00,VWS V14.01,2013-12-10 16:33:00,
2013-12-10 11:34:00,49.6,43.1,29.74,WNW,292,1.1,4.0,78,0.00,,---,0.00,VWS V14.01,2013-12-10 16:34:00,
2013-12-10 11:35:00,46.2,45.7,29.71,ENE,68,0.0,0.0,98,0.00,,---,0.00,VWS V14.01,2013-12-10 16:35:00,
2013-12-10 11:36:00,46.2,45.7,29.71,ENE,68,0.0,0.0,98,0.00,,---,0.00,VWS V14.01,2013-12-10 16:36:00,
2013-12-10 11:37:00,49.6,41.0,29.74,WNW,292,0.9,5.8,72,0.00,,---,0.00,VWS V14.01,2013-12-10 16:37:00,
2013-12-10 11:38:00,49.8,41.2,29.74,WNW,292,2.7,4.7,72,0.00,,---,0.00,VWS V14.01,2013-12-10 16:38:00,
2013-12-10 11:39:00,49.6,39.9,29.74,WSW,248,1.6,4.7,69,0.00,,---,0.00,VWS V14.01,2013-12-10 16:39:00,
2013-12-10 11:40:00,46.2,45.7,29.71,SW,225,0.0,2.0,98,0.00,,---,0.00,VWS V14.01,2013-12-10 16:40:00,
2013-12-10 11:41:00,46.2,45.7,29.71,SSE,158,0.0,2.0,98,0.00,,---,0.00,VWS V14.01,2013-12-10 16:41:00,
2013-12-10 11:42:00,46.2,45.7,29.71,ESE,112,0.0,0.0,98,0.00,,---,0.00,VWS V14.01,2013-12-10 16:42:00,
2013-12-10 11:43:00,49.8,38.9,29.74,SSE,158,1.6,4.0,66,0.00,,---,0.00,VWS V14.01,2013-12-10 16:43:00,
2013-12-10 11:44:00,49.8,38.9,29.74,WNW,292,2.7,4.7,66,0.00,,---,0.00,VWS V14.01,2013-12-10 16:44:00,
2013-12-10 11:46:00,50.0,39.1,29.74,WNW,292,1.8,4.0,66,0.00,,---,0.00,VWS V14.01,2013-12-10 16:46:00,
2013-12-10 11:47:00,46.2,45.7,29.68,North,0,0.0,0.0,98,0.00,,---,0.00,VWS V14.01,2013-12-10 16:47:00,
2013-12-10 11:48:00,46.2,45.7,29.68,North,0,0.0,0.0,98,0.00,,---,0.00,VWS V14.01,2013-12-10 16:48:00,
2013-12-10 11:49:00,50.2,39.7,29.74,WSW,248,1.1,3.1,67,0.00,,---,0.00,VWS V14.01,2013-12-10 16:49:00,
2013-12-10 11:50:00,50.2,37.7,29.74,NE,45,1.4,6.0,62,0.00,,---,0.00,VWS V14.01,2013-12-10 16:50:00,
2013-12-10 11:51:00,50.2,37.7,29.74,NW,315,0.0,3.4,62,0.00,,---,0.00,VWS V14.01,2013-12-10 16:51:00,
2013-12-10 11:52:00,50.4,39.1,29.74,NNW,338,1.4,3.8,65,0.00,,---,0.00,VWS V14.01,2013-12-10 16:52:00,
2013-12-10 11:53:00,50.2,39.7,29.74,SSW,202,0.2,4.0,67,0.00,,---,0.00,VWS V14.01,2013-12-10 16:53:00,
2013-12-10 11:54:00,46.4,45.9,29.68,NNW,338,0.0,0.0,98,0.00,,---,0.00,VWS V14.01,2013-12-10 16:54:00,
2013-12-10 11:55:00,46.4,45.9,29.68,NNW,338,0.0,0.0,98,0.00,,---,0.00,VWS V14.01,2013-12-10 16:55:00,
2013-12-10 11:56:00,50.2,36.4,29.74,WNW,292,4.3,6.3,59,0.00,,---,0.00,VWS V14.01,2013-12-10 16:56:00,
2013-12-10 11:57:00,50.4,34.4,29.74,WNW,292,0.5,6.3,54,0.00,,---,0.00,VWS V14.01,2013-12-10 16:57:00,
2013-12-10 11:58:00,46.4,45.9,29.68,East,90,0.0,0.0,98,0.00,,---,0.00,VWS V14.01,2013-12-10 16:58:00,
2013-12-10 11:59:00,46.8,46.2,29.68,East,90,0.0,0.0,98,0.00,,---,0.00,VWS V14.01,2013-12-10 16:59:00,
2013-12-10 12:00:00,50.4,34.8,29.74,NW,315,1.8,4.0,55,0.00,,---,0.00,VWS V14.01,2013-12-10 17:00:00,
2013-12-10 12:01:00,50.4,34.4,29.74,NNW,338,0.7,3.8,54,0.00,,---,0.00,VWS V14.01,2013-12-10 17:01:00,
2013-12-10 12:02:00,46.8,46.2,29.71,East,90,0.0,0.0,98,0.00,,---,0.00,VWS V14.01,2013-12-10 17:02:00,
2013-12-10 12:03:00,50.4,34.4,29.74,NNE,22,4.0,6.0,54,0.00,,---,0.00,VWS V14.01,2013-12-10 17:03:00,
2013-12-10 12:04:00,50.5,34.1,29.74,WNW,292,0.7,6.0,53,0.00,,---,0.00,VWS V14.01,2013-12-10 17:04:00,
2013-12-10 12:05:00,50.7,35.2,29.74,NNW,338,3.4,5.4,55,0.00,,---,0.00,VWS V14.01,2013-12-10 17:05:00,
2013-12-10 12:06:00,50.5,32.6,29.74,WNW,292,0.9,5.6,50,0.00,,---,0.00,VWS V14.01,2013-12-10 17:06:00,
2013-12-10 12:07:00,47.1,46.6,29.71,NNW,338,0.0,1.1,98,0.00,,---,0.00,VWS V14.01,2013-12-10 17:07:00,
2013-12-10 12:08:00,50.7,33.3,29.74,WSW,248,1.4,6.3,51,0.00,,---,0.00,VWS V14.01,2013-12-10 17:08:00,
2013-12-10 12:09:00,47.1,46.6,29.71,NNW,338,0.0,0.0,98,0.00,,---,0.00,VWS V14.01,2013-12-10 17:09:00,
2013-12-10 12:10:00,50.9,32.9,29.74,WNW,292,4.0,6.0,50,0.00,,---,0.00,VWS V14.01,2013-12-10 17:10:00,
2013-12-10 12:11:00,50.9,32.9,29.74,NW,315,2.0,6.0,50,0.00,,---,0.00,VWS V14.01,2013-12-10 17:11:00,
2013-12-10 12:12:00,50.9,32.4,29.76,WNW,292,2.0,7.2,49,0.00,,---,0.00,VWS V14.01,2013-12-10 17:12:00,
2013-12-10 12:13:00,50.9,32.9,29.76,NW,315,0.2,4.3,50,0.00,,---,0.00,VWS V14.01,2013-12-10 17:13:00,
2013-12-10 12:14:00,47.5,46.9,29.71,SSE,158,0.5,2.7,98,0.00,,---,0.00,VWS V14.01,2013-12-10 17:14:00,
2013-12-10 12:15:00,50.9,31.9,29.76,NW,315,1.4,6.9,48,0.00,,---,0.00,VWS V14.01,2013-12-10 17:15:00,
2013-12-10 12:16:00,47.7,47.1,29.74,WSW,248,0.0,1.3,98,0.00,,---,0.00,VWS V14.01,2013-12-10 17:16:00,
2013-12-10 12:17:00,47.7,47.1,29.74,SW,225,0.0,1.6,98,0.00,,---,0.00,VWS V14.01,2013-12-10 17:17:00,
2013-12-10 12:18:00,50.9,33.9,29.76,WNW,292,2.9,4.9,52,0.00,,---,0.00,VWS V14.01,2013-12-10 17:18:00,
2013-12-10 12:19:00,50.7,32.3,29.76,West,270,0.9,5.8,49,0.00,,---,0.00,VWS V14.01,2013-12-10 17:19:00,
2013-12-10 12:20:00,48.0,47.5,29.74,East,90,0.0,0.0,98,0.00,,---,0.00,VWS V14.01,2013-12-10 17:20:00,
2013-12-10 12:21:00,48.0,47.5,29.74,WSW,248,1.1,3.1,98,0.00,,---,0.00,VWS V14.01,2013-12-10 17:21:00,
2013-12-10 12:22:00,50.9,33.9,29.76,NW,315,1.8,3.8,52,0.00,,---,0.00,VWS V14.01,2013-12-10 17:22:00,
2013-12-10 12:23:00,50.9,33.9,29.76,NNW,338,1.1,3.8,52,0.00,,---,0.00,VWS V14.01,2013-12-10 17:23:00,
2013-12-10 12:24:00,48.0,47.5,29.74,SSE,158,1.8,3.8,98,0.00,,---,0.00,VWS V14.01,2013-12-10 17:24:00,
2013-12-10 12:25:00,50.7,33.8,29.76,WNW,292,2.7,7.8,52,0.00,,---,0.00,VWS V14.01,2013-12-10 17:25:00,
2013-12-10 12:26:00,48.4,47.8,29.74,WSW,248,1.8,3.8,98,0.00,,---,0.00,VWS V14.01,2013-12-10 17:26:00,
2013-12-10 12:27:00,50.7,33.3,29.76,NW,315,2.9,4.9,51,0.00,,---,0.00,VWS V14.01,2013-12-10 17:27:00,
2013-12-10 12:28:00,50.7,31.8,29.76,NNW,338,5.8,9.0,48,0.00,,---,0.00,VWS V14.01,2013-12-10 17:28:00,
2013-12-10 12:29:00,50.5,31.1,29.76,WSW,248,1.8,7.8,47,0.00,,---,0.00,VWS V14.01,2013-12-10 17:29:00,
2013-12-10 12:30:00,50.5,31.1,29.76,NW,315,2.7,8.7,47,0.00,,---,0.00,VWS V14.01,2013-12-10 17:30:00,
2013-12-10 12:31:00,48.7,48.2,29.74,NW,315,1.6,5.4,98,0.00,,---,0.00,VWS V14.01,2013-12-10 17:31:00,
2013-12-10 12:32:00,50.5,30.5,29.76,North,0,3.4,6.0,46,0.00,,---,0.00,VWS V14.01,2013-12-10 17:32:00,
2013-12-10 12:33:00,48.9,48.4,29.74,West,270,3.4,5.4,98,0.00,,---,0.00,VWS V14.01,2013-12-10 17:33:00,
2013-12-10 12:34:00,50.4,29.3,29.76,North,0,1.4,9.0,44,0.00,,---,0.00,VWS V14.01,2013-12-10 17:34:00,
2013-12-10 12:35:00,49.3,46.2,29.74,WSW,248,2.3,4.3,89,0.00,,---,0.00,VWS V14.01,2013-12-10 17:35:00,
2013-12-10 12:36:00,50.4,30.4,29.76,NNW,338,2.0,4.7,46,0.00,,---,0.00,VWS V14.01,2013-12-10 17:36:00,
2013-12-10 12:37:00,49.6,43.1,29.74,WNW,292,1.1,4.0,78,0.00,,---,0.00,VWS V14.01,2013-12-10 17:37:00,
2013-12-10 12:38:00,50.4,31.4,29.76,WNW,292,3.8,5.8,48,0.00,,---,0.00,VWS V14.01,2013-12-10 17:38:00,
2013-12-10 12:39:00,49.6,41.7,29.74,WSW,248,1.6,4.7,74,0.00,,---,0.00,VWS V14.01,2013-12-10 17:39:00,
2013-12-10 12:40:00,50.2,29.7,29.76,West,270,1.1,6.3,45,0.00,,---,0.00,VWS V14.01,2013-12-10 17:40:00,
2013-12-10 12:41:00,49.8,41.2,29.74,WNW,292,2.7,4.7,72,0.00,,---,0.00,VWS V14.01,2013-12-10 17:41:00,
2013-12-10 12:42:00,49.6,39.9,29.74,WSW,248,1.6,4.7,69,0.00,,---,0.00,VWS V14.01,2013-12-10 17:42:00,
2013-12-10 12:43:00,49.6,39.5,29.74,WSW,248,0.7,3.6,68,0.00,,---,0.00,VWS V14.01,2013-12-10 17:43:00,
2013-12-10 12:44:00,50.2,31.8,29.76,WNW,292,0.0,3.6,49,0.00,,---,0.00,VWS V14.01,2013-12-10 17:44:00,
2013-12-10 12:45:00,50.2,31.8,29.76,NW,315,0.7,3.8,49,0.00,,---,0.00,VWS V14.01,2013-12-10 17:45:00,
2013-12-10 12:46:00,49.8,38.9,29.74,SSE,158,1.6,4.0,66,0.00,,---,0.00,VWS V14.01,2013-12-10 17:46:00,
2013-12-10 12:47:00,50.2,31.3,29.76,WNW,292,2.9,4.9,48,0.00,,---,0.00,VWS V14.01,2013-12-10 17:47:00,
2013-12-10 12:48:00,49.8,38.9,29.74,SSW,202,2.0,4.7,66,0.00,,---,0.00,VWS V14.01,2013-12-10 17:48:00,
2013-12-10 12:49:00,50.2,30.2,29.76,NW,315,3.4,6.3,46,0.00,,---,0.00,VWS V14.01,2013-12-10 17:49:00,
2013-12-10 12:50:00,50.0,29.5,29.76,West,270,2.9,4.9,45,0.00,,---,0.00,VWS V14.01,2013-12-10 17:50:00,
2013-12-10 12:51:00,50.0,30.0,29.76,ENE,68,0.9,5.6,46,0.00,,---,0.00,VWS V14.01,2013-12-10 17:51:00,
2013-12-10 12:52:00,50.2,39.7,29.74,WSW,248,1.1,3.1,67,0.00,,---,0.00,VWS V14.01,2013-12-10 17:52:00,
2013-12-10 12:53:00,50.2,37.7,29.74,NE,45,1.4,6.0,62,0.00,,---,0.00,VWS V14.01,2013-12-10 17:53:00,
2013-12-10 12:54:00,50.2,37.7,29.74,NW,315,0.0,3.4,62,0.00,,---,0.00,VWS V14.01,2013-12-10 17:54:00,
2013-12-10 12:55:00,49.8,30.4,29.76,WNW,292,0.5,2.9,47,0.00,,---,0.00,VWS V14.01,2013-12-10 17:55:00,
2013-12-10 12:56:00,49.8,30.9,29.76,WSW,248,1.6,4.9,48,0.00,,---,0.00,VWS V14.01,2013-12-10 17:56:00,
2013-12-10 12:57:00,49.6,30.2,29.76,NNW,338,0.5,3.8,47,0.00,,---,0.00,VWS V14.01,2013-12-10 17:57:00,
2013-12-10 12:58:00,50.4,37.4,29.74,NW,315,0.0,4.9,61,0.00,,---,0.00,VWS V14.01,2013-12-10 17:58:00,
2013-12-10 12:59:00,49.6,30.8,29.76,NNW,338,2.3,4.3,48,0.00,,---,0.00,VWS V14.01,2013-12-10 17:59:00,
2013-12-10 13:00:00,49.5,30.6,29.76,ESE,112,2.3,4.3,48,0.00,,---,0.00,VWS V14.01,2013-12-10 18:00:00,
2013-12-10 13:01:00,49.5,31.1,29.76,WNW,292,2.3,2.3,49,0.00,,---,0.00,VWS V14.01,2013-12-10 18:01:00,
2013-12-10 13:02:00,49.3,31.5,29.76,NNW,338,1.6,4.0,50,0.00,,---,0.00,VWS V14.01,2013-12-10 18:02:00,
2013-12-10 13:03:00,50.4,34.8,29.74,NW,315,1.8,4.0,55,0.00,,---,0.00,VWS V14.01,2013-12-10 18:03:00,
2013-12-10 13:04:00,50.4,34.4,29.74,NNW,338,0.7,3.8,54,0.00,,---,0.00,VWS V14.01,2013-12-10 18:04:00,
2013-12-10 13:05:00,50.5,35.9,29.74,NW,315,2.3,4.3,57,0.00,,---,0.00,VWS V14.01,2013-12-10 18:05:00,
2013-12-10 13:06:00,49.1,29.8,29.76,NNW,338,1.8,4.7,47,0.00,,---,0.00,VWS V14.01,2013-12-10 18:06:00,
2013-12-10 13:07:00,49.1,30.3,29.76,NW,315,0.7,3.8,48,0.00,,---,0.00,VWS V14.01,2013-12-10 18:07:00,
2013-12-10 13:08:00,50.7,35.2,29.74,NNW,338,3.4,5.4,55,0.00,,---,0.00,VWS V14.01,2013-12-10 18:08:00,
2013-12-10 13:09:00,50.5,32.6,29.74,WNW,292,0.9,5.6,50,0.00,,---,0.00,VWS V14.01,2013-12-10 18:09:00,
2013-12-10 13:10:00,50.7,33.3,29.74,WNW,292,1.6,3.8,51,0.00,,---,0.00,VWS V14.01,2013-12-10 18:10:00,
2013-12-10 13:11:00,48.9,30.1,29.76,WNW,292,1.4,4.7,48,0.00,,---,0.00,VWS V14.01,2013-12-10 18:11:00,
2013-12-10 13:12:00,50.7,32.8,29.74,WNW,292,2.7,7.4,50,0.00,,---,0.00,VWS V14.01,2013-12-10 18:12:00,
2013-12-10 13:13:00,48.9,28.5,29.79,WSW,248,1.1,4.3,45,0.00,,---,0.00,VWS V14.01,2013-12-10 18:13:00,
2013-12-10 13:14:00,48.9,29.6,29.79,NW,315,2.0,4.0,47,0.00,,---,0.00,VWS V14.01,2013-12-10 18:14:00,
2013-12-10 13:15:00,48.9,29.1,29.79,WNW,292,1.4,4.7,46,0.00,,---,0.00,VWS V14.01,2013-12-10 18:15:00,
2013-12-10 13:16:00,50.9,32.9,29.76,NW,315,0.2,4.3,50,0.00,,---,0.00,VWS V14.01,2013-12-10 18:16:00,
2013-12-10 13:17:00,48.9,30.1,29.79,NW,315,1.1,3.4,48,0.00,,---,0.00,VWS V14.01,2013-12-10 18:17:00,
2013-12-10 13:18:00,50.9,31.9,29.76,NW,315,1.4,6.9,48,0.00,,---,0.00,VWS V14.01,2013-12-10 18:18:00,
2013-12-10 13:19:00,48.7,29.4,29.79,WNW,292,0.0,2.7,47,0.00,,---,0.00,VWS V14.01,2013-12-10 18:19:00,
2013-12-10 13:20:00,50.9,33.4,29.76,NW,315,0.7,3.8,51,0.00,,---,0.00,VWS V14.01,2013-12-10 18:20:00,
2013-12-10 13:21:00,50.9,33.9,29.76,WNW,292,2.9,4.9,52,0.00,,---,0.00,VWS V14.01,2013-12-10 18:21:00,
2013-12-10 13:22:00,50.7,32.3,29.76,West,270,0.9,5.8,49,0.00,,---,0.00,VWS V14.01,2013-12-10 18:22:00,
2013-12-10 13:23:00,48.7,29.9,29.79,North,0,0.2,3.1,48,0.00,,---,0.00,VWS V14.01,2013-12-10 18:23:00,
2013-12-10 13:24:00,48.7,29.9,29.79,NNW,338,0.2,1.3,48,0.00,,---,0.00,VWS V14.01,2013-12-10 18:24:00,
2013-12-10 13:25:00,50.9,33.9,29.76,NW,315,1.8,3.8,52,0.00,,---,0.00,VWS V14.01,2013-12-10 18:25:00,
2013-12-10 13:26:00,48.7,29.4,29.79,WNW,292,1.4,3.4,47,0.00,,---,0.00,VWS V14.01,2013-12-10 18:26:00,
2013-12-10 13:27:00,48.7,29.4,29.79,WNW,292,1.4,3.4,47,0.00,,---,0.00,VWS V14.01,2013-12-10 18:27:00,
2013-12-10 13:28:00,50.7,33.8,29.76,WNW,292,2.7,7.8,52,0.00,,---,0.00,VWS V14.01,2013-12-10 18:28:00,
2013-12-10 13:29:00,48.7,29.4,29.74,SW,225,0.0,4.3,47,0.00,,---,0.00,VWS V14.01,2013-12-10 18:29:00,
2013-12-10 13:30:00,48.7,29.4,29.74,WNW,292,1.4,3.4,47,0.00,,---,0.00,VWS V14.01,2013-12-10 18:30:00,
2013-12-10 13:31:00,50.7,31.8,29.76,NNW,338,5.8,9.0,48,0.00,,---,0.00,VWS V14.01,2013-12-10 18:31:00,
2013-12-10 13:32:00,50.5,31.1,29.76,WSW,248,1.8,7.8,47,0.00,,---,0.00,VWS V14.01,2013-12-10 18:32:00,
2013-12-10 13:33:00,50.5,31.1,29.76,NW,315,2.7,8.7,47,0.00,,---,0.00,VWS V14.01,2013-12-10 18:33:00,
2013-12-10 13:34:00,48.9,29.1,29.74,SW,225,0.5,6.3,46,0.00,,---,0.00,VWS V14.01,2013-12-10 18:34:00,
2013-12-10 13:35:00,48.9,28.5,29.74,WNW,292,1.4,3.4,45,0.00,,---,0.00,VWS V14.01,2013-12-10 18:35:00,
2013-12-10 13:36:00,48.9,29.1,29.74,WSW,248,0.7,5.4,46,0.00,,---,0.00,VWS V14.01,2013-12-10 18:36:00,
2013-12-10 13:37:00,48.9,27.4,29.74,WNW,292,1.4,3.8,43,0.00,,---,0.00,VWS V14.01,2013-12-10 18:37:00,
2013-12-10 13:38:00,50.4,30.4,29.76,North,0,2.7,4.7,46,0.00,,---,0.00,VWS V14.01,2013-12-10 18:38:00,
2013-12-10 13:39:00,50.4,30.4,29.76,NNW,338,2.0,4.7,46,0.00,,---,0.00,VWS V14.01,2013-12-10 18:39:00,
2013-12-10 13:40:00,48.9,28.0,29.74,NW,315,0.7,3.4,44,0.00,,---,0.00,VWS V14.01,2013-12-10 18:40:00,
2013-12-10 13:41:00,48.9,29.1,29.74,WNW,292,1.8,3.8,46,0.00,,---,0.00,VWS V14.01,2013-12-10 18:41:00,
2013-12-10 13:42:00,50.2,30.2,29.76,SW,225,1.8,8.1,46,0.00,,---,0.00,VWS V14.01,2013-12-10 18:42:00,
2013-12-10 13:43:00,48.9,27.4,29.76,WNW,292,0.7,5.4,43,0.00,,---,0.00,VWS V14.01,2013-12-10 18:43:00,
2013-12-10 13:44:00,50.2,30.2,29.76,West,270,2.0,4.0,46,0.00,,---,0.00,VWS V14.01,2013-12-10 18:44:00,
2013-12-10 13:45:00,50.2,30.2,29.76,NNW,338,0.0,7.8,46,0.00,,---,0.00,VWS V14.01,2013-12-10 18:45:00,
2013-12-10 13:46:00,49.1,29.2,29.76,NNW,338,3.6,5.6,46,0.00,,---,0.00,VWS V14.01,2013-12-10 18:46:00,
2013-12-10 13:47:00,48.9,28.0,29.76,NNW,338,1.8,5.6,44,0.00,,---,0.00,VWS V14.01,2013-12-10 18:47:00,
2013-12-10 13:48:00,49.1,29.2,29.76,West,270,0.7,4.3,46,0.00,,---,0.00,VWS V14.01,2013-12-10 18:48:00,
2013-12-10 13:49:00,48.9,29.1,29.76,East,90,4.3,9.6,46,0.00,,---,0.00,VWS V14.01,2013-12-10 18:49:00,
2013-12-10 13:50:00,48.9,28.5,29.76,SW,225,0.9,6.0,45,0.00,,---,0.00,VWS V14.01,2013-12-10 18:50:00,
2013-12-10 13:51:00,50.2,30.2,29.76,NW,315,3.4,6.3,46,0.00,,---,0.00,VWS V14.01,2013-12-10 18:51:00,
2013-12-10 13:52:00,48.9,28.5,29.76,NNW,338,2.9,4.9,45,0.00,,---,0.00,VWS V14.01,2013-12-10 18:52:00,
2013-12-10 13:53:00,48.9,28.5,29.76,NNE,22,0.2,4.9,45,0.00,,---,0.00,VWS V14.01,2013-12-10 18:53:00,
2013-12-10 13:54:00,50.0,30.0,29.76,ENE,68,0.9,5.6,46,0.00,,---,0.00,VWS V14.01,2013-12-10 18:54:00,
2013-12-10 13:55:00,48.7,27.8,29.76,West,270,1.6,4.3,44,0.00,,---,0.00,VWS V14.01,2013-12-10 18:55:00,
2013-12-10 13:56:00,50.0,31.1,29.76,North,0,0.7,2.7,48,0.00,,---,0.00,VWS V14.01,2013-12-10 18:56:00,
2013-12-10 13:57:00,48.7,28.4,29.76,NW,315,2.0,4.5,45,0.00,,---,0.00,VWS V14.01,2013-12-10 18:57:00,
2013-12-10 13:58:00,49.8,30.4,29.76,WNW,292,0.5,2.9,47,0.00,,---,0.00,VWS V14.01,2013-12-10 18:58:00,
2013-12-10 13:59:00,49.8,30.9,29.76,WSW,248,1.6,4.9,48,0.00,,---,0.00,VWS V14.01,2013-12-10 18:59:00,
2013-12-10 14:00:00,48.6,28.7,29.76,NW,315,2.0,4.0,46,0.00,,---,0.00,VWS V14.01,2013-12-10 19:00:00,
2013-12-10 14:01:00,48.6,28.2,29.76,NW,315,2.9,4.9,45,0.00,,---,0.00,VWS V14.01,2013-12-10 19:01:00,
2013-12-10 14:02:00,48.6,27.1,29.76,WNW,292,2.7,6.3,43,0.00,,---,0.00,VWS V14.01,2013-12-10 19:02:00,
2013-12-10 14:03:00,49.5,30.6,29.76,ESE,112,2.3,4.3,48,0.00,,---,0.00,VWS V14.01,2013-12-10 19:03:00,
2013-12-10 14:04:00,49.5,31.1,29.76,WNW,292,2.3,2.3,49,0.00,,---,0.00,VWS V14.01,2013-12-10 19:04:00,
2013-12-10 14:05:00,48.4,27.5,29.76,NNW,338,0.5,3.8,44,0.00,,---,0.00,VWS V14.01,2013-12-10 19:05:00,
2013-12-10 14:06:00,48.6,28.7,29.76,NW,315,1.6,3.6,46,0.00,,---,0.00,VWS V14.01,2013-12-10 19:06:00,
2013-12-10 14:07:00,49.3,31.0,29.76,NW,315,0.2,1.3,49,0.00,,---,0.00,VWS V14.01,2013-12-10 19:07:00,
2013-12-10 14:08:00,48.6,28.2,29.76,NW,315,0.2,3.4,45,0.00,,---,0.00,VWS V14.01,2013-12-10 19:08:00,
2013-12-10 14:09:00,49.1,29.8,29.76,NNW,338,1.8,4.7,47,0.00,,---,0.00,VWS V14.01,2013-12-10 19:09:00,
2013-12-10 14:10:00,48.6,29.3,29.76,West,270,4.3,6.3,47,0.00,,---,0.00,VWS V14.01,2013-12-10 19:10:00,
2013-12-10 14:11:00,49.1,30.3,29.76,WSW,248,2.9,4.9,48,0.00,,---,0.00,VWS V14.01,2013-12-10 19:11:00,
2013-12-10 14:12:00,48.4,28.0,29.76,SE,135,0.9,2.9,45,0.00,,---,0.00,VWS V14.01,2013-12-10 19:12:00,
2013-12-10 14:13:00,48.4,28.6,29.76,NNW,338,3.4,5.4,46,0.00,,---,0.00,VWS V14.01,2013-12-10 19:13:00,
2013-12-10 14:14:00,48.9,30.1,29.76,WNW,292,1.4,4.7,48,0.00,,---,0.00,VWS V14.01,2013-12-10 19:14:00,
2013-12-10 14:15:00,48.9,29.1,29.80,WNW,292,0.7,3.4,46,0.00,,---,0.00,VWS V14.01,2013-12-10 19:15:00,
2013-12-10 14:16:00,48.2,26.8,29.76,WNW,292,0.7,7.4,43,0.00,,---,0.00,VWS V14.01,2013-12-10 19:16:00,
2013-12-10 14:17:00,48.2,27.3,29.76,WSW,248,0.7,2.7,44,0.00,,---,0.00,VWS V14.01,2013-12-10 19:17:00,
2013-12-10 14:18:00,48.2,28.4,29.76,NNW,338,2.3,4.3,46,0.00,,---,0.00,VWS V14.01,2013-12-10 19:18:00,
2013-12-10 14:19:00,48.2,27.3,29.76,NW,315,1.4,4.3,44,0.00,,---,0.00,VWS V14.01,2013-12-10 19:19:00,
2013-12-10 14:20:00,48.9,30.1,29.80,NW,315,1.1,3.4,48,0.00,,---,0.00,VWS V14.01,2013-12-10 19:20:00,
2013-12-10 14:21:00,48.9,29.6,29.80,WSW,248,0.7,3.8,47,0.00,,---,0.00,VWS V14.01,2013-12-10 19:21:00,
2013-12-10 14:22:00,48.7,29.4,29.80,WNW,292,0.0,2.7,47,0.00,,---,0.00,VWS V14.01,2013-12-10 19:22:00,
2013-12-10 14:23:00,48.0,28.2,29.76,WNW,292,0.7,4.3,46,0.00,,---,0.00,VWS V14.01,2013-12-10 19:23:00,
2013-12-10 14:24:00,48.0,26.6,29.76,NW,315,0.7,5.8,43,0.00,,---,0.00,VWS V14.01,2013-12-10 19:24:00,
2013-12-10 14:25:00,48.7,28.9,29.80,NW,315,0.0,4.9,46,0.00,,---,0.00,VWS V14.01,2013-12-10 19:25:00,
2013-12-10 14:26:00,48.7,29.9,29.80,North,0,0.2,3.1,48,0.00,,---,0.00,VWS V14.01,2013-12-10 19:26:00,
2013-12-10 14:27:00,47.8,27.0,29.79,NNW,338,2.0,4.0,44,0.00,,---,0.00,VWS V14.01,2013-12-10 19:27:00,
2013-12-10 14:28:00,48.7,29.9,29.80,South,180,0.0,2.0,48,0.00,,---,0.00,VWS V14.01,2013-12-10 19:28:00,
2013-12-10 14:29:00,47.8,27.0,29.79,NW,315,2.9,4.9,44,0.00,,---,0.00,VWS V14.01,2013-12-10 19:29:00,
2013-12-10 14:30:00,48.7,29.4,29.80,WNW,292,1.4,3.4,47,0.00,,---,0.00,VWS V14.01,2013-12-10 19:30:00,
2013-12-10 14:31:00,48.7,29.9,29.74,WNW,292,0.5,3.4,48,0.00,,---,0.00,VWS V14.01,2013-12-10 19:31:00,
2013-12-10 14:32:00,47.5,27.2,29.79,ESE,112,1.1,3.8,45,0.00,,---,0.00,VWS V14.01,2013-12-10 19:32:00,
2013-12-10 14:33:00,47.5,27.2,29.79,SSE,158,2.3,5.8,45,0.00,,---,0.00,VWS V14.01,2013-12-10 19:33:00,
2013-12-10 14:34:00,47.5,26.1,29.79,NW,315,0.5,4.3,43,0.00,,---,0.00,VWS V14.01,2013-12-10 19:34:00,
2013-12-10 14:35:00,47.3,27.0,29.79,SW,225,0.5,3.1,45,0.00,,---,0.00,VWS V14.01,2013-12-10 19:35:00,
2013-12-10 14:36:00,48.9,30.1,29.74,NW,315,0.9,2.9,48,0.00,,---,0.00,VWS V14.01,2013-12-10 19:36:00,
2013-12-10 14:37:00,48.9,29.1,29.74,SW,225,0.5,6.3,46,0.00,,---,0.00,VWS V14.01,2013-12-10 19:37:00,
2013-12-10 14:38:00,47.3,25.4,29.79,SSE,158,0.7,3.6,42,0.00,,---,0.00,VWS V14.01,2013-12-10 19:38:00,
2013-12-10 14:39:00,47.3,26.0,29.79,WSW,248,3.8,5.8,43,0.00,,---,0.00,VWS V14.01,2013-12-10 19:39:00,
2013-12-10 14:40:00,47.3,25.4,29.79,WNW,292,1.4,5.8,42,0.00,,---,0.00,VWS V14.01,2013-12-10 19:40:00,
2013-12-10 14:41:00,48.9,28.0,29.74,South,180,0.5,3.4,44,0.00,,---,0.00,VWS V14.01,2013-12-10 19:41:00,
2013-12-10 14:42:00,47.1,25.8,29.82,NNW,338,2.9,7.4,43,0.00,,---,0.00,VWS V14.01,2013-12-10 19:42:00,
2013-12-10 14:43:00,48.9,28.0,29.74,NW,315,0.7,3.4,44,0.00,,---,0.00,VWS V14.01,2013-12-10 19:43:00,
2013-12-10 14:44:00,47.1,26.3,29.82,NW,315,0.2,2.9,44,0.00,,---,0.00,VWS V14.01,2013-12-10 19:44:00,
2013-12-10 14:45:00,48.9,28.0,29.76,WSW,248,1.1,4.9,44,0.00,,---,0.00,VWS V14.01,2013-12-10 19:45:00,
2013-12-10 14:46:00,48.9,27.4,29.76,WNW,292,0.7,5.4,43,0.00,,---,0.00,VWS V14.01,2013-12-10 19:46:00,
2013-12-10 14:47:00,46.9,25.1,29.82,NNW,338,0.5,3.8,42,0.00,,---,0.00,VWS V14.01,2013-12-10 19:47:00,
2013-12-10 14:48:00,46.8,25.5,29.82,NNW,338,1.1,3.1,43,0.00,,---,0.00,VWS V14.01,2013-12-10 19:48:00,
2013-12-10 14:49:00,49.1,29.2,29.76,NNW,338,3.6,5.6,46,0.00,,---,0.00,VWS V14.01,2013-12-10 19:49:00,
2013-12-10 14:50:00,46.6,24.7,29.82,WSW,248,4.0,6.0,42,0.00,,---,0.00,VWS V14.01,2013-12-10 19:50:00,
2013-12-10 14:51:00,49.1,29.2,29.76,West,270,0.7,4.3,46,0.00,,---,0.00,VWS V14.01,2013-12-10 19:51:00,
2013-12-10 14:52:00,46.6,25.3,29.82,WNW,292,0.5,2.5,43,0.00,,---,0.00,VWS V14.01,2013-12-10 19:52:00,
2013-12-10 14:53:00,48.9,28.5,29.76,SW,225,0.9,6.0,45,0.00,,---,0.00,VWS V14.01,2013-12-10 19:53:00,
2013-12-10 14:54:00,46.6,25.3,29.82,NW,315,3.8,7.2,43,0.00,,---,0.00,VWS V14.01,2013-12-10 19:54:00,
2013-12-10 14:55:00,46.6,25.3,29.82,WNW,292,0.0,5.8,43,0.00,,---,0.00,VWS V14.01,2013-12-10 19:55:00,
2013-12-10 14:56:00,48.9,28.5,29.76,NNE,22,0.2,4.9,45,0.00,,---,0.00,VWS V14.01,2013-12-10 19:56:00,
2013-12-10 14:57:00,46.6,25.3,29.79,NW,315,3.4,6.3,43,0.00,,---,0.00,VWS V14.01,2013-12-10 19:57:00,
2013-12-10 14:58:00,46.6,25.3,29.79,WSW,248,0.2,5.4,43,0.00,,---,0.00,VWS V14.01,2013-12-10 19:58:00,
2013-12-10 14:59:00,48.7,28.4,29.76,NNW,338,1.6,3.6,45,0.00,,---,0.00,VWS V14.01,2013-12-10 19:59:00,
2013-12-10 15:00:00,46.6,25.3,29.79,WSW,248,1.8,5.4,43,0.00,,---,0.00,VWS V14.01,2013-12-10 20:00:00,
2013-12-10 15:01:00,48.6,27.6,29.76,NNW,338,1.4,5.6,44,0.00,,---,0.00,VWS V14.01,2013-12-10 20:01:00,
2013-12-10 15:02:00,46.6,25.3,29.79,WNW,292,2.7,4.9,43,0.00,,---,0.00,VWS V14.01,2013-12-10 20:02:00,
2013-12-10 15:03:00,48.6,28.7,29.76,NW,315,2.0,4.0,46,0.00,,---,0.00,VWS V14.01,2013-12-10 20:03:00,
2013-12-10 15:04:00,46.6,25.9,29.79,NNW,338,0.9,4.7,44,0.00,,---,0.00,VWS V14.01,2013-12-10 20:04:00,
2013-12-10 15:05:00,46.6,25.9,29.79,NW,315,1.4,3.4,44,0.00,,---,0.00,VWS V14.01,2013-12-10 20:05:00,
2013-12-10 15:06:00,48.6,27.6,29.76,NW,315,0.9,4.7,44,0.00,,---,0.00,VWS V14.01,2013-12-10 20:06:00,
2013-12-10 15:07:00,46.4,24.6,29.79,WNW,292,0.7,6.5,42,0.00,,---,0.00,VWS V14.01,2013-12-10 20:07:00,
2013-12-10 15:08:00,48.4,27.5,29.76,NNW,338,0.5,3.8,44,0.00,,---,0.00,VWS V14.01,2013-12-10 20:08:00,
2013-12-10 15:09:00,46.4,24.6,29.79,NE,45,0.7,3.1,42,0.00,,---,0.00,VWS V14.01,2013-12-10 20:09:00,
2013-12-10 15:10:00,48.6,29.3,29.76,WNW,292,0.5,3.6,47,0.00,,---,0.00,VWS V14.01,2013-12-10 20:10:00,
2013-12-10 15:11:00,48.6,28.2,29.76,NW,315,0.2,3.4,45,0.00,,---,0.00,VWS V14.01,2013-12-10 20:11:00,
2013-12-10 15:12:00,46.4,25.1,29.79,SW,225,1.4,3.4,43,0.00,,---,0.00,VWS V14.01,2013-12-10 20:12:00,
2013-12-10 15:13:00,46.2,24.4,29.79,WNW,292,2.7,6.3,42,0.00,,---,0.00,VWS V14.01,2013-12-10 20:13:00,
2013-12-10 15:14:00,46.2,24.4,29.79,ESE,112,1.4,4.7,42,0.00,,---,0.00,VWS V14.01,2013-12-10 20:14:00,
2013-12-10 15:15:00,48.4,28.0,29.76,SE,135,0.9,2.9,45,0.00,,---,0.00,VWS V14.01,2013-12-10 20:15:00,
2013-12-10 15:16:00,48.4,28.6,29.76,NNW,338,3.4,5.4,46,0.00,,---,0.00,VWS V14.01,2013-12-10 20:16:00,
2013-12-10 15:18:00,46.0,24.8,29.79,NW,315,0.7,3.1,43,0.00,,---,0.00,VWS V14.01,2013-12-10 20:18:00,
2013-12-10 15:19:00,46.0,24.8,29.79,West,270,0.7,2.9,43,0.00,,---,0.00,VWS V14.01,2013-12-10 20:19:00,
2013-12-10 15:20:00,48.2,27.3,29.76,WSW,248,0.7,2.7,44,0.00,,---,0.00,VWS V14.01,2013-12-10 20:20:00,
2013-12-10 15:21:00,48.2,28.4,29.76,NNW,338,2.3,4.3,46,0.00,,---,0.00,VWS V14.01,2013-12-10 20:21:00,
2013-12-10 15:22:00,46.0,24.8,29.79,NNE,22,0.0,4.3,43,0.00,,---,0.00,VWS V14.01,2013-12-10 20:22:00,
2013-12-10 15:23:00,46.0,24.8,29.79,SW,225,1.4,3.4,43,0.00,,---,0.00,VWS V14.01,2013-12-10 20:23:00,
2013-12-10 15:24:00,45.9,24.1,29.79,NW,315,1.6,6.0,42,0.00,,---,0.00,VWS V14.01,2013-12-10 20:24:00,
2013-12-10 15:25:00,48.0,28.2,29.76,NW,315,0.9,2.9,46,0.00,,---,0.00,VWS V14.01,2013-12-10 20:25:00,
2013-12-10 15:26:00,45.9,24.1,29.79,NNW,338,0.2,5.4,42,0.00,,---,0.00,VWS V14.01,2013-12-10 20:26:00,
2013-12-10 15:27:00,45.9,25.2,29.82,NNW,338,0.2,2.2,44,0.00,,---,0.00,VWS V14.01,2013-12-10 20:27:00,
2013-12-10 15:28:00,45.9,25.2,29.82,WSW,248,0.5,2.5,44,0.00,,---,0.00,VWS V14.01,2013-12-10 20:28:00,
2013-12-10 15:29:00,45.9,24.6,29.82,SW,225,0.9,3.8,43,0.00,,---,0.00,VWS V14.01,2013-12-10 20:29:00,
2013-12-10 15:30:00,45.9,25.2,29.82,West,270,0.9,2.9,44,0.00,,---,0.00,VWS V14.01,2013-12-10 20:30:00,
2013-12-10 15:32:00,45.7,23.9,29.82,NW,315,1.8,3.8,42,0.00,,---,0.00,VWS V14.01,2013-12-10 20:32:00,
2013-12-10 15:33:00,45.7,24.5,29.82,NW,315,1.1,3.8,43,0.00,,---,0.00,VWS V14.01,2013-12-10 20:33:00,
2013-12-10 15:34:00,45.5,24.3,29.82,NNW,338,0.5,3.1,43,0.00,,---,0.00,VWS V14.01,2013-12-10 20:34:00,
2013-12-10 15:35:00,47.5,27.2,29.80,ESE,112,1.1,3.8,45,0.00,,---,0.00,VWS V14.01,2013-12-10 20:35:00,
2013-12-10 15:36:00,45.5,23.8,29.82,NW,315,0.0,3.6,42,0.00,,---,0.00,VWS V14.01,2013-12-10 20:36:00,
2013-12-10 15:37:00,47.5,26.1,29.80,NW,315,0.5,4.3,43,0.00,,---,0.00,VWS V14.01,2013-12-10 20:37:00,
2013-12-10 15:38:00,47.3,27.0,29.80,SW,225,0.5,3.1,45,0.00,,---,0.00,VWS V14.01,2013-12-10 20:38:00,
2013-12-10 15:39:00,47.3,26.5,29.80,NNW,338,5.2,7.2,44,0.00,,---,0.00,VWS V14.01,2013-12-10 20:39:00,
2013-12-10 15:40:00,47.3,25.4,29.80,WNW,292,1.1,7.2,42,0.00,,---,0.00,VWS V14.01,2013-12-10 20:40:00,
2013-12-10 15:41:00,45.3,24.2,29.82,NW,315,1.8,1.8,43,0.00,,---,0.00,VWS V14.01,2013-12-10 20:41:00,
2013-12-10 15:42:00,45.3,24.2,29.82,NW,315,4.5,6.5,43,0.00,,---,0.00,VWS V14.01,2013-12-10 20:42:00,
2013-12-10 15:43:00,47.3,25.4,29.80,WNW,292,1.4,5.8,42,0.00,,---,0.00,VWS V14.01,2013-12-10 20:43:00,
2013-12-10 15:44:00,47.1,25.8,29.80,NW,315,1.8,3.8,43,0.00,,---,0.00,VWS V14.01,2013-12-10 20:44:00,
2013-12-10 15:45:00,47.1,25.8,29.82,NNW,338,2.9,7.4,43,0.00,,---,0.00,VWS V14.01,2013-12-10 20:45:00,
2013-12-10 15:46:00,47.1,25.8,29.82,NNW,338,0.0,4.9,43,0.00,,---,0.00,VWS V14.01,2013-12-10 20:46:00,
2013-12-10 15:47:00,45.1,24.5,29.82,NW,315,0.7,0.0,44,0.00,,---,0.00,VWS V14.01,2013-12-10 20:47:00,
2013-12-10 15:48:00,46.9,25.6,29.82,WSW,248,6.1,8.1,43,0.00,,---,0.00,VWS V14.01,2013-12-10 20:48:00,
2013-12-10 15:49:00,45.1,25.1,29.82,NW,315,0.5,2.5,45,0.00,,---,0.00,VWS V14.01,2013-12-10 20:49:00,
2013-12-10 15:50:00,45.1,25.6,29.82,NW,315,1.1,3.1,46,0.00,,---,0.00,VWS V14.01,2013-12-10 20:50:00,
2013-12-10 15:51:00,46.8,25.5,29.82,NNW,338,1.1,3.1,43,0.00,,---,0.00,VWS V14.01,2013-12-10 20:51:00,
2013-12-10 15:52:00,46.8,26.0,29.82,WNW,292,3.4,7.6,44,0.00,,---,0.00,VWS V14.01,2013-12-10 20:52:00,
2013-12-10 15:53:00,46.6,24.7,29.82,WSW,248,4.0,6.0,42,0.00,,---,0.00,VWS V14.01,2013-12-10 20:53:00,
2013-12-10 15:54:00,45.0,23.8,29.82,West,270,1.6,4.3,43,0.00,,---,0.00,VWS V14.01,2013-12-10 20:54:00,
2013-12-10 15:55:00,44.8,22.5,29.82,SE,135,1.1,3.6,41,0.00,,---,0.00,VWS V14.01,2013-12-10 20:55:00,
2013-12-10 15:57:00,44.8,23.1,29.82,NNW,338,1.4,5.4,42,0.00,,---,0.00,VWS V14.01,2013-12-10 20:57:00,
2013-12-10 15:58:00,46.6,25.3,29.82,WNW,292,0.0,5.8,43,0.00,,---,0.00,VWS V14.01,2013-12-10 20:58:00,
2013-12-10 15:59:00,46.6,25.3,29.82,WSW,248,0.5,2.5,43,0.00,,---,0.00,VWS V14.01,2013-12-10 20:59:00,
2013-12-10 16:00:00,44.6,21.8,29.82,West,270,1.4,3.4,40,0.00,,---,0.00,VWS V14.01,2013-12-10 21:00:00,
2013-12-10 16:01:00,46.6,25.3,29.80,WSW,248,0.2,5.4,43,0.00,,---,0.00,VWS V14.01,2013-12-10 21:01:00,
2013-12-10 16:02:00,46.6,25.9,29.80,NW,315,2.9,4.9,44,0.00,,---,0.00,VWS V14.01,2013-12-10 21:02:00,
2013-12-10 16:03:00,44.4,21.6,29.82,NNW,338,1.4,4.3,40,0.00,,---,0.00,VWS V14.01,2013-12-10 21:03:00,
2013-12-10 16:04:00,46.6,25.3,29.80,NW,315,0.2,3.8,43,0.00,,---,0.00,VWS V14.01,2013-12-10 21:04:00,
2013-12-10 16:05:00,46.6,25.3,29.80,WNW,292,2.7,4.9,43,0.00,,---,0.00,VWS V14.01,2013-12-10 21:05:00,
2013-12-10 16:06:00,44.4,22.2,29.82,NNW,338,2.0,4.0,41,0.00,,---,0.00,VWS V14.01,2013-12-10 21:06:00,
2013-12-10 16:07:00,44.4,22.2,29.82,WNW,292,1.6,4.0,41,0.00,,---,0.00,VWS V14.01,2013-12-10 21:07:00,
2013-12-10 16:08:00,44.2,22.0,29.82,ENE,68,0.7,3.6,41,0.00,,---,0.00,VWS V14.01,2013-12-10 21:08:00,
2013-12-10 16:09:00,46.4,24.6,29.80,WNW,292,1.1,3.4,42,0.00,,---,0.00,VWS V14.01,2013-12-10 21:09:00,
2013-12-10 16:10:00,44.2,21.5,29.82,WNW,292,0.0,4.3,40,0.00,,---,0.00,VWS V14.01,2013-12-10 21:10:00,
2013-12-10 16:11:00,44.1,21.3,29.82,NW,315,0.9,3.8,40,0.00,,---,0.00,VWS V14.01,2013-12-10 21:11:00,
2013-12-10 16:12:00,46.4,24.6,29.80,NE,45,0.7,3.1,42,0.00,,---,0.00,VWS V14.01,2013-12-10 21:12:00,
2013-12-10 16:13:00,44.1,21.3,29.82,NNW,338,1.6,3.8,40,0.00,,---,0.00,VWS V14.01,2013-12-10 21:13:00,
2013-12-10 16:14:00,46.4,25.1,29.80,NNW,338,1.1,5.4,43,0.00,,---,0.00,VWS V14.01,2013-12-10 21:14:00,
2013-12-10 16:15:00,44.1,21.3,29.82,NNW,338,0.5,3.1,40,0.00,,---,0.00,VWS V14.01,2013-12-10 21:15:00,
2013-12-10 16:16:00,44.1,21.9,29.82,NW,315,0.2,2.5,41,0.00,,---,0.00,VWS V14.01,2013-12-10 21:16:00,
2013-12-10 16:17:00,44.1,21.9,29.82,NW,315,0.2,0.0,41,0.00,,---,0.00,VWS V14.01,2013-12-10 21:17:00,
2013-12-10 16:18:00,43.9,22.3,29.82,WNW,292,1.1,3.1,42,0.00,,---,0.00,VWS V14.01,2013-12-10 21:18:00,
2013-12-10 16:19:00,46.2,25.5,29.80,NNW,338,1.1,3.1,44,0.00,,---,0.00,VWS V14.01,2013-12-10 21:19:00,
2013-12-10 16:20:00,43.7,21.0,29.82,NNW,338,2.3,4.3,40,0.00,,---,0.00,VWS V14.01,2013-12-10 21:20:00,
2013-12-10 16:21:00,46.0,24.8,29.80,NW,315,0.7,3.1,43,0.00,,---,0.00,VWS V14.01,2013-12-10 21:21:00,
2013-12-10 16:22:00,46.0,24.8,29.80,West,270,0.7,2.9,43,0.00,,---,0.00,VWS V14.01,2013-12-10 21:22:00,
2013-12-10 16:23:00,43.7,21.6,29.82,SSE,158,0.9,3.4,41,0.00,,---,0.00,VWS V14.01,2013-12-10 21:23:00,
2013-12-10 16:24:00,46.0,24.2,29.80,NW,315,2.3,4.9,42,0.00,,---,0.00,VWS V14.01,2013-12-10 21:24:00,
2013-12-10 16:25:00,46.0,24.8,29.80,NNE,22,0.0,4.3,43,0.00,,---,0.00,VWS V14.01,2013-12-10 21:25:00,
2013-12-10 16:26:00,43.5,21.4,29.82,North,0,1.1,3.1,41,0.00,,---,0.00,VWS V14.01,2013-12-10 21:26:00,
2013-12-10 16:27:00,43.5,22.0,29.85,NW,315,0.9,3.1,42,0.00,,---,0.00,VWS V14.01,2013-12-10 21:27:00,
2013-12-10 16:28:00,43.5,21.4,29.85,NW,315,1.4,3.6,41,0.00,,---,0.00,VWS V14.01,2013-12-10 21:28:00,
2013-12-10 16:29:00,45.9,24.1,29.80,NNW,338,0.2,5.4,42,0.00,,---,0.00,VWS V14.01,2013-12-10 21:29:00,
2013-12-10 16:30:00,43.3,21.2,29.85,NE,45,0.0,2.2,41,0.00,,---,0.00,VWS V14.01,2013-12-10 21:30:00,
2013-12-10 16:31:00,45.9,25.2,29.82,WSW,248,0.5,2.5,44,0.00,,---,0.00,VWS V14.01,2013-12-10 21:31:00,
2013-12-10 16:32:00,45.9,24.6,29.82,SW,225,0.9,3.8,43,0.00,,---,0.00,VWS V14.01,2013-12-10 21:32:00,
2013-12-10 16:33:00,43.3,21.2,29.85,WNW,292,0.0,3.4,41,0.00,,---,0.00,VWS V14.01,2013-12-10 21:33:00,
2013-12-10 16:34:00,43.2,20.5,29.85,NW,315,0.2,3.1,40,0.00,,---,0.00,VWS V14.01,2013-12-10 21:34:00,
2013-12-10 16:35:00,45.7,23.9,29.82,NW,315,1.8,3.8,42,0.00,,---,0.00,VWS V14.01,2013-12-10 21:35:00,
2013-12-10 16:36:00,43.2,21.1,29.85,NW,315,1.4,3.4,41,0.00,,---,0.00,VWS V14.01,2013-12-10 21:36:00,
2013-12-10 16:37:00,45.5,24.3,29.82,NNW,338,0.5,3.1,43,0.00,,---,0.00,VWS V14.01,2013-12-10 21:37:00,
2013-12-10 16:38:00,45.5,24.3,29.82,WNW,292,0.0,2.5,43,0.00,,---,0.00,VWS V14.01,2013-12-10 21:38:00,
2013-12-10 16:39:00,43.0,21.5,29.85,WNW,292,1.4,3.4,42,0.00,,---,0.00,VWS V14.01,2013-12-10 21:39:00,
2013-12-10 16:40:00,45.5,23.8,29.82,NNW,338,0.9,3.1,42,0.00,,---,0.00,VWS V14.01,2013-12-10 21:40:00,
2013-12-10 16:41:00,43.0,21.5,29.85,NW,315,0.5,1.6,42,0.00,,---,0.00,VWS V14.01,2013-12-10 21:41:00,
2013-12-10 16:42:00,43.0,21.5,29.88,WNW,292,0.5,1.3,42,0.00,,---,0.00,VWS V14.01,2013-12-10 21:42:00,
2013-12-10 16:43:00,43.0,22.0,29.88,NNW,338,0.9,4.3,43,0.00,,---,0.00,VWS V14.01,2013-12-10 21:43:00,
2013-12-10 16:44:00,43.0,21.5,29.88,WNW,292,1.1,3.1,42,0.00,,---,0.00,VWS V14.01,2013-12-10 21:44:00,
2013-12-10 16:45:00,45.3,24.2,29.82,NW,315,4.5,6.5,43,0.00,,---,0.00,VWS V14.01,2013-12-10 21:45:00,
2013-12-10 16:46:00,45.3,23.6,29.82,NNW,338,0.0,6.5,42,0.00,,---,0.00,VWS V14.01,2013-12-10 21:46:00,
2013-12-10 16:47:00,42.8,21.3,29.88,NNW,338,0.7,2.7,42,0.00,,---,0.00,VWS V14.01,2013-12-10 21:47:00,
2013-12-10 16:48:00,45.3,24.7,29.82,NNE,22,0.7,2.7,44,0.00,,---,0.00,VWS V14.01,2013-12-10 21:48:00,
2013-12-10 16:49:00,42.8,21.3,29.88,North,0,0.7,3.1,42,0.00,,---,0.00,VWS V14.01,2013-12-10 21:49:00,
2013-12-10 16:50:00,42.6,21.1,29.88,NW,315,0.7,3.4,42,0.00,,---,0.00,VWS V14.01,2013-12-10 21:50:00,
2013-12-10 16:51:00,45.1,24.5,29.82,WNW,292,0.7,1.6,44,0.00,,---,0.00,VWS V14.01,2013-12-10 21:51:00,
2013-12-10 16:52:00,42.4,21.0,29.88,WNW,292,0.9,4.0,42,0.00,,---,0.00,VWS V14.01,2013-12-10 21:52:00,
2013-12-10 16:53:00,42.4,21.0,29.88,NW,315,0.2,3.1,42,0.00,,---,0.00,VWS V14.01,2013-12-10 21:53:00,
2013-12-10 16:54:00,42.4,21.0,29.88,WNW,292,0.5,3.6,42,0.00,,---,0.00,VWS V14.01,2013-12-10 21:54:00,
2013-12-10 16:56:00,42.4,21.0,29.88,NNW,338,0.5,4.3,42,0.00,,---,0.00,VWS V14.01,2013-12-10 21:56:00,
2013-12-10 16:57:00,45.0,23.8,29.82,West,270,1.6,4.3,43,0.00,,---,0.00,VWS V14.01,2013-12-10 21:57:00,
2013-12-10 16:58:00,44.8,22.5,29.82,SE,135,1.1,3.6,41,0.00,,---,0.00,VWS V14.01,2013-12-10 21:58:00,
2013-12-10 16:59:00,42.3,20.8,29.88,NNW,338,0.9,3.4,42,0.00,,---,0.00,VWS V14.01,2013-12-10 21:59:00,
2013-12-10 17:00:00,42.3,20.3,29.88,WNW,292,1.6,4.3,41,0.00,,---,0.00,VWS V14.01,2013-12-10 22:00:00,
2013-12-10 17:01:00,42.3,20.3,29.88,WNW,292,0.9,3.6,41,0.00,,---,0.00,VWS V14.01,2013-12-10 22:01:00,
2013-12-10 17:02:00,44.6,21.8,29.82,West,270,1.4,4.7,40,0.00,,---,0.00,VWS V14.01,2013-12-10 22:02:00,
2013-12-10 17:03:00,44.6,21.8,29.82,West,270,1.4,3.4,40,0.00,,---,0.00,VWS V14.01,2013-12-10 22:03:00,
2013-12-10 17:04:00,44.6,22.4,29.82,WSW,248,1.8,3.8,41,0.00,,---,0.00,VWS V14.01,2013-12-10 22:04:00,
2013-12-10 17:05:00,42.1,20.1,29.88,WSW,248,1.1,3.1,41,0.00,,---,0.00,VWS V14.01,2013-12-10 22:05:00,
2013-12-10 17:06:00,42.1,20.1,29.88,WNW,292,0.5,3.8,41,0.00,,---,0.00,VWS V14.01,2013-12-10 22:06:00,
2013-12-10 17:07:00,44.4,22.2,29.82,North,0,0.9,3.4,41,0.00,,---,0.00,VWS V14.01,2013-12-10 22:07:00,
2013-12-10 17:08:00,42.1,20.7,29.88,WSW,248,0.5,2.5,42,0.00,,---,0.00,VWS V14.01,2013-12-10 22:08:00,
2013-12-10 17:09:00,42.1,21.2,29.88,SSE,158,0.9,2.9,43,0.00,,---,0.00,VWS V14.01,2013-12-10 22:09:00,
2013-12-10 17:10:00,42.1,21.2,29.88,SSW,202,0.0,2.0,43,0.00,,---,0.00,VWS V14.01,2013-12-10 22:10:00,
2013-12-10 17:11:00,42.1,22.3,29.88,West,270,1.1,3.1,45,0.00,,---,0.00,VWS V14.01,2013-12-10 22:11:00,
2013-12-10 17:12:00,44.2,22.0,29.82,NW,315,0.9,2.9,41,0.00,,---,0.00,VWS V14.01,2013-12-10 22:12:00,
2013-12-10 17:13:00,44.2,21.5,29.82,WNW,292,0.0,4.3,40,0.00,,---,0.00,VWS V14.01,2013-12-10 22:13:00,
2013-12-10 17:14:00,41.7,20.3,29.88,WNW,292,0.9,2.9,42,0.00,,---,0.00,VWS V14.01,2013-12-10 22:14:00,
2013-12-10 17:15:00,44.1,21.3,29.82,WNW,292,1.1,3.8,40,0.00,,---,0.00,VWS V14.01,2013-12-10 22:15:00,
2013-12-10 17:16:00,44.1,21.3,29.82,NNW,338,1.6,3.8,40,0.00,,---,0.00,VWS V14.01,2013-12-10 22:16:00,
2013-12-10 17:17:00,41.7,20.3,29.88,West,270,0.7,2.9,42,0.00,,---,0.00,VWS V14.01,2013-12-10 22:17:00,
2013-12-10 17:18:00,44.1,21.3,29.82,NNW,338,0.5,3.1,40,0.00,,---,0.00,VWS V14.01,2013-12-10 22:18:00,
2013-12-10 17:19:00,44.1,21.9,29.82,NW,315,0.2,2.5,41,0.00,,---,0.00,VWS V14.01,2013-12-10 22:19:00,
2013-12-10 17:20:00,44.1,21.9,29.82,NW,315,0.2,0.0,41,0.00,,---,0.00,VWS V14.01,2013-12-10 22:20:00,
2013-12-10 17:21:00,41.5,20.7,29.88,WSW,248,0.0,2.5,43,0.00,,---,0.00,VWS V14.01,2013-12-10 22:21:00,
2013-12-10 17:22:00,41.4,21.1,29.88,West,270,0.5,2.5,44,0.00,,---,0.00,VWS V14.01,2013-12-10 22:22:00,
2013-12-10 17:23:00,41.4,21.1,29.88,NNW,338,0.7,2.7,44,0.00,,---,0.00,VWS V14.01,2013-12-10 22:23:00,
2013-12-10 17:24:00,41.4,21.1,29.88,WNW,292,0.0,2.0,44,0.00,,---,0.00,VWS V14.01,2013-12-10 22:24:00,
2013-12-10 17:25:00,43.7,21.6,29.82,WNW,292,0.0,2.9,41,0.00,,---,0.00,VWS V14.01,2013-12-10 22:25:00,
2013-12-10 17:26:00,43.7,21.6,29.82,SSE,158,0.9,3.4,41,0.00,,---,0.00,VWS V14.01,2013-12-10 22:26:00,
2013-12-10 17:27:00,41.0,20.2,29.88,West,270,0.0,2.7,43,0.00,,---,0.00,VWS V14.01,2013-12-10 22:27:00,
2013-12-10 17:28:00,43.5,21.4,29.82,WNW,292,0.7,2.9,41,0.00,,---,0.00,VWS V14.01,2013-12-10 22:28:00,
2013-12-10 17:29:00,41.0,20.2,29.88,WSW,248,0.7,2.9,43,0.00,,---,0.00,VWS V14.01,2013-12-10 22:29:00,
2013-12-10 17:30:00,43.5,22.0,29.85,NW,315,0.9,3.1,42,0.00,,---,0.00,VWS V14.01,2013-12-10 22:30:00,
2013-12-10 17:31:00,40.8,20.1,29.88,WNW,292,0.7,3.1,43,0.00,,---,0.00,VWS V14.01,2013-12-10 22:31:00,
2013-12-10 17:32:00,43.3,21.2,29.85,SSE,158,0.2,3.6,41,0.00,,---,0.00,VWS V14.01,2013-12-10 22:32:00,
2013-12-10 17:33:00,40.8,20.1,29.88,East,90,2.3,4.3,43,0.00,,---,0.00,VWS V14.01,2013-12-10 22:33:00,
2013-12-10 17:34:00,40.8,20.6,29.88,NNW,338,0.0,2.5,44,0.00,,---,0.00,VWS V14.01,2013-12-10 22:34:00,
2013-12-10 17:35:00,43.3,21.2,29.85,North,0,0.7,3.1,41,0.00,,---,0.00,VWS V14.01,2013-12-10 22:35:00,
2013-12-10 17:36:00,40.6,19.4,29.88,WNW,292,0.0,2.7,42,0.00,,---,0.00,VWS V14.01,2013-12-10 22:36:00,
2013-12-10 17:37:00,43.2,20.5,29.85,NW,315,0.2,3.1,40,0.00,,---,0.00,VWS V14.01,2013-12-10 22:37:00,
2013-12-10 17:38:00,43.2,21.1,29.85,NW,315,0.5,2.5,41,0.00,,---,0.00,VWS V14.01,2013-12-10 22:38:00,
2013-12-10 17:39:00,40.5,19.7,29.88,NNW,338,0.0,2.7,43,0.00,,---,0.00,VWS V14.01,2013-12-10 22:39:00,
2013-12-10 17:40:00,40.5,19.7,29.88,WNW,292,0.0,2.0,43,0.00,,---,0.00,VWS V14.01,2013-12-10 22:40:00,
2013-12-10 17:41:00,40.5,20.3,29.88,NNW,338,0.7,2.7,44,0.00,,---,0.00,VWS V14.01,2013-12-10 22:41:00,
2013-12-10 17:42:00,40.5,20.3,29.88,NNW,338,1.4,3.6,44,0.00,,---,0.00,VWS V14.01,2013-12-10 22:42:00,
2013-12-10 17:43:00,40.3,20.1,29.88,North,0,0.2,3.4,44,0.00,,---,0.00,VWS V14.01,2013-12-10 22:43:00,
2013-12-10 17:44:00,40.3,20.1,29.88,NNW,338,0.9,2.9,44,0.00,,---,0.00,VWS V14.01,2013-12-10 22:44:00,
2013-12-10 17:45:00,43.0,21.5,29.88,WNW,292,0.5,1.3,42,0.00,,---,0.00,VWS V14.01,2013-12-10 22:45:00,
2013-12-10 17:46:00,43.0,22.0,29.88,NNW,338,0.9,4.3,43,0.00,,---,0.00,VWS V14.01,2013-12-10 22:46:00,
2013-12-10 17:47:00,40.1,19.4,29.88,NW,315,0.0,3.1,43,0.00,,---,0.00,VWS V14.01,2013-12-10 22:47:00,
2013-12-10 17:48:00,39.9,19.2,29.88,SSW,202,0.5,2.5,43,0.00,,---,0.00,VWS V14.01,2013-12-10 22:48:00,
2013-12-10 17:49:00,39.9,19.8,29.88,SSW,202,0.5,1.6,44,0.00,,---,0.00,VWS V14.01,2013-12-10 22:49:00,
2013-12-10 17:50:00,42.8,21.3,29.88,NNW,338,0.7,2.7,42,0.00,,---,0.00,VWS V14.01,2013-12-10 22:50:00,
2013-12-10 17:51:00,39.9,19.8,29.88,NNE,22,0.0,2.0,44,0.00,,---,0.00,VWS V14.01,2013-12-10 22:51:00,
2013-12-10 17:52:00,42.8,21.3,29.88,North,0,0.7,3.1,42,0.00,,---,0.00,VWS V14.01,2013-12-10 22:52:00,
2013-12-10 17:53:00,39.7,22.2,29.88,ENE,68,0.0,1.6,49,0.00,,---,0.00,VWS V14.01,2013-12-10 22:53:00,
2013-12-10 17:54:00,39.6,21.5,29.88,NNE,22,0.0,0.9,48,0.00,,---,0.00,VWS V14.01,2013-12-10 22:54:00,
2013-12-10 17:55:00,39.4,21.8,29.88,WNW,292,0.0,0.9,49,0.00,,---,0.00,VWS V14.01,2013-12-10 22:55:00,
2013-12-10 17:56:00,39.4,21.3,29.88,WSW,248,0.0,0.9,48,0.00,,---,0.00,VWS V14.01,2013-12-10 22:56:00,
2013-12-10 17:57:00,42.4,21.0,29.88,WNW,292,0.5,3.6,42,0.00,,---,0.00,VWS V14.01,2013-12-10 22:57:00,
2013-12-10 17:58:00,42.4,21.0,29.88,NNW,338,0.7,3.4,42,0.00,,---,0.00,VWS V14.01,2013-12-10 22:58:00,
2013-12-10 17:59:00,42.4,21.0,29.88,NNW,338,0.5,4.3,42,0.00,,---,0.00,VWS V14.01,2013-12-10 22:59:00,
2013-12-10 18:00:00,39.0,21.0,29.91,East,90,0.0,0.0,48,0.00,,---,0.00,VWS V14.01,2013-12-10 23:00:00,
2013-12-10 18:01:00,42.3,20.8,29.88,WNW,292,1.4,3.4,42,0.00,,---,0.00,VWS V14.01,2013-12-10 23:01:00,
2013-12-10 18:02:00,38.8,20.8,29.91,West,270,0.0,1.3,48,0.00,,---,0.00,VWS V14.01,2013-12-10 23:02:00,
2013-12-10 18:03:00,42.3,20.3,29.88,WNW,292,1.6,4.3,41,0.00,,---,0.00,VWS V14.01,2013-12-10 23:03:00,
2013-12-10 18:04:00,42.3,20.3,29.88,WNW,292,0.9,3.6,41,0.00,,---,0.00,VWS V14.01,2013-12-10 23:04:00,
2013-12-10 18:05:00,42.1,20.1,29.88,NW,315,1.6,3.6,41,0.00,,---,0.00,VWS V14.01,2013-12-10 23:05:00,
2013-12-10 18:06:00,38.8,20.8,29.91,SSE,158,0.0,2.0,48,0.00,,---,0.00,VWS V14.01,2013-12-10 23:06:00,
2013-12-10 18:07:00,38.7,21.2,29.91,ESE,112,0.0,1.3,49,0.00,,---,0.00,VWS V14.01,2013-12-10 23:07:00,
2013-12-10 18:08:00,38.7,21.2,29.91,East,90,0.0,1.1,49,0.00,,---,0.00,VWS V14.01,2013-12-10 23:08:00,
2013-12-10 18:09:00,38.5,21.0,29.91,ENE,68,0.0,0.0,49,0.00,,---,0.00,VWS V14.01,2013-12-10 23:09:00,
2013-12-10 18:10:00,38.5,20.5,29.91,NNE,22,0.0,0.0,48,0.00,,---,0.00,VWS V14.01,2013-12-10 23:10:00,
2013-12-10 18:11:00,42.1,20.7,29.88,WSW,248,0.5,2.5,42,0.00,,---,0.00,VWS V14.01,2013-12-10 23:11:00,
2013-12-10 18:12:00,38.5,20.5,29.91,NNE,22,0.0,0.0,48,0.00,,---,0.00,VWS V14.01,2013-12-10 23:12:00,
2013-12-10 18:13:00,38.5,20.5,29.91,NNE,22,0.0,0.0,48,0.00,,---,0.00,VWS V14.01,2013-12-10 23:13:00,
2013-12-10 18:14:00,42.1,22.3,29.88,West,270,1.1,3.1,45,0.00,,---,0.00,VWS V14.01,2013-12-10 23:14:00,
2013-12-10 18:15:00,38.3,20.8,29.91,ESE,112,0.0,0.0,49,0.00,,---,0.00,VWS V14.01,2013-12-10 23:15:00,
2013-12-10 18:16:00,41.9,21.0,29.88,WSW,248,0.7,4.3,43,0.00,,---,0.00,VWS V14.01,2013-12-10 23:16:00,
2013-12-10 18:17:00,38.1,21.1,29.91,ESE,112,0.0,1.6,50,0.00,,---,0.00,VWS V14.01,2013-12-10 23:17:00,
2013-12-10 18:18:00,41.7,20.3,29.88,WSW,248,0.9,2.9,42,0.00,,---,0.00,VWS V14.01,2013-12-10 23:18:00,
2013-12-10 18:19:00,37.9,20.5,29.91,ESE,112,0.0,0.9,49,0.00,,---,0.00,VWS V14.01,2013-12-10 23:19:00,
2013-12-10 18:20:00,37.9,20.5,29.91,ESE,112,0.0,0.0,49,0.00,,---,0.00,VWS V14.01,2013-12-10 23:20:00,
2013-12-10 18:21:00,41.7,20.3,29.88,WNW,292,0.5,2.7,42,0.00,,---,0.00,VWS V14.01,2013-12-10 23:21:00,
2013-12-10 18:22:00,37.6,20.6,29.91,ESE,112,0.0,1.6,50,0.00,,---,0.00,VWS V14.01,2013-12-10 23:22:00,
2013-12-10 18:23:00,41.5,20.2,29.88,WNW,292,0.0,2.0,42,0.00,,---,0.00,VWS V14.01,2013-12-10 23:23:00,
2013-12-10 18:24:00,41.5,20.7,29.88,WSW,248,0.0,2.5,43,0.00,,---,0.00,VWS V14.01,2013-12-10 23:24:00,
2013-12-10 18:25:00,37.4,20.9,29.91,ESE,112,0.0,0.0,51,0.00,,---,0.00,VWS V14.01,2013-12-10 23:25:00,
2013-12-10 18:26:00,37.2,20.8,29.91,SE,135,0.2,2.5,51,0.00,,---,0.00,VWS V14.01,2013-12-10 23:26:00,
2013-12-10 18:27:00,41.4,21.1,29.88,WNW,292,0.0,2.0,44,0.00,,---,0.00,VWS V14.01,2013-12-10 23:27:00,
2013-12-10 18:28:00,41.2,22.0,29.88,West,270,2.3,4.3,46,0.00,,---,0.00,VWS V14.01,2013-12-10 23:28:00,
2013-12-10 18:29:00,41.2,20.4,29.88,WNW,292,0.7,4.3,43,0.00,,---,0.00,VWS V14.01,2013-12-10 23:29:00,
2013-12-10 18:30:00,41.0,20.2,29.88,West,270,0.0,2.7,43,0.00,,---,0.00,VWS V14.01,2013-12-10 23:30:00,
2013-12-10 18:31:00,36.9,20.4,29.94,ESE,112,0.2,0.0,51,0.00,,---,0.00,VWS V14.01,2013-12-10 23:31:00,
2013-12-10 18:32:00,36.9,20.4,29.94,ESE,112,0.2,0.0,51,0.00,,---,0.00,VWS V14.01,2013-12-10 23:32:00,
2013-12-10 18:33:00,36.7,20.3,29.94,SSW,202,0.2,0.0,51,0.00,,---,0.00,VWS V14.01,2013-12-10 23:33:00,
2013-12-10 18:34:00,40.8,20.1,29.88,WNW,292,0.7,3.1,43,0.00,,---,0.00,VWS V14.01,2013-12-10 23:34:00,
2013-12-10 18:35:00,40.8,20.6,29.88,WSW,248,0.7,2.7,44,0.00,,---,0.00,VWS V14.01,2013-12-10 23:35:00,
2013-12-10 18:36:00,40.8,20.1,29.88,East,90,2.3,4.3,43,0.00,,---,0.00,VWS V14.01,2013-12-10 23:36:00,
2013-12-10 18:37:00,36.7,20.3,29.94,SE,135,0.0,0.0,51,0.00,,---,0.00,VWS V14.01,2013-12-10 23:37:00,
2013-12-10 18:38:00,40.6,19.9,29.88,NW,315,0.2,2.5,43,0.00,,---,0.00,VWS V14.01,2013-12-10 23:38:00,
2013-12-10 18:39:00,36.5,20.1,29.94,SSE,158,0.2,2.2,51,0.00,,---,0.00,VWS V14.01,2013-12-10 23:39:00,
2013-12-10 18:40:00,36.3,20.4,29.94,North,0,0.2,1.6,52,0.00,,---,0.00,VWS V14.01,2013-12-10 23:40:00,
2013-12-10 18:41:00,40.5,20.3,29.88,WNW,292,0.7,2.7,44,0.00,,---,0.00,VWS V14.01,2013-12-10 23:41:00,
2013-12-10 18:42:00,36.3,20.4,29.94,North,0,0.2,0.0,52,0.00,,---,0.00,VWS V14.01,2013-12-10 23:42:00,
2013-12-10 18:43:00,36.3,20.4,29.94,North,0,0.2,0.0,52,0.00,,---,0.00,VWS V14.01,2013-12-10 23:43:00,
2013-12-10 18:44:00,40.5,20.3,29.88,NNW,338,0.7,2.7,44,0.00,,---,0.00,VWS V14.01,2013-12-10 23:44:00,
2013-12-10 18:45:00,40.5,20.3,29.88,NNW,338,1.4,3.6,44,0.00,,---,0.00,VWS V14.01,2013-12-10 23:45:00,
2013-12-10 18:46:00,36.1,20.2,29.94,WNW,292,0.2,1.6,52,0.00,,---,0.00,VWS V14.01,2013-12-10 23:46:00,
2013-12-10 18:47:00,40.3,20.1,29.88,NNW,338,0.9,2.9,44,0.00,,---,0.00,VWS V14.01,2013-12-10 23:47:00,
2013-12-10 18:48:00,36.1,19.8,29.94,NW,315,0.5,2.5,51,0.00,,---,0.00,VWS V14.01,2013-12-10 23:48:00,
2013-12-10 18:49:00,36.1,20.2,29.94,NNE,22,0.5,0.0,52,0.00,,---,0.00,VWS V14.01,2013-12-10 23:49:00,
2013-12-10 18:50:00,36.1,20.7,29.94,NE,45,0.5,0.0,53,0.00,,---,0.00,VWS V14.01,2013-12-10 23:50:00,
2013-12-10 18:51:00,39.9,19.2,29.88,SSW,202,0.5,2.5,43,0.00,,---,0.00,VWS V14.01,2013-12-10 23:51:00,
2013-12-10 18:52:00,39.9,19.8,29.88,SSW,202,0.5,1.6,44,0.00,,---,0.00,VWS V14.01,2013-12-10 23:52:00,
2013-12-10 18:53:00,39.9,19.8,29.88,SW,225,0.5,1.6,44,0.00,,---,0.00,VWS V14.01,2013-12-10 23:53:00,
2013-12-10 18:54:00,39.9,19.8,29.88,NNE,22,0.0,2.0,44,0.00,,---,0.00,VWS V14.01,2013-12-10 23:54:00,
2013-12-10 18:55:00,39.7,21.7,29.88,ESE,112,0.0,0.0,48,0.00,,---,0.00,VWS V14.01,2013-12-10 23:55:00,
2013-12-10 18:56:00,36.1,20.7,29.94,North,0,0.0,2.0,53,0.00,,---,0.00,VWS V14.01,2013-12-10 23:56:00,
2013-12-10 18:57:00,36.1,20.2,29.94,NNE,22,0.0,1.6,52,0.00,,---,0.00,VWS V14.01,2013-12-10 23:57:00,
2013-12-10 18:58:00,36.1,20.7,29.94,NE,45,0.0,0.0,53,0.00,,---,0.00,VWS V14.01,2013-12-10 23:58:00,
2013-12-10 18:59:00,39.4,21.3,29.88,WSW,248,0.0,0.9,48,0.00,,---,0.00,VWS V14.01,2013-12-10 23:59:00,
2013-12-10 19:00:00,36.0,21.0,29.94,NE,45,0.0,0.0,54,0.00,,---,0.00,VWS V14.01,2013-12-11 00:00:00,
2013-12-10 19:01:00,36.0,20.5,29.94,NE,45,0.0,0.0,53,0.00,,---,0.00,VWS V14.01,2013-12-11 00:01:00,
2013-12-10 19:02:00,39.2,21.2,29.91,SE,135,0.0,1.3,48,0.00,,---,0.00,VWS V14.01,2013-12-11 00:02:00,
2013-12-10 19:03:00,36.0,20.5,29.94,NE,45,0.0,0.0,53,0.00,,---,0.00,VWS V14.01,2013-12-11 00:03:00,
2013-12-10 19:04:00,39.0,21.0,29.91,ENE,68,0.0,1.1,48,0.00,,---,0.00,VWS V14.01,2013-12-11 00:04:00,
2013-12-10 19:05:00,38.8,20.8,29.91,West,270,0.0,1.3,48,0.00,,---,0.00,VWS V14.01,2013-12-11 00:05:00,
2013-12-10 19:06:00,38.8,20.8,29.91,ENE,68,0.0,1.6,48,0.00,,---,0.00,VWS V14.01,2013-12-11 00:06:00,
2013-12-10 19:07:00,35.8,20.8,29.94,NE,45,0.0,1.3,54,0.00,,---,0.00,VWS V14.01,2013-12-11 00:07:00,
2013-12-10 19:08:00,35.8,20.3,29.94,NE,45,0.0,1.1,53,0.00,,---,0.00,VWS V14.01,2013-12-11 00:08:00,
2013-12-10 19:09:00,38.8,20.8,29.91,SSE,158,0.0,2.0,48,0.00,,---,0.00,VWS V14.01,2013-12-11 00:09:00,
2013-12-10 19:10:00,38.7,21.2,29.91,ESE,112,0.0,1.3,49,0.00,,---,0.00,VWS V14.01,2013-12-11 00:10:00,
2013-12-10 19:11:00,35.8,20.3,29.94,NE,45,0.0,1.6,53,0.00,,---,0.00,VWS V14.01,2013-12-11 00:11:00,
2013-12-10 19:12:00,35.8,20.8,29.91,NE,45,0.0,1.6,54,0.00,,---,0.00,VWS V14.01,2013-12-11 00:12:00,
2013-12-10 19:13:00,35.8,20.8,29.91,NNE,22,0.0,1.3,54,0.00,,---,0.00,VWS V14.01,2013-12-11 00:13:00,
2013-12-10 19:14:00,35.6,20.6,29.91,SE,135,0.0,0.0,54,0.00,,---,0.00,VWS V14.01,2013-12-11 00:14:00,
2013-12-10 19:15:00,38.5,20.5,29.91,NNE,22,0.0,0.0,48,0.00,,---,0.00,VWS V14.01,2013-12-11 00:15:00,
2013-12-10 19:16:00,35.6,20.6,29.91,ENE,68,0.0,0.0,54,0.00,,---,0.00,VWS V14.01,2013-12-11 00:16:00,
2013-12-10 19:17:00,35.6,20.6,29.91,ENE,68,0.0,0.9,54,0.00,,---,0.00,VWS V14.01,2013-12-11 00:17:00,
2013-12-10 19:18:00,35.6,21.0,29.91,ENE,68,0.0,0.0,55,0.00,,---,0.00,VWS V14.01,2013-12-11 00:18:00,
2013-12-10 19:19:00,35.4,20.9,29.91,ENE,68,0.0,2.0,55,0.00,,---,0.00,VWS V14.01,2013-12-11 00:19:00,
2013-12-10 19:20:00,38.1,21.1,29.91,ESE,112,0.0,1.6,50,0.00,,---,0.00,VWS V14.01,2013-12-11 00:20:00,
2013-12-10 19:21:00,35.4,20.9,29.91,ENE,68,0.0,1.3,55,0.00,,---,0.00,VWS V14.01,2013-12-11 00:21:00,
2013-12-10 19:22:00,35.4,20.9,29.91,ENE,68,0.0,0.9,55,0.00,,---,0.00,VWS V14.01,2013-12-11 00:22:00,
2013-12-10 19:23:00,37.9,20.5,29.91,ESE,112,0.0,0.0,49,0.00,,---,0.00,VWS V14.01,2013-12-11 00:23:00,
2013-12-10 19:24:00,35.2,20.7,29.91,NE,45,0.0,0.9,55,0.00,,---,0.00,VWS V14.01,2013-12-11 00:24:00,
2013-12-10 19:25:00,35.1,21.0,29.91,ENE,68,0.0,0.0,56,0.00,,---,0.00,VWS V14.01,2013-12-11 00:25:00,
2013-12-10 19:26:00,37.6,21.1,29.91,ESE,112,0.0,1.6,51,0.00,,---,0.00,VWS V14.01,2013-12-11 00:26:00,
2013-12-10 19:27:00,35.1,21.0,29.91,ENE,68,0.0,0.0,56,0.00,,---,0.00,VWS V14.01,2013-12-11 00:27:00,
2013-12-10 19:28:00,35.1,20.5,29.91,ENE,68,0.0,0.0,55,0.00,,---,0.00,VWS V14.01,2013-12-11 00:28:00,
2013-12-10 19:29:00,37.2,20.8,29.91,SE,135,0.2,2.5,51,0.00,,---,0.00,VWS V14.01,2013-12-11 00:29:00,
2013-12-10 19:30:00,35.1,21.0,29.91,ENE,68,0.0,0.0,56,0.00,,---,0.00,VWS V14.01,2013-12-11 00:30:00,
2013-12-10 19:31:00,34.9,21.2,29.91,ENE,68,0.0,1.6,57,0.00,,---,0.00,VWS V14.01,2013-12-11 00:31:00,
2013-12-10 19:32:00,34.7,21.0,29.91,ENE,68,0.0,2.0,57,0.00,,---,0.00,VWS V14.01,2013-12-11 00:32:00,
2013-12-10 19:33:00,36.9,20.4,29.94,ESE,112,0.2,0.0,51,0.00,,---,0.00,VWS V14.01,2013-12-11 00:33:00,
2013-12-10 19:34:00,36.9,20.4,29.94,ESE,112,0.2,0.0,51,0.00,,---,0.00,VWS V14.01,2013-12-11 00:34:00,
2013-12-10 19:35:00,34.5,20.9,29.91,ENE,68,0.0,0.0,57,0.00,,---,0.00,VWS V14.01,2013-12-11 00:35:00,
2013-12-10 19:36:00,36.7,20.3,29.94,SSW,202,0.2,0.0,51,0.00,,---,0.00,VWS V14.01,2013-12-11 00:36:00,
2013-12-10 19:37:00,34.5,21.3,29.91,ENE,68,0.0,0.0,58,0.00,,---,0.00,VWS V14.01,2013-12-11 00:37:00,
2013-12-10 19:38:00,36.7,20.3,29.94,SE,135,0.0,1.6,51,0.00,,---,0.00,VWS V14.01,2013-12-11 00:38:00,
2013-12-10 19:39:00,36.7,20.3,29.94,SE,135,0.0,0.0,51,0.00,,---,0.00,VWS V14.01,2013-12-11 00:39:00,
2013-12-10 19:40:00,36.7,20.3,29.94,SE,135,0.0,0.0,51,0.00,,---,0.00,VWS V14.01,2013-12-11 00:40:00,
2013-12-10 19:41:00,34.2,21.7,29.91,ENE,68,0.0,0.0,60,0.00,,---,0.00,VWS V14.01,2013-12-11 00:41:00,
2013-12-10 19:42:00,36.5,20.1,29.94,SSE,158,0.2,2.2,51,0.00,,---,0.00,VWS V14.01,2013-12-11 00:42:00,
2013-12-10 19:43:00,34.0,21.6,29.94,ENE,68,0.0,0.0,60,0.00,,---,0.00,VWS V14.01,2013-12-11 00:43:00,
2013-12-10 19:44:00,34.0,21.6,29.94,ENE,68,0.0,0.0,60,0.00,,---,0.00,VWS V14.01,2013-12-11 00:44:00,
2013-12-10 19:45:00,33.8,21.0,29.94,ENE,68,0.0,0.0,59,0.00,,---,0.00,VWS V14.01,2013-12-11 00:45:00,
2013-12-10 19:46:00,36.3,20.4,29.94,North,0,0.2,0.0,52,0.00,,---,0.00,VWS V14.01,2013-12-11 00:46:00,
2013-12-10 19:47:00,36.3,20.4,29.94,NNE,22,0.2,0.0,52,0.00,,---,0.00,VWS V14.01,2013-12-11 00:47:00,
2013-12-10 19:48:00,33.8,22.5,29.94,East,90,0.0,2.0,63,0.00,,---,0.00,VWS V14.01,2013-12-11 00:48:00,
2013-12-10 19:49:00,33.8,22.5,29.94,East,90,0.0,1.1,63,0.00,,---,0.00,VWS V14.01,2013-12-11 00:49:00,
2013-12-10 19:50:00,36.1,20.2,29.94,NW,315,0.5,2.5,52,0.00,,---,0.00,VWS V14.01,2013-12-11 00:50:00,
2013-12-10 19:51:00,33.4,21.5,29.94,East,90,0.0,0.0,61,0.00,,---,0.00,VWS V14.01,2013-12-11 00:51:00,
2013-12-10 19:52:00,33.4,21.5,29.94,East,90,0.0,0.0,61,0.00,,---,0.00,VWS V14.01,2013-12-11 00:52:00,
2013-12-10 19:53:00,36.1,20.7,29.94,NE,45,0.5,0.0,53,0.00,,---,0.00,VWS V14.01,2013-12-11 00:53:00,
2013-12-10 19:54:00,36.1,20.7,29.94,NNE,22,0.5,0.0,53,0.00,,---,0.00,VWS V14.01,2013-12-11 00:54:00,
2013-12-10 19:55:00,33.4,21.5,29.94,East,90,0.0,0.0,61,0.00,,---,0.00,VWS V14.01,2013-12-11 00:55:00,
2013-12-10 19:56:00,33.4,21.1,29.94,East,90,0.0,0.0,60,0.00,,---,0.00,VWS V14.01,2013-12-11 00:56:00,
2013-12-10 19:57:00,36.1,20.7,29.94,North,0,0.5,0.0,53,0.00,,---,0.00,VWS V14.01,2013-12-11 00:57:00,
2013-12-10 19:58:00,33.3,21.3,29.94,East,90,0.0,0.0,61,0.00,,---,0.00,VWS V14.01,2013-12-11 00:58:00,
2013-12-10 19:59:00,36.1,20.7,29.94,North,0,0.0,2.0,53,0.00,,---,0.00,VWS V14.01,2013-12-11 00:59:00,
2013-12-10 20:00:00,33.3,20.9,29.94,East,90,0.0,1.6,60,0.00,,---,0.00,VWS V14.01,2013-12-11 01:00:00,
2013-12-10 20:01:00,33.3,20.9,29.94,East,90,0.0,2.0,60,0.00,,---,0.00,VWS V14.01,2013-12-11 01:01:00,
2013-12-10 20:02:00,36.1,20.7,29.94,NE,45,0.0,0.0,53,0.00,,---,0.00,VWS V14.01,2013-12-11 01:02:00,
2013-12-10 20:03:00,33.1,21.9,29.94,East,90,0.0,1.6,63,0.00,,---,0.00,VWS V14.01,2013-12-11 01:03:00,
2013-12-10 20:04:00,33.1,21.9,29.94,East,90,0.0,0.0,63,0.00,,---,0.00,VWS V14.01,2013-12-11 01:04:00,
2013-12-10 20:05:00,36.0,20.5,29.94,NE,45,0.0,0.0,53,0.00,,---,0.00,VWS V14.01,2013-12-11 01:05:00,
2013-12-10 20:06:00,32.9,21.3,29.94,East,90,0.0,0.0,62,0.00,,---,0.00,VWS V14.01,2013-12-11 01:06:00,
2013-12-10 20:07:00,36.0,20.5,29.94,NE,45,0.0,0.0,53,0.00,,---,0.00,VWS V14.01,2013-12-11 01:07:00,
2013-12-10 20:08:00,36.0,21.0,29.94,NE,45,0.0,0.0,54,0.00,,---,0.00,VWS V14.01,2013-12-11 01:08:00,
2013-12-10 20:09:00,32.7,20.8,29.94,East,90,0.0,0.0,61,0.00,,---,0.00,VWS V14.01,2013-12-11 01:09:00,
2013-12-10 20:10:00,32.7,20.8,29.94,East,90,0.0,0.0,61,0.00,,---,0.00,VWS V14.01,2013-12-11 01:10:00,
2013-12-10 20:11:00,35.8,20.3,29.94,NE,45,0.0,1.1,53,0.00,,---,0.00,VWS V14.01,2013-12-11 01:11:00,
2013-12-10 20:12:00,32.7,21.1,29.94,East,90,0.0,0.0,62,0.00,,---,0.00,VWS V14.01,2013-12-11 01:12:00,
2013-12-10 20:13:00,35.8,20.3,29.94,NE,45,0.0,0.0,53,0.00,,---,0.00,VWS V14.01,2013-12-11 01:13:00,
2013-12-10 20:14:00,35.8,20.3,29.94,NE,45,0.0,1.6,53,0.00,,---,0.00,VWS V14.01,2013-12-11 01:14:00,
2013-12-10 20:15:00,32.5,20.6,29.94,East,90,0.0,0.0,61,0.00,,---,0.00,VWS V14.01,2013-12-11 01:15:00,
2013-12-10 20:16:00,32.5,20.6,29.94,East,90,0.0,0.0,61,0.00,,---,0.00,VWS V14.01,2013-12-11 01:16:00,
2013-12-10 20:17:00,35.6,20.6,29.91,SE,135,0.0,0.0,54,0.00,,---,0.00,VWS V14.01,2013-12-11 01:17:00,
2013-12-10 20:18:00,32.5,20.6,29.94,East,90,0.0,0.0,61,0.00,,---,0.00,VWS V14.01,2013-12-11 01:18:00,
2013-12-10 20:19:00,32.5,20.2,29.94,East,90,0.0,0.0,60,0.00,,---,0.00,VWS V14.01,2013-12-11 01:19:00,
2013-12-10 20:20:00,35.6,20.6,29.91,ENE,68,0.0,0.9,54,0.00,,---,0.00,VWS V14.01,2013-12-11 01:20:00,
2013-12-10 20:21:00,32.5,20.2,29.94,East,90,0.0,0.0,60,0.00,,---,0.00,VWS V14.01,2013-12-11 01:21:00,
2013-12-10 20:22:00,35.4,20.9,29.91,ENE,68,0.0,2.0,55,0.00,,---,0.00,VWS V14.01,2013-12-11 01:22:00,
2013-12-10 20:23:00,32.5,20.2,29.94,East,90,0.0,0.0,60,0.00,,---,0.00,VWS V14.01,2013-12-11 01:23:00,
2013-12-10 20:24:00,35.4,20.9,29.91,ENE,68,0.0,1.3,55,0.00,,---,0.00,VWS V14.01,2013-12-11 01:24:00,
2013-12-10 20:25:00,35.4,20.9,29.91,ENE,68,0.0,0.9,55,0.00,,---,0.00,VWS V14.01,2013-12-11 01:25:00,
2013-12-10 20:26:00,35.2,21.1,29.91,NE,45,0.0,0.0,56,0.00,,---,0.00,VWS V14.01,2013-12-11 01:26:00,
2013-12-10 20:27:00,35.2,20.7,29.91,NE,45,0.0,0.9,55,0.00,,---,0.00,VWS V14.01,2013-12-11 01:27:00,
2013-12-10 20:28:00,32.4,19.6,29.94,East,90,0.0,0.0,59,0.00,,---,0.00,VWS V14.01,2013-12-11 01:28:00,
2013-12-10 20:29:00,32.5,19.8,29.94,East,90,0.0,0.0,59,0.00,,---,0.00,VWS V14.01,2013-12-11 01:29:00,
2013-12-10 20:30:00,35.1,21.0,29.91,ENE,68,0.0,0.0,56,0.00,,---,0.00,VWS V14.01,2013-12-11 01:30:00,
2013-12-10 20:31:00,32.4,19.6,29.94,East,90,0.0,0.0,59,0.00,,---,0.00,VWS V14.01,2013-12-11 01:31:00,
2013-12-10 20:32:00,35.1,20.5,29.91,ENE,68,0.0,0.0,55,0.00,,---,0.00,VWS V14.01,2013-12-11 01:32:00,
2013-12-10 20:33:00,35.1,21.0,29.91,ENE,68,0.0,0.0,56,0.00,,---,0.00,VWS V14.01,2013-12-11 01:33:00,
2013-12-10 20:34:00,34.9,21.2,29.91,ENE,68,0.0,1.6,57,0.00,,---,0.00,VWS V14.01,2013-12-11 01:34:00,
2013-12-10 20:35:00,34.7,21.0,29.91,ENE,68,0.0,2.0,57,0.00,,---,0.00,VWS V14.01,2013-12-11 01:35:00,
2013-12-10 20:36:00,32.4,19.6,29.94,NE,45,0.0,0.0,59,0.00,,---,0.00,VWS V14.01,2013-12-11 01:36:00,
2013-12-10 20:37:00,32.4,19.6,29.94,NE,45,0.0,0.0,59,0.00,,---,0.00,VWS V14.01,2013-12-11 01:37:00,
2013-12-10 20:38:00,34.5,20.9,29.91,ENE,68,0.0,0.0,57,0.00,,---,0.00,VWS V14.01,2013-12-11 01:38:00,
2013-12-10 20:39:00,32.4,19.6,29.94,East,90,0.0,0.0,59,0.00,,---,0.00,VWS V14.01,2013-12-11 01:39:00,
2013-12-10 20:40:00,34.5,21.3,29.91,ENE,68,0.0,0.0,58,0.00,,---,0.00,VWS V14.01,2013-12-11 01:40:00,
2013-12-10 20:41:00,32.4,20.0,29.94,East,90,0.0,0.0,60,0.00,,---,0.00,VWS V14.01,2013-12-11 01:41:00,
2013-12-10 20:42:00,32.4,20.0,29.97,East,90,0.0,0.0,60,0.00,,---,0.00,VWS V14.01,2013-12-11 01:42:00,
2013-12-10 20:43:00,32.4,20.0,29.97,East,90,0.0,0.0,60,0.00,,---,0.00,VWS V14.01,2013-12-11 01:43:00,
2013-12-10 20:44:00,32.4,19.6,29.97,East,90,0.0,0.0,59,0.00,,---,0.00,VWS V14.01,2013-12-11 01:44:00,
2013-12-10 20:45:00,34.2,21.7,29.94,ENE,68,0.0,0.0,60,0.00,,---,0.00,VWS V14.01,2013-12-11 01:45:00,
2013-12-10 20:46:00,32.4,19.6,29.97,East,90,0.0,1.6,59,0.00,,---,0.00,VWS V14.01,2013-12-11 01:46:00,
2013-12-10 20:47:00,34.0,21.6,29.94,ENE,68,0.0,0.0,60,0.00,,---,0.00,VWS V14.01,2013-12-11 01:47:00,
2013-12-10 20:48:00,32.4,19.6,29.97,East,90,0.0,0.0,59,0.00,,---,0.00,VWS V14.01,2013-12-11 01:48:00,
2013-12-10 20:49:00,32.4,19.6,29.97,East,90,0.0,0.0,59,0.00,,---,0.00,VWS V14.01,2013-12-11 01:49:00,
2013-12-10 20:50:00,32.4,19.6,29.97,East,90,0.0,0.0,59,0.00,,---,0.00,VWS V14.01,2013-12-11 01:50:00,
2013-12-10 20:51:00,33.8,22.6,29.94,East,90,0.0,1.3,63,0.00,,---,0.00,VWS V14.01,2013-12-11 01:51:00,
2013-12-10 20:52:00,32.4,20.0,29.97,East,90,0.0,0.0,60,0.00,,---,0.00,VWS V14.01,2013-12-11 01:52:00,
2013-12-10 20:53:00,33.6,22.0,29.94,East,90,0.0,1.1,62,0.00,,---,0.00,VWS V14.01,2013-12-11 01:53:00,
2013-12-10 20:54:00,33.4,21.5,29.94,East,90,0.0,0.0,61,0.00,,---,0.00,VWS V14.01,2013-12-11 01:54:00,
2013-12-10 20:55:00,32.2,19.9,29.97,East,90,0.0,0.0,60,0.00,,---,0.00,VWS V14.01,2013-12-11 01:55:00,
2013-12-10 20:56:00,32.2,19.9,29.97,East,90,0.0,0.0,60,0.00,,---,0.00,VWS V14.01,2013-12-11 01:56:00,
2013-12-10 20:57:00,32.2,19.9,29.97,East,90,0.0,0.0,60,0.00,,---,0.00,VWS V14.01,2013-12-11 01:57:00,
2013-12-10 20:58:00,33.4,21.5,29.94,East,90,0.0,0.0,61,0.00,,---,0.00,VWS V14.01,2013-12-11 01:58:00,
2013-12-10 20:59:00,33.4,21.1,29.94,East,90,0.0,0.0,60,0.00,,---,0.00,VWS V14.01,2013-12-11 01:59:00,
2013-12-10 21:00:00,33.4,21.5,29.94,East,90,0.0,0.0,61,0.00,,---,0.00,VWS V14.01,2013-12-11 02:00:00,
2013-12-10 21:01:00,33.3,21.3,29.94,East,90,0.0,0.0,61,0.00,,---,0.00,VWS V14.01,2013-12-11 02:01:00,
2013-12-10 21:02:00,32.2,20.3,29.97,East,90,0.0,1.1,61,0.00,,---,0.00,VWS V14.01,2013-12-11 02:02:00,
2013-12-10 21:03:00,32.2,20.3,29.97,East,90,0.0,0.0,61,0.00,,---,0.00,VWS V14.01,2013-12-11 02:03:00,
2013-12-10 21:04:00,32.2,20.3,29.97,East,90,0.0,0.0,61,0.00,,---,0.00,VWS V14.01,2013-12-11 02:04:00,
2013-12-10 21:05:00,32.2,20.3,29.97,East,90,0.0,0.0,61,0.00,,---,0.00,VWS V14.01,2013-12-11 02:05:00,
2013-12-10 21:06:00,33.1,21.9,29.94,East,90,0.0,1.6,63,0.00,,---,0.00,VWS V14.01,2013-12-11 02:06:00,
2013-12-10 21:07:00,32.0,20.5,29.97,East,90,0.0,0.0,62,0.00,,---,0.00,VWS V14.01,2013-12-11 02:07:00,
2013-12-10 21:08:00,33.1,21.5,29.94,East,90,0.0,0.0,62,0.00,,---,0.00,VWS V14.01,2013-12-11 02:08:00,
2013-12-10 21:09:00,31.8,21.0,29.97,East,90,0.0,0.0,64,0.00,,---,0.00,VWS V14.01,2013-12-11 02:09:00,
2013-12-10 21:10:00,32.9,21.3,29.94,East,90,0.0,0.0,62,0.00,,---,0.00,VWS V14.01,2013-12-11 02:10:00,
2013-12-10 21:11:00,32.9,20.9,29.94,East,90,0.0,0.0,61,0.00,,---,0.00,VWS V14.01,2013-12-11 02:11:00,
2013-12-10 21:12:00,31.6,20.9,29.97,East,90,0.0,0.0,64,0.70,,---,0.70,VWS V14.01,2013-12-11 02:12:00,
2013-12-10 21:13:00,31.5,20.7,29.97,East,90,0.0,0.0,64,0.70,,---,0.70,VWS V14.01,2013-12-11 02:13:00,
2013-12-10 21:14:00,32.7,20.8,29.94,East,90,0.0,0.0,61,0.00,,---,0.00,VWS V14.01,2013-12-11 02:14:00,
2013-12-10 21:15:00,32.7,21.1,29.94,East,90,0.0,0.0,62,0.00,,---,0.00,VWS V14.01,2013-12-11 02:15:00,
2013-12-10 21:16:00,31.3,20.5,29.97,East,90,0.0,0.0,64,0.70,,---,0.70,VWS V14.01,2013-12-11 02:16:00,
2013-12-10 21:17:00,32.7,20.8,29.94,East,90,0.0,0.0,61,0.00,,---,0.00,VWS V14.01,2013-12-11 02:17:00,
2013-12-10 21:18:00,31.3,20.2,29.97,East,90,0.0,0.0,63,0.70,,---,0.70,VWS V14.01,2013-12-11 02:18:00,
2013-12-10 21:19:00,31.3,20.2,29.97,East,90,0.0,0.0,63,0.70,,---,0.70,VWS V14.01,2013-12-11 02:19:00,
2013-12-10 21:20:00,32.5,20.6,29.94,East,90,0.0,0.0,61,0.00,,---,0.00,VWS V14.01,2013-12-11 02:20:00,
2013-12-10 21:21:00,31.3,20.5,29.97,East,90,0.0,0.0,64,0.70,,---,0.70,VWS V14.01,2013-12-11 02:21:00,
2013-12-10 21:22:00,32.5,20.2,29.94,East,90,0.0,0.0,60,0.00,,---,0.00,VWS V14.01,2013-12-11 02:22:00,
2013-12-10 21:23:00,31.3,20.5,29.97,East,90,0.0,2.0,64,0.70,,---,0.70,VWS V14.01,2013-12-11 02:23:00,
2013-12-10 21:24:00,31.1,20.7,29.97,East,90,0.0,0.9,65,0.70,,---,0.70,VWS V14.01,2013-12-11 02:24:00,
2013-12-10 21:25:00,31.1,20.7,29.97,East,90,0.0,0.0,65,0.70,,---,0.70,VWS V14.01,2013-12-11 02:25:00,
2013-12-10 21:26:00,32.5,20.2,29.94,East,90,0.0,0.0,60,0.00,,---,0.00,VWS V14.01,2013-12-11 02:26:00,
2013-12-10 21:27:00,32.5,20.2,29.94,East,90,0.0,0.0,60,0.00,,---,0.00,VWS V14.01,2013-12-11 02:27:00,
2013-12-10 21:28:00,31.1,21.4,29.97,East,90,0.0,1.6,67,0.70,,---,0.70,VWS V14.01,2013-12-11 02:28:00,
2013-12-10 21:29:00,32.5,20.2,29.94,East,90,0.0,0.0,60,0.00,,---,0.00,VWS V14.01,2013-12-11 02:29:00,
2013-12-10 21:30:00,31.1,22.5,29.97,ESE,112,0.0,2.7,70,0.70,,---,0.70,VWS V14.01,2013-12-11 02:30:00,
2013-12-10 21:31:00,32.4,19.6,29.94,East,90,0.0,0.0,59,0.00,,---,0.00,VWS V14.01,2013-12-11 02:31:00,
2013-12-10 21:32:00,32.5,19.8,29.94,East,90,0.0,0.0,59,0.00,,---,0.00,VWS V14.01,2013-12-11 02:32:00,
2013-12-10 21:33:00,30.7,22.1,29.97,East,90,0.0,0.0,70,0.70,,---,0.70,VWS V14.01,2013-12-11 02:33:00,
2013-12-10 21:34:00,30.7,22.1,29.97,East,90,0.0,1.3,70,0.70,,---,0.70,VWS V14.01,2013-12-11 02:34:00,
2013-12-10 21:35:00,32.4,19.6,29.94,East,90,0.0,0.0,59,0.00,,---,0.00,VWS V14.01,2013-12-11 02:35:00,
2013-12-10 21:36:00,30.6,21.6,29.97,East,90,0.0,0.0,69,0.70,,---,0.70,VWS V14.01,2013-12-11 02:36:00,
2013-12-10 21:37:00,30.6,21.3,29.97,East,90,0.0,0.0,68,0.70,,---,0.70,VWS V14.01,2013-12-11 02:37:00,
2013-12-10 21:38:00,32.4,19.6,29.94,North,0,0.0,0.0,59,0.00,,---,0.00,VWS V14.01,2013-12-11 02:38:00,
2013-12-10 21:39:00,30.4,20.8,29.97,East,90,0.0,0.0,67,0.70,,---,0.70,VWS V14.01,2013-12-11 02:39:00,
2013-12-10 21:40:00,30.4,20.8,29.97,East,90,0.0,0.0,67,0.70,,---,0.70,VWS V14.01,2013-12-11 02:40:00,
2013-12-10 21:41:00,32.4,19.6,29.94,East,90,0.0,0.0,59,0.00,,---,0.00,VWS V14.01,2013-12-11 02:41:00,
2013-12-10 21:42:00,30.4,20.8,29.97,East,90,0.0,0.0,67,0.70,,---,0.70,VWS V14.01,2013-12-11 02:42:00,
2013-12-10 21:43:00,30.2,20.9,29.97,East,90,0.0,1.6,68,0.70,,---,0.70,VWS V14.01,2013-12-11 02:43:00,
2013-12-10 21:44:00,32.4,20.0,29.94,East,90,0.0,0.0,60,0.00,,---,0.00,VWS V14.01,2013-12-11 02:44:00,
2013-12-10 21:45:00,32.4,20.0,29.97,East,90,0.0,0.0,60,0.00,,---,0.00,VWS V14.01,2013-12-11 02:45:00,
2013-12-10 21:46:00,32.4,20.0,29.97,East,90,0.0,0.0,60,0.00,,---,0.00,VWS V14.01,2013-12-11 02:46:00,
2013-12-10 21:47:00,30.2,20.6,29.97,NNE,22,0.0,0.0,67,0.70,,---,0.70,VWS V14.01,2013-12-11 02:47:00,
2013-12-10 21:48:00,30.2,20.6,29.97,East,90,0.0,0.0,67,0.70,,---,0.70,VWS V14.01,2013-12-11 02:48:00,
2013-12-10 21:49:00,30.2,20.6,29.97,ESE,112,0.5,2.5,67,0.70,,---,0.70,VWS V14.01,2013-12-11 02:49:00,
2013-12-10 21:50:00,30.2,21.3,29.97,ESE,112,0.2,2.5,69,0.70,,---,0.70,VWS V14.01,2013-12-11 02:50:00,
2013-12-10 21:51:00,32.4,19.6,29.97,East,90,0.0,0.0,59,0.00,,---,0.00,VWS V14.01,2013-12-11 02:51:00,
2013-12-10 21:52:00,30.2,21.6,29.97,ENE,68,0.2,0.0,70,0.70,,---,0.70,VWS V14.01,2013-12-11 02:52:00,
2013-12-10 21:53:00,30.2,21.6,29.97,East,90,0.2,0.0,70,0.70,,---,0.70,VWS V14.01,2013-12-11 02:53:00,
2013-12-10 21:54:00,32.4,20.0,29.97,East,90,0.0,0.0,60,0.00,,---,0.00,VWS V14.01,2013-12-11 02:54:00,
2013-12-10 21:55:00,30.0,21.4,29.97,East,90,0.0,2.0,70,0.70,,---,0.70,VWS V14.01,2013-12-11 02:55:00,
2013-12-10 21:56:00,32.2,19.9,29.97,East,90,0.0,0.0,60,0.00,,---,0.00,VWS V14.01,2013-12-11 02:56:00,
2013-12-10 21:57:00,30.0,21.1,30.00,East,90,0.0,0.0,69,0.70,,---,0.70,VWS V14.01,2013-12-11 02:57:00,
2013-12-10 21:58:00,32.2,19.9,29.97,East,90,0.0,0.0,60,0.00,,---,0.00,VWS V14.01,2013-12-11 02:58:00,
2013-12-10 21:59:00,30.0,21.1,30.00,East,90,0.0,0.0,69,0.70,,---,0.70,VWS V14.01,2013-12-11 02:59:00,
2013-12-10 22:00:00,30.0,21.1,30.00,East,90,0.0,0.0,69,0.70,,---,0.70,VWS V14.01,2013-12-11 03:00:00,
2013-12-10 22:01:00,32.2,19.9,29.97,East,90,0.0,0.0,60,0.00,,---,0.00,VWS V14.01,2013-12-11 03:01:00,
2013-12-10 22:02:00,32.2,19.9,29.97,East,90,0.0,0.0,60,0.00,,---,0.00,VWS V14.01,2013-12-11 03:02:00,
2013-12-10 22:03:00,32.2,19.9,29.97,East,90,0.0,2.0,60,0.00,,---,0.00,VWS V14.01,2013-12-11 03:03:00,
2013-12-10 22:04:00,30.0,20.8,30.00,East,90,0.0,0.0,68,0.70,,---,0.70,VWS V14.01,2013-12-11 03:04:00,
2013-12-10 22:05:00,30.0,21.1,30.00,East,90,0.0,0.0,69,0.70,,---,0.70,VWS V14.01,2013-12-11 03:05:00,
2013-12-10 22:06:00,30.0,21.1,30.00,NNE,22,0.0,1.3,69,0.70,,---,0.70,VWS V14.01,2013-12-11 03:06:00,
2013-12-10 22:07:00,32.2,20.3,29.97,East,90,0.0,0.0,61,0.00,,---,0.00,VWS V14.01,2013-12-11 03:07:00,
2013-12-10 22:08:00,30.0,21.4,30.00,NE,45,0.0,0.0,70,0.70,,---,0.70,VWS V14.01,2013-12-11 03:08:00,
2013-12-10 22:09:00,30.0,21.4,30.00,East,90,0.0,0.0,70,0.70,,---,0.70,VWS V14.01,2013-12-11 03:09:00,
2013-12-10 22:10:00,32.0,20.5,29.97,East,90,0.0,0.0,62,0.00,,---,0.00,VWS V14.01,2013-12-11 03:10:00,
2013-12-10 22:11:00,32.0,20.9,29.97,East,90,0.0,0.0,63,0.00,,---,0.00,VWS V14.01,2013-12-11 03:11:00,
2013-12-10 22:12:00,31.8,21.0,29.97,East,90,0.0,0.0,64,0.00,,---,0.00,VWS V14.01,2013-12-11 03:12:00,
2013-12-10 22:13:00,30.0,22.1,30.00,ESE,112,0.0,2.0,72,0.00,,---,0.70,VWS V14.01,2013-12-11 03:13:00,
2013-12-10 22:14:00,30.0,22.1,29.97,ESE,112,0.2,2.2,72,0.00,,---,0.70,VWS V14.01,2013-12-11 03:14:00,
2013-12-10 22:15:00,31.6,20.9,29.97,East,90,0.0,0.0,64,0.70,,---,0.70,VWS V14.01,2013-12-11 03:15:00,
2013-12-10 22:16:00,31.5,20.7,29.97,East,90,0.0,0.0,64,0.70,,---,0.70,VWS V14.01,2013-12-11 03:16:00,
2013-12-10 22:17:00,29.8,21.6,29.97,East,90,0.2,0.0,71,0.00,,---,0.70,VWS V14.01,2013-12-11 03:17:00,
2013-12-10 22:18:00,31.5,20.7,29.97,East,90,0.0,0.0,64,0.70,,---,0.70,VWS V14.01,2013-12-11 03:18:00,
2013-12-10 22:19:00,29.8,20.9,29.97,NW,315,0.2,0.0,69,0.00,,---,0.70,VWS V14.01,2013-12-11 03:19:00,
2013-12-10 22:20:00,29.8,20.9,29.97,NNE,22,0.2,0.0,69,0.00,,---,0.70,VWS V14.01,2013-12-11 03:20:00,
2013-12-10 22:21:00,29.8,20.9,29.97,ENE,68,0.2,0.0,69,0.00,,---,0.70,VWS V14.01,2013-12-11 03:21:00,
2013-12-10 22:22:00,30.0,20.8,29.97,ENE,68,0.2,0.0,68,0.00,,---,0.70,VWS V14.01,2013-12-11 03:22:00,
2013-12-10 22:23:00,31.3,20.5,29.97,East,90,0.0,0.0,64,0.70,,---,0.70,VWS V14.01,2013-12-11 03:23:00,
2013-12-10 22:24:00,30.0,20.8,29.97,NNE,22,0.2,1.6,68,0.00,,---,0.70,VWS V14.01,2013-12-11 03:24:00,
2013-12-10 22:25:00,31.3,20.5,29.97,East,90,0.0,2.2,64,0.70,,---,0.70,VWS V14.01,2013-12-11 03:25:00,
2013-12-10 22:26:00,30.0,20.8,29.97,ENE,68,0.2,1.6,68,0.00,,---,0.70,VWS V14.01,2013-12-11 03:26:00,
2013-12-10 22:27:00,30.0,20.8,30.00,ENE,68,0.2,1.3,68,0.00,,---,0.70,VWS V14.01,2013-12-11 03:27:00,
2013-12-10 22:28:00,31.1,20.7,29.97,East,90,0.0,0.0,65,0.70,,---,0.70,VWS V14.01,2013-12-11 03:28:00,
2013-12-10 22:29:00,31.1,20.7,29.97,East,90,0.0,1.1,65,0.70,,---,0.70,VWS V14.01,2013-12-11 03:29:00,
2013-12-10 22:30:00,30.2,21.3,30.00,East,90,0.0,2.2,69,0.00,,---,0.70,VWS V14.01,2013-12-11 03:30:00,
2013-12-10 22:31:00,30.2,21.6,30.00,East,90,0.0,1.6,70,0.00,,---,0.70,VWS V14.01,2013-12-11 03:31:00,
2013-12-10 22:32:00,31.1,22.1,29.97,ESE,112,0.7,2.7,69,0.70,,---,0.70,VWS V14.01,2013-12-11 03:32:00,
2013-12-10 22:33:00,30.0,21.8,30.00,East,90,0.0,0.0,71,0.00,,---,0.70,VWS V14.01,2013-12-11 03:33:00,
2013-12-10 22:34:00,30.9,22.3,29.97,ESE,112,0.0,0.9,70,0.70,,---,0.70,VWS V14.01,2013-12-11 03:34:00,
2013-12-10 22:35:00,30.0,21.8,30.00,East,90,0.0,0.0,71,0.00,,---,0.70,VWS V14.01,2013-12-11 03:35:00,
2013-12-10 22:36:00,30.7,22.1,29.97,East,90,0.0,0.0,70,0.70,,---,0.70,VWS V14.01,2013-12-11 03:36:00,
2013-12-10 22:37:00,30.0,21.4,30.00,East,90,0.0,0.0,70,0.00,,---,0.70,VWS V14.01,2013-12-11 03:37:00,
2013-12-10 22:38:00,30.0,21.4,30.00,East,90,0.0,0.0,70,0.00,,---,0.70,VWS V14.01,2013-12-11 03:38:00,
2013-12-10 22:39:00,30.0,21.4,30.00,East,90,0.0,0.0,70,0.00,,---,0.70,VWS V14.01,2013-12-11 03:39:00,
2013-12-10 22:40:00,30.6,21.3,29.97,East,90,0.0,0.0,68,0.70,,---,0.70,VWS V14.01,2013-12-11 03:40:00,
2013-12-10 22:41:00,30.6,21.3,29.97,East,90,0.0,0.0,68,0.70,,---,0.70,VWS V14.01,2013-12-11 03:41:00,
2013-12-10 22:42:00,29.8,20.9,30.00,East,90,0.0,0.0,69,0.00,,---,0.70,VWS V14.01,2013-12-11 03:42:00,
2013-12-10 22:43:00,30.4,20.8,29.97,East,90,0.0,0.0,67,0.70,,---,0.70,VWS V14.01,2013-12-11 03:43:00,
2013-12-10 22:44:00,30.0,21.1,30.00,East,90,0.0,0.0,69,0.00,,---,0.70,VWS V14.01,2013-12-11 03:44:00,
2013-12-10 22:45:00,30.0,21.1,30.00,East,90,0.0,0.0,69,0.00,,---,0.70,VWS V14.01,2013-12-11 03:45:00,
2013-12-10 22:46:00,30.2,20.9,29.97,East,90,0.0,1.6,68,0.70,,---,0.70,VWS V14.01,2013-12-11 03:46:00,
2013-12-10 22:47:00,30.2,20.6,29.97,East,90,0.0,1.6,67,0.70,,---,0.70,VWS V14.01,2013-12-11 03:47:00,
2013-12-10 22:48:00,30.0,21.1,30.00,East,90,0.0,0.0,69,0.00,,---,0.70,VWS V14.01,2013-12-11 03:48:00,
2013-12-10 22:49:00,30.0,21.1,30.00,East,90,0.0,0.0,69,0.00,,---,0.70,VWS V14.01,2013-12-11 03:49:00,
2013-12-10 22:50:00,30.0,21.1,30.00,East,90,0.0,0.0,69,0.00,,---,0.70,VWS V14.01,2013-12-11 03:50:00,
2013-12-10 22:51:00,30.0,21.1,30.00,East,90,0.0,0.0,69,0.00,,---,0.70,VWS V14.01,2013-12-11 03:51:00,
2013-12-10 22:52:00,30.0,21.1,30.00,East,90,0.0,0.0,69,0.00,,---,0.70,VWS V14.01,2013-12-11 03:52:00,
2013-12-10 22:53:00,30.2,21.3,29.97,ESE,112,0.2,2.5,69,0.70,,---,0.70,VWS V14.01,2013-12-11 03:53:00,
2013-12-10 22:54:00,30.2,21.6,29.97,ESE,112,0.2,1.6,70,0.70,,---,0.70,VWS V14.01,2013-12-11 03:54:00,
2013-12-10 22:55:00,30.0,20.8,30.00,East,90,0.0,0.0,68,0.00,,---,0.70,VWS V14.01,2013-12-11 03:55:00,
2013-12-10 22:56:00,30.2,21.6,29.97,East,90,0.2,0.0,70,0.70,,---,0.70,VWS V14.01,2013-12-11 03:56:00,
2013-12-10 22:57:00,30.0,20.4,30.00,East,90,0.0,0.9,67,0.00,,---,0.00,VWS V14.01,2013-12-11 03:57:00,
2013-12-10 22:58:00,30.0,20.4,30.00,East,90,0.0,2.2,67,0.00,,---,0.00,VWS V14.01,2013-12-11 03:58:00,
2013-12-10 22:59:00,30.0,20.4,30.00,East,90,0.0,1.3,67,0.00,,---,0.00,VWS V14.01,2013-12-11 03:59:00,
2013-12-10 23:00:00,30.0,20.4,30.00,East,90,0.0,1.1,67,0.00,,---,0.00,VWS V14.01,2013-12-11 04:00:00,
2013-12-10 23:01:00,30.0,20.4,30.00,East,90,0.0,0.0,67,0.00,,---,0.00,VWS V14.01,2013-12-11 04:01:00,
2013-12-10 23:02:00,30.0,20.0,30.00,East,90,0.0,0.0,66,0.00,,---,0.00,VWS V14.01,2013-12-11 04:02:00,
2013-12-10 23:03:00,30.0,21.1,30.00,East,90,0.0,0.0,69,0.70,,---,0.70,VWS V14.01,2013-12-11 04:03:00,
2013-12-10 23:04:00,30.0,21.1,30.00,East,90,0.0,0.0,69,0.70,,---,0.70,VWS V14.01,2013-12-11 04:04:00,
2013-12-10 23:05:00,30.2,19.1,30.00,East,90,0.0,0.0,63,0.00,,---,0.00,VWS V14.01,2013-12-11 04:05:00,
2013-12-10 23:06:00,30.2,19.1,30.00,East,90,0.0,0.0,63,0.00,,---,0.00,VWS V14.01,2013-12-11 04:06:00,
2013-12-10 23:07:00,30.2,19.1,30.00,East,90,0.0,0.0,63,0.00,,---,0.00,VWS V14.01,2013-12-11 04:07:00,
2013-12-10 23:08:00,30.0,21.1,30.00,East,90,0.0,0.0,69,0.70,,---,0.70,VWS V14.01,2013-12-11 04:08:00,
2013-12-10 23:09:00,30.4,19.3,30.00,East,90,0.0,0.0,63,0.00,,---,0.00,VWS V14.01,2013-12-11 04:09:00,
2013-12-10 23:10:00,30.0,21.1,30.00,NE,45,0.0,2.0,69,0.70,,---,0.70,VWS V14.01,2013-12-11 04:10:00,
2013-12-10 23:11:00,30.0,21.4,30.00,NE,45,0.0,0.0,70,0.70,,---,0.70,VWS V14.01,2013-12-11 04:11:00,
2013-12-10 23:12:00,30.4,19.3,30.00,NNW,338,0.0,2.0,63,0.00,,---,0.00,VWS V14.01,2013-12-11 04:12:00,
2013-12-10 23:13:00,30.4,18.9,30.00,NNW,338,0.0,0.0,62,0.00,,---,0.00,VWS V14.01,2013-12-11 04:13:00,
2013-12-10 23:14:00,30.0,21.8,30.00,ESE,112,0.0,2.5,71,0.00,,---,0.70,VWS V14.01,2013-12-11 04:14:00,
2013-12-10 23:16:00,30.0,22.1,30.00,ESE,112,0.0,2.0,72,0.00,,---,0.70,VWS V14.01,2013-12-11 04:16:00,
2013-12-10 23:17:00,30.2,18.4,30.00,NNW,338,0.0,0.0,61,0.00,,---,0.00,VWS V14.01,2013-12-11 04:17:00,
2013-12-10 23:18:00,30.4,18.6,30.00,NNW,338,0.0,0.0,61,0.00,,---,0.00,VWS V14.01,2013-12-11 04:18:00,
2013-12-10 23:19:00,30.4,18.6,30.00,NNW,338,0.0,0.0,61,0.00,,---,0.00,VWS V14.01,2013-12-11 04:19:00,
2013-12-10 23:20:00,29.8,21.6,29.97,East,90,0.2,0.0,71,0.00,,---,0.70,VWS V14.01,2013-12-11 04:20:00,
2013-12-10 23:21:00,29.8,21.3,29.97,NNE,22,0.2,0.0,70,0.00,,---,0.70,VWS V14.01,2013-12-11 04:21:00,
2013-12-10 23:22:00,30.4,19.3,30.00,NNW,338,0.0,0.0,63,0.00,,---,0.00,VWS V14.01,2013-12-11 04:22:00,
2013-12-10 23:23:00,30.2,19.5,30.00,NNW,338,0.0,0.0,64,0.00,,---,0.00,VWS V14.01,2013-12-11 04:23:00,
2013-12-10 23:24:00,30.2,19.5,30.00,NNW,338,0.0,1.3,64,0.00,,---,0.00,VWS V14.01,2013-12-11 04:24:00,
2013-12-10 23:25:00,30.0,20.8,29.97,ENE,68,0.2,0.0,68,0.00,,---,0.70,VWS V14.01,2013-12-11 04:25:00,
2013-12-10 23:26:00,30.2,19.9,30.00,NNE,22,0.0,0.0,65,0.00,,---,0.00,VWS V14.01,2013-12-11 04:26:00,
2013-12-10 23:27:00,30.0,20.8,29.97,NNE,22,0.2,1.6,68,0.00,,---,0.70,VWS V14.01,2013-12-11 04:27:00,
2013-12-10 23:28:00,30.0,20.8,29.97,ENE,68,0.2,1.6,68,0.00,,---,0.70,VWS V14.01,2013-12-11 04:28:00,
2013-12-10 23:29:00,30.0,20.8,29.97,ENE,68,0.2,1.6,68,0.00,,---,0.70,VWS V14.01,2013-12-11 04:29:00,
2013-12-10 23:30:00,30.2,20.2,30.00,NNE,22,0.0,0.0,66,0.00,,---,0.00,VWS V14.01,2013-12-11 04:30:00,
2013-12-10 23:31:00,30.2,20.2,30.00,NNE,22,0.0,0.0,66,0.00,,---,0.00,VWS V14.01,2013-12-11 04:31:00,
2013-12-10 23:32:00,30.2,20.2,30.00,NNE,22,0.0,0.0,66,0.00,,---,0.00,VWS V14.01,2013-12-11 04:32:00,
2013-12-10 23:33:00,30.2,20.2,30.00,NNE,22,0.0,0.0,66,0.00,,---,0.00,VWS V14.01,2013-12-11 04:33:00,
2013-12-10 23:34:00,30.2,21.6,30.00,East,90,0.0,1.6,70,0.00,,---,0.70,VWS V14.01,2013-12-11 04:34:00,
2013-12-10 23:35:00,30.0,21.8,30.00,East,90,0.0,0.0,71,0.00,,---,0.70,VWS V14.01,2013-12-11 04:35:00,
2013-12-10 23:36:00,30.0,21.8,30.00,East,90,0.0,0.0,71,0.00,,---,0.70,VWS V14.01,2013-12-11 04:36:00,
2013-12-10 23:37:00,30.2,20.2,30.00,NNE,22,0.0,0.0,66,0.00,,---,0.00,VWS V14.01,2013-12-11 04:37:00,
2013-12-10 23:38:00,30.0,20.0,30.00,NNE,22,0.0,0.0,66,0.00,,---,0.00,VWS V14.01,2013-12-11 04:38:00,
2013-12-10 23:39:00,30.0,20.0,30.00,NNE,22,0.0,0.0,66,0.00,,---,0.00,VWS V14.01,2013-12-11 04:39:00,
2013-12-10 23:40:00,30.0,20.0,30.00,NNE,22,0.0,0.0,66,0.00,,---,0.00,VWS V14.01,2013-12-11 04:40:00,
2013-12-10 23:41:00,30.0,20.0,30.00,NNW,338,0.0,0.0,66,0.00,,---,0.00,VWS V14.01,2013-12-11 04:41:00,
2013-12-10 23:42:00,30.0,21.4,30.00,East,90,0.0,0.0,70,0.00,,---,0.70,VWS V14.01,2013-12-11 04:42:00,
2013-12-10 23:43:00,30.0,20.4,30.00,NNE,22,0.0,0.0,67,0.00,,---,0.00,VWS V14.01,2013-12-11 04:43:00,
2013-12-10 23:44:00,30.0,20.4,30.00,NNE,22,0.0,0.0,67,0.00,,---,0.00,VWS V14.01,2013-12-11 04:44:00,
2013-12-10 23:45:00,30.0,20.4,30.00,NNE,22,0.0,0.0,67,0.00,,---,0.00,VWS V14.01,2013-12-11 04:45:00,
2013-12-10 23:46:00,30.0,21.4,30.00,East,90,0.0,0.0,70,0.00,,---,0.70,VWS V14.01,2013-12-11 04:46:00,
2013-12-10 23:47:00,29.8,20.2,30.00,NE,45,0.0,0.0,67,0.00,,---,0.00,VWS V14.01,2013-12-11 04:47:00,
2013-12-10 23:48:00,29.8,20.2,30.00,NE,45,0.0,0.0,67,0.00,,---,0.00,VWS V14.01,2013-12-11 04:48:00,
2013-12-10 23:49:00,29.8,20.6,30.00,NE,45,0.0,0.0,68,0.00,,---,0.00,VWS V14.01,2013-12-11 04:49:00,
2013-12-10 23:50:00,30.0,21.1,30.00,East,90,0.0,0.0,69,0.00,,---,0.70,VWS V14.01,2013-12-11 04:50:00,
2013-12-10 23:51:00,30.0,21.1,30.00,East,90,0.0,0.0,69,0.00,,---,0.70,VWS V14.01,2013-12-11 04:51:00,
2013-12-10 23:52:00,29.7,20.4,30.00,NE,45,0.0,0.0,68,0.00,,---,0.00,VWS V14.01,2013-12-11 04:52:00,
2013-12-10 23:53:00,29.7,20.1,30.00,NE,45,0.0,0.0,67,0.00,,---,0.00,VWS V14.01,2013-12-11 04:53:00,
2013-12-10 23:54:00,29.5,19.9,30.00,NE,45,0.0,0.0,67,0.00,,---,0.00,VWS V14.01,2013-12-11 04:54:00,
2013-12-10 23:55:00,30.0,21.1,30.00,East,90,0.0,0.0,69,0.00,,---,0.70,VWS V14.01,2013-12-11 04:55:00,
2013-12-10 23:56:00,29.5,19.9,30.00,NE,45,0.0,0.0,67,0.00,,---,0.00,VWS V14.01,2013-12-11 04:56:00,
2013-12-10 23:57:00,30.0,21.4,30.00,East,90,0.0,0.0,70,0.00,,---,0.70,VWS V14.01,2013-12-11 04:57:00,
2013-12-10 23:58:00,30.0,20.8,30.00,East,90,0.0,0.0,68,0.00,,---,0.70,VWS V14.01,2013-12-11 04:58:00,
2013-12-10 23:59:00,29.5,19.9,30.00,NE,45,0.0,0.0,67,0.00,,---,0.00,VWS V14.01,2013-12-11 04:59:00,